<?xml version="1.0" encoding="UTF-8" standalone="no" ?>
<gpx xmlns="http://www.topografix.com/GPX/1/1" xmlns:xsi="http://www.w3.org/2001/XMLSchema-instance" xsi:schemaLocation="http://www.topografix.com/GPX/1/1 http://www.topografix.com/GPX/1/1/gpx.xsd" version="1.1" creator="VisuGPX - https://www.visugpx.com">
  <metadata>
    <name> Autour de Montchal</name>
    <desc><![CDATA[Le tour de Montchal.
De magnifiques vues à plus de 180 degrés.]]></desc>
  </metadata>
  <trk>
    <name><![CDATA[20190218193610-4vhwB]]></name>
    <trkseg>
      <trkpt lat="45.82566" lon="4.31434">
        <ele>688.826</ele>
        <time>2019-02-18T12:52:41Z</time>
      </trkpt>
      <trkpt lat="45.82558" lon="4.31438">
        <ele>687.656</ele>
        <time>2019-02-18T12:52:46Z</time>
      </trkpt>
      <trkpt lat="45.82558" lon="4.31438">
        <ele>687.563</ele>
        <time>2019-02-18T12:52:51Z</time>
      </trkpt>
      <trkpt lat="45.82556" lon="4.31445">
        <ele>687.798</ele>
        <time>2019-02-18T12:52:57Z</time>
      </trkpt>
      <trkpt lat="45.82555" lon="4.31457">
        <ele>687.954</ele>
        <time>2019-02-18T12:53:03Z</time>
      </trkpt>
      <trkpt lat="45.82555" lon="4.31467">
        <ele>688.229</ele>
        <time>2019-02-18T12:53:08Z</time>
      </trkpt>
      <trkpt lat="45.82556" lon="4.3147">
        <ele>688.628</ele>
        <time>2019-02-18T12:53:13Z</time>
      </trkpt>
      <trkpt lat="45.82557" lon="4.31478">
        <ele>688.83</ele>
        <time>2019-02-18T12:53:19Z</time>
      </trkpt>
      <trkpt lat="45.82557" lon="4.31478">
        <ele>688.619</ele>
        <time>2019-02-18T12:53:24Z</time>
      </trkpt>
      <trkpt lat="45.82556" lon="4.31487">
        <ele>688.888</ele>
        <time>2019-02-18T12:53:29Z</time>
      </trkpt>
      <trkpt lat="45.82555" lon="4.31486">
        <ele>688.902</ele>
        <time>2019-02-18T12:53:35Z</time>
      </trkpt>
      <trkpt lat="45.82555" lon="4.31487">
        <ele>688.956</ele>
        <time>2019-02-18T12:53:40Z</time>
      </trkpt>
      <trkpt lat="45.82555" lon="4.31487">
        <ele>688.942</ele>
        <time>2019-02-18T12:53:45Z</time>
      </trkpt>
      <trkpt lat="45.82555" lon="4.31487">
        <ele>689.229</ele>
        <time>2019-02-18T12:53:51Z</time>
      </trkpt>
      <trkpt lat="45.82554" lon="4.31487">
        <ele>690.223</ele>
        <time>2019-02-18T12:53:57Z</time>
      </trkpt>
      <trkpt lat="45.82553" lon="4.31488">
        <ele>690.586</ele>
        <time>2019-02-18T12:54:03Z</time>
      </trkpt>
      <trkpt lat="45.82553" lon="4.3149">
        <ele>690.761</ele>
        <time>2019-02-18T12:54:09Z</time>
      </trkpt>
      <trkpt lat="45.82552" lon="4.31488">
        <ele>690.901</ele>
        <time>2019-02-18T12:54:15Z</time>
      </trkpt>
      <trkpt lat="45.82551" lon="4.31487">
        <ele>691.327</ele>
        <time>2019-02-18T12:54:20Z</time>
      </trkpt>
      <trkpt lat="45.82551" lon="4.31487">
        <ele>692.223</ele>
        <time>2019-02-18T12:54:26Z</time>
      </trkpt>
      <trkpt lat="45.8255" lon="4.31487">
        <ele>692.572</ele>
        <time>2019-02-18T12:54:31Z</time>
      </trkpt>
      <trkpt lat="45.82552" lon="4.31486">
        <ele>692.823</ele>
        <time>2019-02-18T12:54:36Z</time>
      </trkpt>
      <trkpt lat="45.82553" lon="4.31486">
        <ele>692.532</ele>
        <time>2019-02-18T12:54:42Z</time>
      </trkpt>
      <trkpt lat="45.82553" lon="4.31487">
        <ele>691.328</ele>
        <time>2019-02-18T12:54:48Z</time>
      </trkpt>
      <trkpt lat="45.82556" lon="4.31488">
        <ele>689.387</ele>
        <time>2019-02-18T12:54:54Z</time>
      </trkpt>
      <trkpt lat="45.82558" lon="4.31493">
        <ele>688.168</ele>
        <time>2019-02-18T12:55:00Z</time>
      </trkpt>
      <trkpt lat="45.82561" lon="4.31501">
        <ele>687.665</ele>
        <time>2019-02-18T12:55:05Z</time>
      </trkpt>
      <trkpt lat="45.82565" lon="4.31508">
        <ele>687.682</ele>
        <time>2019-02-18T12:55:11Z</time>
      </trkpt>
      <trkpt lat="45.82566" lon="4.31512">
        <ele>687.322</ele>
        <time>2019-02-18T12:55:17Z</time>
      </trkpt>
      <trkpt lat="45.82568" lon="4.31516">
        <ele>686.915</ele>
        <time>2019-02-18T12:55:23Z</time>
      </trkpt>
      <trkpt lat="45.82571" lon="4.31522">
        <ele>686.768</ele>
        <time>2019-02-18T12:55:29Z</time>
      </trkpt>
      <trkpt lat="45.82574" lon="4.31528">
        <ele>686.569</ele>
        <time>2019-02-18T12:55:35Z</time>
      </trkpt>
      <trkpt lat="45.82578" lon="4.3153">
        <ele>686.308</ele>
        <time>2019-02-18T12:55:40Z</time>
      </trkpt>
      <trkpt lat="45.82585" lon="4.31535">
        <ele>685.884</ele>
        <time>2019-02-18T12:55:46Z</time>
      </trkpt>
      <trkpt lat="45.82588" lon="4.31539">
        <ele>685.781</ele>
        <time>2019-02-18T12:55:51Z</time>
      </trkpt>
      <trkpt lat="45.82592" lon="4.31544">
        <ele>685.773</ele>
        <time>2019-02-18T12:55:57Z</time>
      </trkpt>
      <trkpt lat="45.82595" lon="4.31547">
        <ele>685.962</ele>
        <time>2019-02-18T12:56:02Z</time>
      </trkpt>
      <trkpt lat="45.82602" lon="4.31553">
        <ele>686.228</ele>
        <time>2019-02-18T12:56:08Z</time>
      </trkpt>
      <trkpt lat="45.82607" lon="4.31557">
        <ele>686.207</ele>
        <time>2019-02-18T12:56:13Z</time>
      </trkpt>
      <trkpt lat="45.8261" lon="4.31561">
        <ele>686.367</ele>
        <time>2019-02-18T12:56:18Z</time>
      </trkpt>
      <trkpt lat="45.82616" lon="4.31565">
        <ele>686.398</ele>
        <time>2019-02-18T12:56:24Z</time>
      </trkpt>
      <trkpt lat="45.8262" lon="4.31572">
        <ele>686.965</ele>
        <time>2019-02-18T12:56:30Z</time>
      </trkpt>
      <trkpt lat="45.82624" lon="4.31579">
        <ele>687.311</ele>
        <time>2019-02-18T12:56:36Z</time>
      </trkpt>
      <trkpt lat="45.82628" lon="4.31585">
        <ele>687.8</ele>
        <time>2019-02-18T12:56:41Z</time>
      </trkpt>
      <trkpt lat="45.82633" lon="4.31592">
        <ele>688.455</ele>
        <time>2019-02-18T12:56:47Z</time>
      </trkpt>
      <trkpt lat="45.82635" lon="4.316">
        <ele>689.04</ele>
        <time>2019-02-18T12:56:52Z</time>
      </trkpt>
      <trkpt lat="45.8264" lon="4.31607">
        <ele>690.019</ele>
        <time>2019-02-18T12:56:58Z</time>
      </trkpt>
      <trkpt lat="45.8264" lon="4.31615">
        <ele>690.826</ele>
        <time>2019-02-18T12:57:03Z</time>
      </trkpt>
      <trkpt lat="45.82642" lon="4.31621">
        <ele>691.271</ele>
        <time>2019-02-18T12:57:09Z</time>
      </trkpt>
      <trkpt lat="45.82643" lon="4.31628">
        <ele>691.598</ele>
        <time>2019-02-18T12:57:14Z</time>
      </trkpt>
      <trkpt lat="45.82645" lon="4.3164">
        <ele>691.921</ele>
        <time>2019-02-18T12:57:20Z</time>
      </trkpt>
      <trkpt lat="45.82648" lon="4.31647">
        <ele>692.003</ele>
        <time>2019-02-18T12:57:26Z</time>
      </trkpt>
      <trkpt lat="45.82653" lon="4.31653">
        <ele>692.222</ele>
        <time>2019-02-18T12:57:32Z</time>
      </trkpt>
      <trkpt lat="45.82657" lon="4.31659">
        <ele>692.96</ele>
        <time>2019-02-18T12:57:37Z</time>
      </trkpt>
      <trkpt lat="45.82662" lon="4.31669">
        <ele>693.774</ele>
        <time>2019-02-18T12:57:43Z</time>
      </trkpt>
      <trkpt lat="45.82667" lon="4.3167">
        <ele>694.279</ele>
        <time>2019-02-18T12:57:49Z</time>
      </trkpt>
      <trkpt lat="45.82675" lon="4.31676">
        <ele>694.564</ele>
        <time>2019-02-18T12:57:55Z</time>
      </trkpt>
      <trkpt lat="45.82682" lon="4.31678">
        <ele>694.756</ele>
        <time>2019-02-18T12:58:00Z</time>
      </trkpt>
      <trkpt lat="45.82688" lon="4.31677">
        <ele>694.639</ele>
        <time>2019-02-18T12:58:06Z</time>
      </trkpt>
      <trkpt lat="45.82694" lon="4.31678">
        <ele>694.753</ele>
        <time>2019-02-18T12:58:12Z</time>
      </trkpt>
      <trkpt lat="45.82699" lon="4.31678">
        <ele>694.997</ele>
        <time>2019-02-18T12:58:17Z</time>
      </trkpt>
      <trkpt lat="45.82707" lon="4.31677">
        <ele>695.089</ele>
        <time>2019-02-18T12:58:23Z</time>
      </trkpt>
      <trkpt lat="45.82712" lon="4.31675">
        <ele>695.437</ele>
        <time>2019-02-18T12:58:28Z</time>
      </trkpt>
      <trkpt lat="45.82719" lon="4.31673">
        <ele>695.851</ele>
        <time>2019-02-18T12:58:33Z</time>
      </trkpt>
      <trkpt lat="45.82724" lon="4.31673">
        <ele>696.168</ele>
        <time>2019-02-18T12:58:38Z</time>
      </trkpt>
      <trkpt lat="45.8273" lon="4.31671">
        <ele>696.539</ele>
        <time>2019-02-18T12:58:45Z</time>
      </trkpt>
      <trkpt lat="45.82734" lon="4.3167">
        <ele>696.943</ele>
        <time>2019-02-18T12:58:50Z</time>
      </trkpt>
      <trkpt lat="45.82741" lon="4.31669">
        <ele>697.56</ele>
        <time>2019-02-18T12:58:56Z</time>
      </trkpt>
      <trkpt lat="45.82748" lon="4.31668">
        <ele>698.263</ele>
        <time>2019-02-18T12:59:02Z</time>
      </trkpt>
      <trkpt lat="45.82754" lon="4.31665">
        <ele>698.645</ele>
        <time>2019-02-18T12:59:07Z</time>
      </trkpt>
      <trkpt lat="45.8276" lon="4.31663">
        <ele>698.943</ele>
        <time>2019-02-18T12:59:13Z</time>
      </trkpt>
      <trkpt lat="45.82765" lon="4.31664">
        <ele>698.837</ele>
        <time>2019-02-18T12:59:18Z</time>
      </trkpt>
      <trkpt lat="45.8277" lon="4.31668">
        <ele>698.906</ele>
        <time>2019-02-18T12:59:23Z</time>
      </trkpt>
      <trkpt lat="45.82777" lon="4.31669">
        <ele>699.069</ele>
        <time>2019-02-18T12:59:29Z</time>
      </trkpt>
      <trkpt lat="45.82782" lon="4.3167">
        <ele>699.12</ele>
        <time>2019-02-18T12:59:35Z</time>
      </trkpt>
      <trkpt lat="45.82788" lon="4.31673">
        <ele>699.066</ele>
        <time>2019-02-18T12:59:40Z</time>
      </trkpt>
      <trkpt lat="45.82793" lon="4.31675">
        <ele>699.335</ele>
        <time>2019-02-18T12:59:45Z</time>
      </trkpt>
      <trkpt lat="45.82802" lon="4.31677">
        <ele>699.33</ele>
        <time>2019-02-18T12:59:51Z</time>
      </trkpt>
      <trkpt lat="45.82809" lon="4.31679">
        <ele>699.036</ele>
        <time>2019-02-18T12:59:57Z</time>
      </trkpt>
      <trkpt lat="45.82816" lon="4.3168">
        <ele>698.964</ele>
        <time>2019-02-18T13:00:03Z</time>
      </trkpt>
      <trkpt lat="45.82823" lon="4.31678">
        <ele>698.836</ele>
        <time>2019-02-18T13:00:09Z</time>
      </trkpt>
      <trkpt lat="45.82829" lon="4.31677">
        <ele>698.839</ele>
        <time>2019-02-18T13:00:14Z</time>
      </trkpt>
      <trkpt lat="45.82835" lon="4.31676">
        <ele>698.769</ele>
        <time>2019-02-18T13:00:19Z</time>
      </trkpt>
      <trkpt lat="45.82841" lon="4.31677">
        <ele>698.904</ele>
        <time>2019-02-18T13:00:24Z</time>
      </trkpt>
      <trkpt lat="45.82846" lon="4.31678">
        <ele>699.137</ele>
        <time>2019-02-18T13:00:29Z</time>
      </trkpt>
      <trkpt lat="45.82853" lon="4.31677">
        <ele>699.516</ele>
        <time>2019-02-18T13:00:34Z</time>
      </trkpt>
      <trkpt lat="45.82859" lon="4.31677">
        <ele>699.865</ele>
        <time>2019-02-18T13:00:40Z</time>
      </trkpt>
      <trkpt lat="45.82864" lon="4.31677">
        <ele>700.214</ele>
        <time>2019-02-18T13:00:46Z</time>
      </trkpt>
      <trkpt lat="45.8287" lon="4.31676">
        <ele>700.35</ele>
        <time>2019-02-18T13:00:51Z</time>
      </trkpt>
      <trkpt lat="45.82876" lon="4.31674">
        <ele>700.541</ele>
        <time>2019-02-18T13:00:57Z</time>
      </trkpt>
      <trkpt lat="45.82885" lon="4.31674">
        <ele>700.231</ele>
        <time>2019-02-18T13:01:02Z</time>
      </trkpt>
      <trkpt lat="45.82892" lon="4.31674">
        <ele>700.16</ele>
        <time>2019-02-18T13:01:08Z</time>
      </trkpt>
      <trkpt lat="45.82898" lon="4.31675">
        <ele>700.172</ele>
        <time>2019-02-18T13:01:15Z</time>
      </trkpt>
      <trkpt lat="45.82903" lon="4.31677">
        <ele>699.844</ele>
        <time>2019-02-18T13:01:20Z</time>
      </trkpt>
      <trkpt lat="45.82912" lon="4.31678">
        <ele>699.228</ele>
        <time>2019-02-18T13:01:26Z</time>
      </trkpt>
      <trkpt lat="45.82917" lon="4.31678">
        <ele>698.85</ele>
        <time>2019-02-18T13:01:31Z</time>
      </trkpt>
      <trkpt lat="45.82921" lon="4.31678">
        <ele>698.377</ele>
        <time>2019-02-18T13:01:36Z</time>
      </trkpt>
      <trkpt lat="45.82928" lon="4.31682">
        <ele>698.084</ele>
        <time>2019-02-18T13:01:42Z</time>
      </trkpt>
      <trkpt lat="45.82934" lon="4.31681">
        <ele>697.872</ele>
        <time>2019-02-18T13:01:47Z</time>
      </trkpt>
      <trkpt lat="45.82941" lon="4.31684">
        <ele>697.832</ele>
        <time>2019-02-18T13:01:53Z</time>
      </trkpt>
      <trkpt lat="45.82949" lon="4.31687">
        <ele>698.053</ele>
        <time>2019-02-18T13:01:59Z</time>
      </trkpt>
      <trkpt lat="45.82955" lon="4.31688">
        <ele>698.083</ele>
        <time>2019-02-18T13:02:04Z</time>
      </trkpt>
      <trkpt lat="45.8296" lon="4.31692">
        <ele>697.625</ele>
        <time>2019-02-18T13:02:10Z</time>
      </trkpt>
      <trkpt lat="45.82968" lon="4.31696">
        <ele>697.392</ele>
        <time>2019-02-18T13:02:16Z</time>
      </trkpt>
      <trkpt lat="45.82973" lon="4.31699">
        <ele>697.615</ele>
        <time>2019-02-18T13:02:21Z</time>
      </trkpt>
      <trkpt lat="45.82977" lon="4.31701">
        <ele>697.896</ele>
        <time>2019-02-18T13:02:27Z</time>
      </trkpt>
      <trkpt lat="45.82985" lon="4.31706">
        <ele>697.914</ele>
        <time>2019-02-18T13:02:32Z</time>
      </trkpt>
      <trkpt lat="45.8299" lon="4.31711">
        <ele>698.074</ele>
        <time>2019-02-18T13:02:38Z</time>
      </trkpt>
      <trkpt lat="45.82997" lon="4.31713">
        <ele>698.311</ele>
        <time>2019-02-18T13:02:43Z</time>
      </trkpt>
      <trkpt lat="45.83002" lon="4.31716">
        <ele>698.484</ele>
        <time>2019-02-18T13:02:48Z</time>
      </trkpt>
      <trkpt lat="45.83007" lon="4.31719">
        <ele>698.438</ele>
        <time>2019-02-18T13:02:53Z</time>
      </trkpt>
      <trkpt lat="45.83014" lon="4.31723">
        <ele>698.61</ele>
        <time>2019-02-18T13:02:59Z</time>
      </trkpt>
      <trkpt lat="45.8302" lon="4.31728">
        <ele>699.249</ele>
        <time>2019-02-18T13:03:05Z</time>
      </trkpt>
      <trkpt lat="45.83026" lon="4.3173">
        <ele>699.976</ele>
        <time>2019-02-18T13:03:11Z</time>
      </trkpt>
      <trkpt lat="45.83031" lon="4.31734">
        <ele>699.992</ele>
        <time>2019-02-18T13:03:16Z</time>
      </trkpt>
      <trkpt lat="45.83037" lon="4.31739">
        <ele>700.066</ele>
        <time>2019-02-18T13:03:22Z</time>
      </trkpt>
      <trkpt lat="45.83042" lon="4.31744">
        <ele>700.715</ele>
        <time>2019-02-18T13:03:27Z</time>
      </trkpt>
      <trkpt lat="45.83046" lon="4.31747">
        <ele>701.228</ele>
        <time>2019-02-18T13:03:33Z</time>
      </trkpt>
      <trkpt lat="45.83047" lon="4.31749">
        <ele>701.314</ele>
        <time>2019-02-18T13:03:38Z</time>
      </trkpt>
      <trkpt lat="45.83051" lon="4.3175">
        <ele>701.501</ele>
        <time>2019-02-18T13:03:44Z</time>
      </trkpt>
      <trkpt lat="45.83052" lon="4.31753">
        <ele>701.927</ele>
        <time>2019-02-18T13:03:50Z</time>
      </trkpt>
      <trkpt lat="45.83056" lon="4.3176">
        <ele>702.031</ele>
        <time>2019-02-18T13:03:56Z</time>
      </trkpt>
      <trkpt lat="45.8306" lon="4.31763">
        <ele>702.183</ele>
        <time>2019-02-18T13:04:02Z</time>
      </trkpt>
      <trkpt lat="45.83066" lon="4.31767">
        <ele>702.686</ele>
        <time>2019-02-18T13:04:08Z</time>
      </trkpt>
      <trkpt lat="45.83072" lon="4.3177">
        <ele>703.095</ele>
        <time>2019-02-18T13:04:13Z</time>
      </trkpt>
      <trkpt lat="45.83076" lon="4.31774">
        <ele>703.757</ele>
        <time>2019-02-18T13:04:19Z</time>
      </trkpt>
      <trkpt lat="45.83078" lon="4.31774">
        <ele>704.372</ele>
        <time>2019-02-18T13:04:24Z</time>
      </trkpt>
      <trkpt lat="45.83084" lon="4.31772">
        <ele>705.025</ele>
        <time>2019-02-18T13:04:30Z</time>
      </trkpt>
      <trkpt lat="45.83087" lon="4.3177">
        <ele>705.544</ele>
        <time>2019-02-18T13:04:35Z</time>
      </trkpt>
      <trkpt lat="45.83094" lon="4.3177">
        <ele>705.885</ele>
        <time>2019-02-18T13:04:41Z</time>
      </trkpt>
      <trkpt lat="45.83102" lon="4.31767">
        <ele>706.244</ele>
        <time>2019-02-18T13:04:47Z</time>
      </trkpt>
      <trkpt lat="45.83107" lon="4.31768">
        <ele>706.577</ele>
        <time>2019-02-18T13:04:52Z</time>
      </trkpt>
      <trkpt lat="45.83114" lon="4.31772">
        <ele>707.415</ele>
        <time>2019-02-18T13:04:58Z</time>
      </trkpt>
      <trkpt lat="45.83119" lon="4.31773">
        <ele>708.074</ele>
        <time>2019-02-18T13:05:04Z</time>
      </trkpt>
      <trkpt lat="45.83124" lon="4.31776">
        <ele>708.73</ele>
        <time>2019-02-18T13:05:10Z</time>
      </trkpt>
      <trkpt lat="45.8313" lon="4.31779">
        <ele>708.986</ele>
        <time>2019-02-18T13:05:15Z</time>
      </trkpt>
      <trkpt lat="45.83134" lon="4.31783">
        <ele>709.218</ele>
        <time>2019-02-18T13:05:20Z</time>
      </trkpt>
      <trkpt lat="45.8314" lon="4.31787">
        <ele>709.778</ele>
        <time>2019-02-18T13:05:25Z</time>
      </trkpt>
      <trkpt lat="45.83146" lon="4.3179">
        <ele>710.591</ele>
        <time>2019-02-18T13:05:31Z</time>
      </trkpt>
      <trkpt lat="45.83152" lon="4.31792">
        <ele>711.285</ele>
        <time>2019-02-18T13:05:36Z</time>
      </trkpt>
      <trkpt lat="45.83158" lon="4.31795">
        <ele>712.026</ele>
        <time>2019-02-18T13:05:41Z</time>
      </trkpt>
      <trkpt lat="45.83165" lon="4.31799">
        <ele>712.634</ele>
        <time>2019-02-18T13:05:47Z</time>
      </trkpt>
      <trkpt lat="45.83169" lon="4.318">
        <ele>713.135</ele>
        <time>2019-02-18T13:05:53Z</time>
      </trkpt>
      <trkpt lat="45.83174" lon="4.31804">
        <ele>713.624</ele>
        <time>2019-02-18T13:05:59Z</time>
      </trkpt>
      <trkpt lat="45.8318" lon="4.31812">
        <ele>713.595</ele>
        <time>2019-02-18T13:06:05Z</time>
      </trkpt>
      <trkpt lat="45.83183" lon="4.31822">
        <ele>713.687</ele>
        <time>2019-02-18T13:06:10Z</time>
      </trkpt>
      <trkpt lat="45.83184" lon="4.31829">
        <ele>713.785</ele>
        <time>2019-02-18T13:06:15Z</time>
      </trkpt>
      <trkpt lat="45.83185" lon="4.31838">
        <ele>714.115</ele>
        <time>2019-02-18T13:06:21Z</time>
      </trkpt>
      <trkpt lat="45.83188" lon="4.31846">
        <ele>713.759</ele>
        <time>2019-02-18T13:06:27Z</time>
      </trkpt>
      <trkpt lat="45.8319" lon="4.31855">
        <ele>713.396</ele>
        <time>2019-02-18T13:06:32Z</time>
      </trkpt>
      <trkpt lat="45.83189" lon="4.31864">
        <ele>712.882</ele>
        <time>2019-02-18T13:06:37Z</time>
      </trkpt>
      <trkpt lat="45.83192" lon="4.31869">
        <ele>712.81</ele>
        <time>2019-02-18T13:06:43Z</time>
      </trkpt>
      <trkpt lat="45.83198" lon="4.31878">
        <ele>712.526</ele>
        <time>2019-02-18T13:06:49Z</time>
      </trkpt>
      <trkpt lat="45.83205" lon="4.31884">
        <ele>712.529</ele>
        <time>2019-02-18T13:06:55Z</time>
      </trkpt>
      <trkpt lat="45.8321" lon="4.31887">
        <ele>712.853</ele>
        <time>2019-02-18T13:07:00Z</time>
      </trkpt>
      <trkpt lat="45.83214" lon="4.31888">
        <ele>713.448</ele>
        <time>2019-02-18T13:07:06Z</time>
      </trkpt>
      <trkpt lat="45.83218" lon="4.31892">
        <ele>713.942</ele>
        <time>2019-02-18T13:07:12Z</time>
      </trkpt>
      <trkpt lat="45.83222" lon="4.31896">
        <ele>714.629</ele>
        <time>2019-02-18T13:07:17Z</time>
      </trkpt>
      <trkpt lat="45.83226" lon="4.31902">
        <ele>715.248</ele>
        <time>2019-02-18T13:07:23Z</time>
      </trkpt>
      <trkpt lat="45.83231" lon="4.31911">
        <ele>715.559</ele>
        <time>2019-02-18T13:07:28Z</time>
      </trkpt>
      <trkpt lat="45.83238" lon="4.3192">
        <ele>715.644</ele>
        <time>2019-02-18T13:07:34Z</time>
      </trkpt>
      <trkpt lat="45.83242" lon="4.31923">
        <ele>715.652</ele>
        <time>2019-02-18T13:07:39Z</time>
      </trkpt>
      <trkpt lat="45.83245" lon="4.31927">
        <ele>716.158</ele>
        <time>2019-02-18T13:07:45Z</time>
      </trkpt>
      <trkpt lat="45.83249" lon="4.31934">
        <ele>716.587</ele>
        <time>2019-02-18T13:07:50Z</time>
      </trkpt>
      <trkpt lat="45.83254" lon="4.31937">
        <ele>717.134</ele>
        <time>2019-02-18T13:07:56Z</time>
      </trkpt>
      <trkpt lat="45.83257" lon="4.3194">
        <ele>717.752</ele>
        <time>2019-02-18T13:08:01Z</time>
      </trkpt>
      <trkpt lat="45.83263" lon="4.31949">
        <ele>718.481</ele>
        <time>2019-02-18T13:08:07Z</time>
      </trkpt>
      <trkpt lat="45.83266" lon="4.31953">
        <ele>718.832</ele>
        <time>2019-02-18T13:08:12Z</time>
      </trkpt>
      <trkpt lat="45.83272" lon="4.31958">
        <ele>719.419</ele>
        <time>2019-02-18T13:08:18Z</time>
      </trkpt>
      <trkpt lat="45.83277" lon="4.31964">
        <ele>720.414</ele>
        <time>2019-02-18T13:08:24Z</time>
      </trkpt>
      <trkpt lat="45.83281" lon="4.31968">
        <ele>721.142</ele>
        <time>2019-02-18T13:08:29Z</time>
      </trkpt>
      <trkpt lat="45.83285" lon="4.31974">
        <ele>721.948</ele>
        <time>2019-02-18T13:08:35Z</time>
      </trkpt>
      <trkpt lat="45.83288" lon="4.31981">
        <ele>722.296</ele>
        <time>2019-02-18T13:08:41Z</time>
      </trkpt>
      <trkpt lat="45.83292" lon="4.31988">
        <ele>722.552</ele>
        <time>2019-02-18T13:08:46Z</time>
      </trkpt>
      <trkpt lat="45.83295" lon="4.31995">
        <ele>723.129</ele>
        <time>2019-02-18T13:08:52Z</time>
      </trkpt>
      <trkpt lat="45.83299" lon="4.32002">
        <ele>723.509</ele>
        <time>2019-02-18T13:08:57Z</time>
      </trkpt>
      <trkpt lat="45.83302" lon="4.32007">
        <ele>724.109</ele>
        <time>2019-02-18T13:09:03Z</time>
      </trkpt>
      <trkpt lat="45.83305" lon="4.32015">
        <ele>724.669</ele>
        <time>2019-02-18T13:09:09Z</time>
      </trkpt>
      <trkpt lat="45.83306" lon="4.32019">
        <ele>725.075</ele>
        <time>2019-02-18T13:09:14Z</time>
      </trkpt>
      <trkpt lat="45.83308" lon="4.32027">
        <ele>725.736</ele>
        <time>2019-02-18T13:09:20Z</time>
      </trkpt>
      <trkpt lat="45.83311" lon="4.32033">
        <ele>726.57</ele>
        <time>2019-02-18T13:09:26Z</time>
      </trkpt>
      <trkpt lat="45.83312" lon="4.32042">
        <ele>727.37</ele>
        <time>2019-02-18T13:09:32Z</time>
      </trkpt>
      <trkpt lat="45.83315" lon="4.32047">
        <ele>728.145</ele>
        <time>2019-02-18T13:09:37Z</time>
      </trkpt>
      <trkpt lat="45.83317" lon="4.32054">
        <ele>728.781</ele>
        <time>2019-02-18T13:09:42Z</time>
      </trkpt>
      <trkpt lat="45.83318" lon="4.32061">
        <ele>729.772</ele>
        <time>2019-02-18T13:09:48Z</time>
      </trkpt>
      <trkpt lat="45.83319" lon="4.32068">
        <ele>730.64</ele>
        <time>2019-02-18T13:09:53Z</time>
      </trkpt>
      <trkpt lat="45.83319" lon="4.32074">
        <ele>731.508</ele>
        <time>2019-02-18T13:09:59Z</time>
      </trkpt>
      <trkpt lat="45.83318" lon="4.32076">
        <ele>732.341</ele>
        <time>2019-02-18T13:10:04Z</time>
      </trkpt>
      <trkpt lat="45.83317" lon="4.32078">
        <ele>732.871</ele>
        <time>2019-02-18T13:10:09Z</time>
      </trkpt>
      <trkpt lat="45.83316" lon="4.32078">
        <ele>733.449</ele>
        <time>2019-02-18T13:10:14Z</time>
      </trkpt>
      <trkpt lat="45.83315" lon="4.32079">
        <ele>734.014</ele>
        <time>2019-02-18T13:10:20Z</time>
      </trkpt>
      <trkpt lat="45.83315" lon="4.32079">
        <ele>734.786</ele>
        <time>2019-02-18T13:10:25Z</time>
      </trkpt>
      <trkpt lat="45.83314" lon="4.32077">
        <ele>735.202</ele>
        <time>2019-02-18T13:10:31Z</time>
      </trkpt>
      <trkpt lat="45.83316" lon="4.32078">
        <ele>735.481</ele>
        <time>2019-02-18T13:10:37Z</time>
      </trkpt>
      <trkpt lat="45.83317" lon="4.32078">
        <ele>735.906</ele>
        <time>2019-02-18T13:10:43Z</time>
      </trkpt>
      <trkpt lat="45.83318" lon="4.32077">
        <ele>736.054</ele>
        <time>2019-02-18T13:10:49Z</time>
      </trkpt>
      <trkpt lat="45.83319" lon="4.32078">
        <ele>736.154</ele>
        <time>2019-02-18T13:10:54Z</time>
      </trkpt>
      <trkpt lat="45.8332" lon="4.3208">
        <ele>736.648</ele>
        <time>2019-02-18T13:10:59Z</time>
      </trkpt>
      <trkpt lat="45.83323" lon="4.32083">
        <ele>737.26</ele>
        <time>2019-02-18T13:11:05Z</time>
      </trkpt>
      <trkpt lat="45.83326" lon="4.32085">
        <ele>737.623</ele>
        <time>2019-02-18T13:11:11Z</time>
      </trkpt>
      <trkpt lat="45.83329" lon="4.32086">
        <ele>737.682</ele>
        <time>2019-02-18T13:11:17Z</time>
      </trkpt>
      <trkpt lat="45.83333" lon="4.32089">
        <ele>737.968</ele>
        <time>2019-02-18T13:11:23Z</time>
      </trkpt>
      <trkpt lat="45.83337" lon="4.32091">
        <ele>738.68</ele>
        <time>2019-02-18T13:11:29Z</time>
      </trkpt>
      <trkpt lat="45.83341" lon="4.32094">
        <ele>739.264</ele>
        <time>2019-02-18T13:11:34Z</time>
      </trkpt>
      <trkpt lat="45.83345" lon="4.32098">
        <ele>739.858</ele>
        <time>2019-02-18T13:11:39Z</time>
      </trkpt>
      <trkpt lat="45.83347" lon="4.32099">
        <ele>740.661</ele>
        <time>2019-02-18T13:11:44Z</time>
      </trkpt>
      <trkpt lat="45.83351" lon="4.32102">
        <ele>741.126</ele>
        <time>2019-02-18T13:11:50Z</time>
      </trkpt>
      <trkpt lat="45.83355" lon="4.32105">
        <ele>741.362</ele>
        <time>2019-02-18T13:11:55Z</time>
      </trkpt>
      <trkpt lat="45.8336" lon="4.32108">
        <ele>741.868</ele>
        <time>2019-02-18T13:12:01Z</time>
      </trkpt>
      <trkpt lat="45.83366" lon="4.32111">
        <ele>742.534</ele>
        <time>2019-02-18T13:12:07Z</time>
      </trkpt>
      <trkpt lat="45.83369" lon="4.32113">
        <ele>743.023</ele>
        <time>2019-02-18T13:12:12Z</time>
      </trkpt>
      <trkpt lat="45.83371" lon="4.32115">
        <ele>743.518</ele>
        <time>2019-02-18T13:12:17Z</time>
      </trkpt>
      <trkpt lat="45.83374" lon="4.32119">
        <ele>743.987</ele>
        <time>2019-02-18T13:12:23Z</time>
      </trkpt>
      <trkpt lat="45.83377" lon="4.32123">
        <ele>744.277</ele>
        <time>2019-02-18T13:12:29Z</time>
      </trkpt>
      <trkpt lat="45.83381" lon="4.32129">
        <ele>744.789</ele>
        <time>2019-02-18T13:12:34Z</time>
      </trkpt>
      <trkpt lat="45.83383" lon="4.32134">
        <ele>745.189</ele>
        <time>2019-02-18T13:12:39Z</time>
      </trkpt>
      <trkpt lat="45.83385" lon="4.3214">
        <ele>745.584</ele>
        <time>2019-02-18T13:12:45Z</time>
      </trkpt>
      <trkpt lat="45.8339" lon="4.32146">
        <ele>746.439</ele>
        <time>2019-02-18T13:12:51Z</time>
      </trkpt>
      <trkpt lat="45.83393" lon="4.32151">
        <ele>747.457</ele>
        <time>2019-02-18T13:12:57Z</time>
      </trkpt>
      <trkpt lat="45.83396" lon="4.32158">
        <ele>748.556</ele>
        <time>2019-02-18T13:13:03Z</time>
      </trkpt>
      <trkpt lat="45.83398" lon="4.32161">
        <ele>749.462</ele>
        <time>2019-02-18T13:13:08Z</time>
      </trkpt>
      <trkpt lat="45.83399" lon="4.32167">
        <ele>750.747</ele>
        <time>2019-02-18T13:13:14Z</time>
      </trkpt>
      <trkpt lat="45.83402" lon="4.32173">
        <ele>751.579</ele>
        <time>2019-02-18T13:13:19Z</time>
      </trkpt>
      <trkpt lat="45.83404" lon="4.32179">
        <ele>752.382</ele>
        <time>2019-02-18T13:13:25Z</time>
      </trkpt>
      <trkpt lat="45.83407" lon="4.32183">
        <ele>753.022</ele>
        <time>2019-02-18T13:13:31Z</time>
      </trkpt>
      <trkpt lat="45.8341" lon="4.32187">
        <ele>753.624</ele>
        <time>2019-02-18T13:13:36Z</time>
      </trkpt>
      <trkpt lat="45.83413" lon="4.3219">
        <ele>754.496</ele>
        <time>2019-02-18T13:13:41Z</time>
      </trkpt>
      <trkpt lat="45.83418" lon="4.32195">
        <ele>755.138</ele>
        <time>2019-02-18T13:13:47Z</time>
      </trkpt>
      <trkpt lat="45.83424" lon="4.32199">
        <ele>755.595</ele>
        <time>2019-02-18T13:13:52Z</time>
      </trkpt>
      <trkpt lat="45.8343" lon="4.32202">
        <ele>755.924</ele>
        <time>2019-02-18T13:13:58Z</time>
      </trkpt>
      <trkpt lat="45.83435" lon="4.32206">
        <ele>756.635</ele>
        <time>2019-02-18T13:14:04Z</time>
      </trkpt>
      <trkpt lat="45.8344" lon="4.32211">
        <ele>757.362</ele>
        <time>2019-02-18T13:14:10Z</time>
      </trkpt>
      <trkpt lat="45.83445" lon="4.32215">
        <ele>758.186</ele>
        <time>2019-02-18T13:14:16Z</time>
      </trkpt>
      <trkpt lat="45.83452" lon="4.32216">
        <ele>758.902</ele>
        <time>2019-02-18T13:14:22Z</time>
      </trkpt>
      <trkpt lat="45.83457" lon="4.32216">
        <ele>759.409</ele>
        <time>2019-02-18T13:14:27Z</time>
      </trkpt>
      <trkpt lat="45.83461" lon="4.32215">
        <ele>760.247</ele>
        <time>2019-02-18T13:14:33Z</time>
      </trkpt>
      <trkpt lat="45.83468" lon="4.3222">
        <ele>760.835</ele>
        <time>2019-02-18T13:14:39Z</time>
      </trkpt>
      <trkpt lat="45.83469" lon="4.3223">
        <ele>761.28</ele>
        <time>2019-02-18T13:14:45Z</time>
      </trkpt>
      <trkpt lat="45.83468" lon="4.32237">
        <ele>761.973</ele>
        <time>2019-02-18T13:14:51Z</time>
      </trkpt>
      <trkpt lat="45.83465" lon="4.32243">
        <ele>762.709</ele>
        <time>2019-02-18T13:14:56Z</time>
      </trkpt>
      <trkpt lat="45.83461" lon="4.32248">
        <ele>763.484</ele>
        <time>2019-02-18T13:15:02Z</time>
      </trkpt>
      <trkpt lat="45.83458" lon="4.32254">
        <ele>764.397</ele>
        <time>2019-02-18T13:15:07Z</time>
      </trkpt>
      <trkpt lat="45.83455" lon="4.3226">
        <ele>765.317</ele>
        <time>2019-02-18T13:15:13Z</time>
      </trkpt>
      <trkpt lat="45.83453" lon="4.32266">
        <ele>766.248</ele>
        <time>2019-02-18T13:15:18Z</time>
      </trkpt>
      <trkpt lat="45.8345" lon="4.32274">
        <ele>767.189</ele>
        <time>2019-02-18T13:15:24Z</time>
      </trkpt>
      <trkpt lat="45.83447" lon="4.32278">
        <ele>767.936</ele>
        <time>2019-02-18T13:15:29Z</time>
      </trkpt>
      <trkpt lat="45.83442" lon="4.32283">
        <ele>769.006</ele>
        <time>2019-02-18T13:15:35Z</time>
      </trkpt>
      <trkpt lat="45.83437" lon="4.32289">
        <ele>769.746</ele>
        <time>2019-02-18T13:15:41Z</time>
      </trkpt>
      <trkpt lat="45.83431" lon="4.32294">
        <ele>770.674</ele>
        <time>2019-02-18T13:15:47Z</time>
      </trkpt>
      <trkpt lat="45.83427" lon="4.323">
        <ele>771.01</ele>
        <time>2019-02-18T13:15:52Z</time>
      </trkpt>
      <trkpt lat="45.83425" lon="4.32308">
        <ele>771.645</ele>
        <time>2019-02-18T13:15:57Z</time>
      </trkpt>
      <trkpt lat="45.83421" lon="4.32315">
        <ele>772.28</ele>
        <time>2019-02-18T13:16:02Z</time>
      </trkpt>
      <trkpt lat="45.83419" lon="4.3232">
        <ele>772.689</ele>
        <time>2019-02-18T13:16:08Z</time>
      </trkpt>
      <trkpt lat="45.83416" lon="4.32326">
        <ele>772.868</ele>
        <time>2019-02-18T13:16:13Z</time>
      </trkpt>
      <trkpt lat="45.83412" lon="4.32333">
        <ele>772.796</ele>
        <time>2019-02-18T13:16:19Z</time>
      </trkpt>
      <trkpt lat="45.8341" lon="4.32338">
        <ele>772.779</ele>
        <time>2019-02-18T13:16:24Z</time>
      </trkpt>
      <trkpt lat="45.83407" lon="4.32339">
        <ele>773.194</ele>
        <time>2019-02-18T13:16:30Z</time>
      </trkpt>
      <trkpt lat="45.83405" lon="4.32339">
        <ele>773.621</ele>
        <time>2019-02-18T13:16:35Z</time>
      </trkpt>
      <trkpt lat="45.83406" lon="4.32338">
        <ele>774.987</ele>
        <time>2019-02-18T13:16:41Z</time>
      </trkpt>
      <trkpt lat="45.83407" lon="4.32338">
        <ele>776.476</ele>
        <time>2019-02-18T13:16:47Z</time>
      </trkpt>
      <trkpt lat="45.83407" lon="4.32339">
        <ele>777.531</ele>
        <time>2019-02-18T13:16:52Z</time>
      </trkpt>
      <trkpt lat="45.83407" lon="4.3234">
        <ele>778.2</ele>
        <time>2019-02-18T13:16:57Z</time>
      </trkpt>
      <trkpt lat="45.83405" lon="4.32341">
        <ele>778.207</ele>
        <time>2019-02-18T13:17:03Z</time>
      </trkpt>
      <trkpt lat="45.83403" lon="4.32341">
        <ele>778.031</ele>
        <time>2019-02-18T13:17:08Z</time>
      </trkpt>
      <trkpt lat="45.83402" lon="4.32341">
        <ele>777.942</ele>
        <time>2019-02-18T13:17:14Z</time>
      </trkpt>
      <trkpt lat="45.83402" lon="4.32341">
        <ele>777.924</ele>
        <time>2019-02-18T13:17:19Z</time>
      </trkpt>
      <trkpt lat="45.83404" lon="4.32341">
        <ele>778.174</ele>
        <time>2019-02-18T13:17:25Z</time>
      </trkpt>
      <trkpt lat="45.83404" lon="4.32343">
        <ele>777.965</ele>
        <time>2019-02-18T13:17:30Z</time>
      </trkpt>
      <trkpt lat="45.83401" lon="4.32344">
        <ele>777.779</ele>
        <time>2019-02-18T13:17:36Z</time>
      </trkpt>
      <trkpt lat="45.83392" lon="4.32346">
        <ele>777.601</ele>
        <time>2019-02-18T13:17:41Z</time>
      </trkpt>
      <trkpt lat="45.83384" lon="4.32352">
        <ele>778.195</ele>
        <time>2019-02-18T13:17:47Z</time>
      </trkpt>
      <trkpt lat="45.83376" lon="4.32352">
        <ele>779.056</ele>
        <time>2019-02-18T13:17:52Z</time>
      </trkpt>
      <trkpt lat="45.83372" lon="4.32353">
        <ele>779.786</ele>
        <time>2019-02-18T13:17:57Z</time>
      </trkpt>
      <trkpt lat="45.83365" lon="4.32357">
        <ele>780.541</ele>
        <time>2019-02-18T13:18:03Z</time>
      </trkpt>
      <trkpt lat="45.83359" lon="4.32358">
        <ele>780.742</ele>
        <time>2019-02-18T13:18:08Z</time>
      </trkpt>
      <trkpt lat="45.8335" lon="4.32357">
        <ele>780.18</ele>
        <time>2019-02-18T13:18:14Z</time>
      </trkpt>
      <trkpt lat="45.83347" lon="4.32358">
        <ele>779.498</ele>
        <time>2019-02-18T13:18:19Z</time>
      </trkpt>
      <trkpt lat="45.83341" lon="4.32361">
        <ele>779.26</ele>
        <time>2019-02-18T13:18:25Z</time>
      </trkpt>
      <trkpt lat="45.83332" lon="4.32364">
        <ele>779.271</ele>
        <time>2019-02-18T13:18:31Z</time>
      </trkpt>
      <trkpt lat="45.83326" lon="4.32367">
        <ele>779.647</ele>
        <time>2019-02-18T13:18:37Z</time>
      </trkpt>
      <trkpt lat="45.83319" lon="4.32372">
        <ele>779.758</ele>
        <time>2019-02-18T13:18:42Z</time>
      </trkpt>
      <trkpt lat="45.83318" lon="4.32376">
        <ele>780.022</ele>
        <time>2019-02-18T13:18:47Z</time>
      </trkpt>
      <trkpt lat="45.83312" lon="4.32381">
        <ele>780.284</ele>
        <time>2019-02-18T13:18:53Z</time>
      </trkpt>
      <trkpt lat="45.83307" lon="4.32387">
        <ele>780.366</ele>
        <time>2019-02-18T13:18:58Z</time>
      </trkpt>
      <trkpt lat="45.83304" lon="4.32396">
        <ele>780.821</ele>
        <time>2019-02-18T13:19:04Z</time>
      </trkpt>
      <trkpt lat="45.83301" lon="4.32402">
        <ele>781.043</ele>
        <time>2019-02-18T13:19:09Z</time>
      </trkpt>
      <trkpt lat="45.83297" lon="4.32407">
        <ele>781.206</ele>
        <time>2019-02-18T13:19:14Z</time>
      </trkpt>
      <trkpt lat="45.83295" lon="4.32412">
        <ele>781.195</ele>
        <time>2019-02-18T13:19:19Z</time>
      </trkpt>
      <trkpt lat="45.83291" lon="4.32419">
        <ele>781.185</ele>
        <time>2019-02-18T13:19:25Z</time>
      </trkpt>
      <trkpt lat="45.83286" lon="4.32425">
        <ele>781.108</ele>
        <time>2019-02-18T13:19:30Z</time>
      </trkpt>
      <trkpt lat="45.83281" lon="4.32435">
        <ele>781.539</ele>
        <time>2019-02-18T13:19:36Z</time>
      </trkpt>
      <trkpt lat="45.83278" lon="4.32439">
        <ele>782.406</ele>
        <time>2019-02-18T13:19:41Z</time>
      </trkpt>
      <trkpt lat="45.83271" lon="4.32445">
        <ele>782.701</ele>
        <time>2019-02-18T13:19:46Z</time>
      </trkpt>
      <trkpt lat="45.83266" lon="4.3245">
        <ele>782.711</ele>
        <time>2019-02-18T13:19:52Z</time>
      </trkpt>
      <trkpt lat="45.83261" lon="4.32455">
        <ele>782.821</ele>
        <time>2019-02-18T13:19:58Z</time>
      </trkpt>
      <trkpt lat="45.83254" lon="4.32463">
        <ele>782.539</ele>
        <time>2019-02-18T13:20:04Z</time>
      </trkpt>
      <trkpt lat="45.8325" lon="4.3247">
        <ele>782.55</ele>
        <time>2019-02-18T13:20:09Z</time>
      </trkpt>
      <trkpt lat="45.83246" lon="4.32478">
        <ele>782.527</ele>
        <time>2019-02-18T13:20:15Z</time>
      </trkpt>
      <trkpt lat="45.83244" lon="4.3249">
        <ele>783.024</ele>
        <time>2019-02-18T13:20:21Z</time>
      </trkpt>
      <trkpt lat="45.8324" lon="4.32499">
        <ele>783.876</ele>
        <time>2019-02-18T13:20:27Z</time>
      </trkpt>
      <trkpt lat="45.83237" lon="4.32511">
        <ele>784.257</ele>
        <time>2019-02-18T13:20:33Z</time>
      </trkpt>
      <trkpt lat="45.83236" lon="4.32515">
        <ele>784.02</ele>
        <time>2019-02-18T13:20:38Z</time>
      </trkpt>
      <trkpt lat="45.83234" lon="4.3252">
        <ele>784.337</ele>
        <time>2019-02-18T13:20:44Z</time>
      </trkpt>
      <trkpt lat="45.83234" lon="4.32526">
        <ele>784.702</ele>
        <time>2019-02-18T13:20:49Z</time>
      </trkpt>
      <trkpt lat="45.83234" lon="4.32532">
        <ele>785.048</ele>
        <time>2019-02-18T13:20:55Z</time>
      </trkpt>
      <trkpt lat="45.83235" lon="4.32535">
        <ele>784.738</ele>
        <time>2019-02-18T13:21:00Z</time>
      </trkpt>
      <trkpt lat="45.83235" lon="4.32538">
        <ele>785.061</ele>
        <time>2019-02-18T13:21:06Z</time>
      </trkpt>
      <trkpt lat="45.83234" lon="4.32544">
        <ele>785.841</ele>
        <time>2019-02-18T13:21:12Z</time>
      </trkpt>
      <trkpt lat="45.83229" lon="4.32554">
        <ele>786.262</ele>
        <time>2019-02-18T13:21:17Z</time>
      </trkpt>
      <trkpt lat="45.83229" lon="4.32567">
        <ele>786.406</ele>
        <time>2019-02-18T13:21:23Z</time>
      </trkpt>
      <trkpt lat="45.83229" lon="4.32579">
        <ele>786.634</ele>
        <time>2019-02-18T13:21:29Z</time>
      </trkpt>
      <trkpt lat="45.8323" lon="4.3259">
        <ele>786.702</ele>
        <time>2019-02-18T13:21:35Z</time>
      </trkpt>
      <trkpt lat="45.83228" lon="4.32603">
        <ele>786.363</ele>
        <time>2019-02-18T13:21:41Z</time>
      </trkpt>
      <trkpt lat="45.83229" lon="4.32611">
        <ele>786.068</ele>
        <time>2019-02-18T13:21:47Z</time>
      </trkpt>
      <trkpt lat="45.83229" lon="4.32618">
        <ele>785.87</ele>
        <time>2019-02-18T13:21:53Z</time>
      </trkpt>
      <trkpt lat="45.83226" lon="4.32631">
        <ele>785.781</ele>
        <time>2019-02-18T13:21:59Z</time>
      </trkpt>
      <trkpt lat="45.83227" lon="4.32639">
        <ele>785.506</ele>
        <time>2019-02-18T13:22:04Z</time>
      </trkpt>
      <trkpt lat="45.83229" lon="4.32649">
        <ele>785.752</ele>
        <time>2019-02-18T13:22:10Z</time>
      </trkpt>
      <trkpt lat="45.83228" lon="4.32661">
        <ele>786.543</ele>
        <time>2019-02-18T13:22:16Z</time>
      </trkpt>
      <trkpt lat="45.83224" lon="4.32675">
        <ele>787.79</ele>
        <time>2019-02-18T13:22:22Z</time>
      </trkpt>
      <trkpt lat="45.83224" lon="4.32685">
        <ele>788.7</ele>
        <time>2019-02-18T13:22:28Z</time>
      </trkpt>
      <trkpt lat="45.83223" lon="4.32696">
        <ele>789.263</ele>
        <time>2019-02-18T13:22:34Z</time>
      </trkpt>
      <trkpt lat="45.83221" lon="4.32699">
        <ele>789.901</ele>
        <time>2019-02-18T13:22:40Z</time>
      </trkpt>
      <trkpt lat="45.83224" lon="4.32694">
        <ele>790.39</ele>
        <time>2019-02-18T13:22:45Z</time>
      </trkpt>
      <trkpt lat="45.83227" lon="4.32692">
        <ele>790.995</ele>
        <time>2019-02-18T13:22:51Z</time>
      </trkpt>
      <trkpt lat="45.83228" lon="4.3269">
        <ele>790.821</ele>
        <time>2019-02-18T13:22:56Z</time>
      </trkpt>
      <trkpt lat="45.83227" lon="4.32689">
        <ele>790.587</ele>
        <time>2019-02-18T13:23:02Z</time>
      </trkpt>
      <trkpt lat="45.83225" lon="4.32692">
        <ele>790.536</ele>
        <time>2019-02-18T13:23:07Z</time>
      </trkpt>
      <trkpt lat="45.83223" lon="4.32696">
        <ele>790.462</ele>
        <time>2019-02-18T13:23:12Z</time>
      </trkpt>
      <trkpt lat="45.83223" lon="4.32696">
        <ele>790.388</ele>
        <time>2019-02-18T13:23:18Z</time>
      </trkpt>
      <trkpt lat="45.83223" lon="4.32696">
        <ele>790.477</ele>
        <time>2019-02-18T13:23:23Z</time>
      </trkpt>
      <trkpt lat="45.83223" lon="4.32696">
        <ele>790.615</ele>
        <time>2019-02-18T13:23:29Z</time>
      </trkpt>
      <trkpt lat="45.83223" lon="4.32696">
        <ele>790.764</ele>
        <time>2019-02-18T13:23:35Z</time>
      </trkpt>
      <trkpt lat="45.83223" lon="4.32703">
        <ele>791.678</ele>
        <time>2019-02-18T13:23:41Z</time>
      </trkpt>
      <trkpt lat="45.83222" lon="4.32708">
        <ele>792.034</ele>
        <time>2019-02-18T13:23:46Z</time>
      </trkpt>
      <trkpt lat="45.83222" lon="4.32712">
        <ele>792.043</ele>
        <time>2019-02-18T13:23:51Z</time>
      </trkpt>
      <trkpt lat="45.83221" lon="4.32723">
        <ele>792.408</ele>
        <time>2019-02-18T13:23:57Z</time>
      </trkpt>
      <trkpt lat="45.83219" lon="4.32732">
        <ele>792.759</ele>
        <time>2019-02-18T13:24:02Z</time>
      </trkpt>
      <trkpt lat="45.83218" lon="4.32739">
        <ele>792.553</ele>
        <time>2019-02-18T13:24:08Z</time>
      </trkpt>
      <trkpt lat="45.83215" lon="4.32749">
        <ele>791.445</ele>
        <time>2019-02-18T13:24:14Z</time>
      </trkpt>
      <trkpt lat="45.83214" lon="4.32755">
        <ele>790.476</ele>
        <time>2019-02-18T13:24:20Z</time>
      </trkpt>
      <trkpt lat="45.83212" lon="4.32763">
        <ele>789.387</ele>
        <time>2019-02-18T13:24:26Z</time>
      </trkpt>
      <trkpt lat="45.83208" lon="4.32767">
        <ele>788.228</ele>
        <time>2019-02-18T13:24:32Z</time>
      </trkpt>
      <trkpt lat="45.83205" lon="4.32775">
        <ele>787.465</ele>
        <time>2019-02-18T13:24:37Z</time>
      </trkpt>
      <trkpt lat="45.83203" lon="4.32778">
        <ele>786.666</ele>
        <time>2019-02-18T13:24:42Z</time>
      </trkpt>
      <trkpt lat="45.832" lon="4.32783">
        <ele>785.707</ele>
        <time>2019-02-18T13:24:47Z</time>
      </trkpt>
      <trkpt lat="45.83196" lon="4.32794">
        <ele>784.796</ele>
        <time>2019-02-18T13:24:53Z</time>
      </trkpt>
      <trkpt lat="45.83192" lon="4.328">
        <ele>784.01</ele>
        <time>2019-02-18T13:24:58Z</time>
      </trkpt>
      <trkpt lat="45.83189" lon="4.32807">
        <ele>782.868</ele>
        <time>2019-02-18T13:25:04Z</time>
      </trkpt>
      <trkpt lat="45.83185" lon="4.32814">
        <ele>781.858</ele>
        <time>2019-02-18T13:25:09Z</time>
      </trkpt>
      <trkpt lat="45.83181" lon="4.32824">
        <ele>781.183</ele>
        <time>2019-02-18T13:25:15Z</time>
      </trkpt>
      <trkpt lat="45.83178" lon="4.32831">
        <ele>780.77</ele>
        <time>2019-02-18T13:25:21Z</time>
      </trkpt>
      <trkpt lat="45.83174" lon="4.32839">
        <ele>780.076</ele>
        <time>2019-02-18T13:25:26Z</time>
      </trkpt>
      <trkpt lat="45.83168" lon="4.32844">
        <ele>779.48</ele>
        <time>2019-02-18T13:25:31Z</time>
      </trkpt>
      <trkpt lat="45.83164" lon="4.3285">
        <ele>778.631</ele>
        <time>2019-02-18T13:25:36Z</time>
      </trkpt>
      <trkpt lat="45.83159" lon="4.32855">
        <ele>778.08</ele>
        <time>2019-02-18T13:25:41Z</time>
      </trkpt>
      <trkpt lat="45.83151" lon="4.32859">
        <ele>777.385</ele>
        <time>2019-02-18T13:25:47Z</time>
      </trkpt>
      <trkpt lat="45.83145" lon="4.32864">
        <ele>776.953</ele>
        <time>2019-02-18T13:25:52Z</time>
      </trkpt>
      <trkpt lat="45.83139" lon="4.3287">
        <ele>776.098</ele>
        <time>2019-02-18T13:25:58Z</time>
      </trkpt>
      <trkpt lat="45.83134" lon="4.32879">
        <ele>775.551</ele>
        <time>2019-02-18T13:26:03Z</time>
      </trkpt>
      <trkpt lat="45.83129" lon="4.32888">
        <ele>774.437</ele>
        <time>2019-02-18T13:26:09Z</time>
      </trkpt>
      <trkpt lat="45.83123" lon="4.32896">
        <ele>773.161</ele>
        <time>2019-02-18T13:26:15Z</time>
      </trkpt>
      <trkpt lat="45.83116" lon="4.32902">
        <ele>771.696</ele>
        <time>2019-02-18T13:26:21Z</time>
      </trkpt>
      <trkpt lat="45.83112" lon="4.32905">
        <ele>770.772</ele>
        <time>2019-02-18T13:26:26Z</time>
      </trkpt>
      <trkpt lat="45.83107" lon="4.32911">
        <ele>769.689</ele>
        <time>2019-02-18T13:26:32Z</time>
      </trkpt>
      <trkpt lat="45.83104" lon="4.32916">
        <ele>768.886</ele>
        <time>2019-02-18T13:26:37Z</time>
      </trkpt>
      <trkpt lat="45.83103" lon="4.32918">
        <ele>768</ele>
        <time>2019-02-18T13:26:43Z</time>
      </trkpt>
      <trkpt lat="45.83101" lon="4.32922">
        <ele>767.553</ele>
        <time>2019-02-18T13:26:48Z</time>
      </trkpt>
      <trkpt lat="45.831" lon="4.32922">
        <ele>767.08</ele>
        <time>2019-02-18T13:26:54Z</time>
      </trkpt>
      <trkpt lat="45.83099" lon="4.32924">
        <ele>766.129</ele>
        <time>2019-02-18T13:26:59Z</time>
      </trkpt>
      <trkpt lat="45.83096" lon="4.32927">
        <ele>765.295</ele>
        <time>2019-02-18T13:27:05Z</time>
      </trkpt>
      <trkpt lat="45.83092" lon="4.32929">
        <ele>764.367</ele>
        <time>2019-02-18T13:27:11Z</time>
      </trkpt>
      <trkpt lat="45.83086" lon="4.32934">
        <ele>763.552</ele>
        <time>2019-02-18T13:27:16Z</time>
      </trkpt>
      <trkpt lat="45.83083" lon="4.32939">
        <ele>762.43</ele>
        <time>2019-02-18T13:27:22Z</time>
      </trkpt>
      <trkpt lat="45.8308" lon="4.32945">
        <ele>761.744</ele>
        <time>2019-02-18T13:27:27Z</time>
      </trkpt>
      <trkpt lat="45.83083" lon="4.32951">
        <ele>760.935</ele>
        <time>2019-02-18T13:27:32Z</time>
      </trkpt>
      <trkpt lat="45.83085" lon="4.32949">
        <ele>760.278</ele>
        <time>2019-02-18T13:27:38Z</time>
      </trkpt>
      <trkpt lat="45.83082" lon="4.32947">
        <ele>759.301</ele>
        <time>2019-02-18T13:27:44Z</time>
      </trkpt>
      <trkpt lat="45.83077" lon="4.32954">
        <ele>758.923</ele>
        <time>2019-02-18T13:27:50Z</time>
      </trkpt>
      <trkpt lat="45.83074" lon="4.32958">
        <ele>758.69</ele>
        <time>2019-02-18T13:27:55Z</time>
      </trkpt>
      <trkpt lat="45.83065" lon="4.32965">
        <ele>758.56</ele>
        <time>2019-02-18T13:28:01Z</time>
      </trkpt>
      <trkpt lat="45.8306" lon="4.32973">
        <ele>757.688</ele>
        <time>2019-02-18T13:28:07Z</time>
      </trkpt>
      <trkpt lat="45.83057" lon="4.32977">
        <ele>756.555</ele>
        <time>2019-02-18T13:28:13Z</time>
      </trkpt>
      <trkpt lat="45.83054" lon="4.32983">
        <ele>755.837</ele>
        <time>2019-02-18T13:28:18Z</time>
      </trkpt>
      <trkpt lat="45.83051" lon="4.32989">
        <ele>754.899</ele>
        <time>2019-02-18T13:28:23Z</time>
      </trkpt>
      <trkpt lat="45.83048" lon="4.32994">
        <ele>754.128</ele>
        <time>2019-02-18T13:28:29Z</time>
      </trkpt>
      <trkpt lat="45.83043" lon="4.33">
        <ele>753.54</ele>
        <time>2019-02-18T13:28:34Z</time>
      </trkpt>
      <trkpt lat="45.8304" lon="4.33008">
        <ele>752.683</ele>
        <time>2019-02-18T13:28:40Z</time>
      </trkpt>
      <trkpt lat="45.83035" lon="4.33014">
        <ele>751.813</ele>
        <time>2019-02-18T13:28:46Z</time>
      </trkpt>
      <trkpt lat="45.8303" lon="4.33022">
        <ele>750.814</ele>
        <time>2019-02-18T13:28:52Z</time>
      </trkpt>
      <trkpt lat="45.83025" lon="4.33032">
        <ele>749.659</ele>
        <time>2019-02-18T13:28:58Z</time>
      </trkpt>
      <trkpt lat="45.83019" lon="4.3304">
        <ele>748.671</ele>
        <time>2019-02-18T13:29:04Z</time>
      </trkpt>
      <trkpt lat="45.83016" lon="4.33046">
        <ele>747.781</ele>
        <time>2019-02-18T13:29:09Z</time>
      </trkpt>
      <trkpt lat="45.83015" lon="4.33052">
        <ele>746.764</ele>
        <time>2019-02-18T13:29:15Z</time>
      </trkpt>
      <trkpt lat="45.83011" lon="4.33059">
        <ele>745.632</ele>
        <time>2019-02-18T13:29:21Z</time>
      </trkpt>
      <trkpt lat="45.83007" lon="4.33064">
        <ele>744.528</ele>
        <time>2019-02-18T13:29:27Z</time>
      </trkpt>
      <trkpt lat="45.83003" lon="4.33069">
        <ele>743.884</ele>
        <time>2019-02-18T13:29:32Z</time>
      </trkpt>
      <trkpt lat="45.82999" lon="4.33075">
        <ele>742.854</ele>
        <time>2019-02-18T13:29:38Z</time>
      </trkpt>
      <trkpt lat="45.82995" lon="4.33084">
        <ele>741.557</ele>
        <time>2019-02-18T13:29:44Z</time>
      </trkpt>
      <trkpt lat="45.82994" lon="4.33092">
        <ele>740.193</ele>
        <time>2019-02-18T13:29:50Z</time>
      </trkpt>
      <trkpt lat="45.82988" lon="4.33097">
        <ele>738.88</ele>
        <time>2019-02-18T13:29:56Z</time>
      </trkpt>
      <trkpt lat="45.82981" lon="4.33104">
        <ele>738.031</ele>
        <time>2019-02-18T13:30:02Z</time>
      </trkpt>
      <trkpt lat="45.82977" lon="4.33113">
        <ele>737.515</ele>
        <time>2019-02-18T13:30:07Z</time>
      </trkpt>
      <trkpt lat="45.82972" lon="4.33121">
        <ele>736.711</ele>
        <time>2019-02-18T13:30:13Z</time>
      </trkpt>
      <trkpt lat="45.82968" lon="4.33127">
        <ele>736.304</ele>
        <time>2019-02-18T13:30:18Z</time>
      </trkpt>
      <trkpt lat="45.82963" lon="4.33137">
        <ele>735.631</ele>
        <time>2019-02-18T13:30:24Z</time>
      </trkpt>
      <trkpt lat="45.82958" lon="4.33146">
        <ele>734.836</ele>
        <time>2019-02-18T13:30:29Z</time>
      </trkpt>
      <trkpt lat="45.82951" lon="4.33155">
        <ele>733.877</ele>
        <time>2019-02-18T13:30:35Z</time>
      </trkpt>
      <trkpt lat="45.82948" lon="4.33164">
        <ele>733.165</ele>
        <time>2019-02-18T13:30:40Z</time>
      </trkpt>
      <trkpt lat="45.82945" lon="4.33172">
        <ele>732.306</ele>
        <time>2019-02-18T13:30:46Z</time>
      </trkpt>
      <trkpt lat="45.8294" lon="4.33182">
        <ele>731.627</ele>
        <time>2019-02-18T13:30:52Z</time>
      </trkpt>
      <trkpt lat="45.82937" lon="4.33188">
        <ele>731.142</ele>
        <time>2019-02-18T13:30:57Z</time>
      </trkpt>
      <trkpt lat="45.82933" lon="4.33197">
        <ele>730.449</ele>
        <time>2019-02-18T13:31:03Z</time>
      </trkpt>
      <trkpt lat="45.82928" lon="4.33209">
        <ele>729.898</ele>
        <time>2019-02-18T13:31:09Z</time>
      </trkpt>
      <trkpt lat="45.82922" lon="4.33206">
        <ele>729.13</ele>
        <time>2019-02-18T13:31:14Z</time>
      </trkpt>
      <trkpt lat="45.82919" lon="4.33201">
        <ele>728.396</ele>
        <time>2019-02-18T13:31:19Z</time>
      </trkpt>
      <trkpt lat="45.82913" lon="4.33192">
        <ele>727.555</ele>
        <time>2019-02-18T13:31:25Z</time>
      </trkpt>
      <trkpt lat="45.82911" lon="4.33187">
        <ele>727.039</ele>
        <time>2019-02-18T13:31:30Z</time>
      </trkpt>
      <trkpt lat="45.82907" lon="4.33177">
        <ele>726.589</ele>
        <time>2019-02-18T13:31:36Z</time>
      </trkpt>
      <trkpt lat="45.82903" lon="4.33172">
        <ele>725.924</ele>
        <time>2019-02-18T13:31:41Z</time>
      </trkpt>
      <trkpt lat="45.82899" lon="4.33165">
        <ele>725.309</ele>
        <time>2019-02-18T13:31:46Z</time>
      </trkpt>
      <trkpt lat="45.82896" lon="4.33156">
        <ele>724.769</ele>
        <time>2019-02-18T13:31:51Z</time>
      </trkpt>
      <trkpt lat="45.82894" lon="4.33146">
        <ele>724.125</ele>
        <time>2019-02-18T13:31:56Z</time>
      </trkpt>
      <trkpt lat="45.82892" lon="4.33137">
        <ele>723.549</ele>
        <time>2019-02-18T13:32:02Z</time>
      </trkpt>
      <trkpt lat="45.82889" lon="4.33126">
        <ele>723.189</ele>
        <time>2019-02-18T13:32:07Z</time>
      </trkpt>
      <trkpt lat="45.82888" lon="4.33116">
        <ele>722.567</ele>
        <time>2019-02-18T13:32:13Z</time>
      </trkpt>
      <trkpt lat="45.82885" lon="4.33111">
        <ele>721.69</ele>
        <time>2019-02-18T13:32:18Z</time>
      </trkpt>
      <trkpt lat="45.8288" lon="4.33101">
        <ele>720.993</ele>
        <time>2019-02-18T13:32:24Z</time>
      </trkpt>
      <trkpt lat="45.82876" lon="4.33091">
        <ele>720.223</ele>
        <time>2019-02-18T13:32:30Z</time>
      </trkpt>
      <trkpt lat="45.82873" lon="4.33082">
        <ele>719.179</ele>
        <time>2019-02-18T13:32:36Z</time>
      </trkpt>
      <trkpt lat="45.82868" lon="4.33072">
        <ele>718.157</ele>
        <time>2019-02-18T13:32:42Z</time>
      </trkpt>
      <trkpt lat="45.82863" lon="4.33063">
        <ele>717.29</ele>
        <time>2019-02-18T13:32:48Z</time>
      </trkpt>
      <trkpt lat="45.82859" lon="4.33054">
        <ele>716.177</ele>
        <time>2019-02-18T13:32:54Z</time>
      </trkpt>
      <trkpt lat="45.82857" lon="4.33047">
        <ele>715.126</ele>
        <time>2019-02-18T13:32:59Z</time>
      </trkpt>
      <trkpt lat="45.82852" lon="4.33036">
        <ele>714.144</ele>
        <time>2019-02-18T13:33:05Z</time>
      </trkpt>
      <trkpt lat="45.82848" lon="4.33029">
        <ele>713.583</ele>
        <time>2019-02-18T13:33:11Z</time>
      </trkpt>
      <trkpt lat="45.82846" lon="4.33022">
        <ele>712.725</ele>
        <time>2019-02-18T13:33:16Z</time>
      </trkpt>
      <trkpt lat="45.82844" lon="4.33014">
        <ele>711.807</ele>
        <time>2019-02-18T13:33:21Z</time>
      </trkpt>
      <trkpt lat="45.82841" lon="4.33008">
        <ele>710.692</ele>
        <time>2019-02-18T13:33:26Z</time>
      </trkpt>
      <trkpt lat="45.82842" lon="4.33006">
        <ele>709.683</ele>
        <time>2019-02-18T13:33:31Z</time>
      </trkpt>
      <trkpt lat="45.82839" lon="4.33">
        <ele>708.441</ele>
        <time>2019-02-18T13:33:37Z</time>
      </trkpt>
      <trkpt lat="45.82836" lon="4.32993">
        <ele>707.645</ele>
        <time>2019-02-18T13:33:43Z</time>
      </trkpt>
      <trkpt lat="45.82833" lon="4.32985">
        <ele>706.901</ele>
        <time>2019-02-18T13:33:49Z</time>
      </trkpt>
      <trkpt lat="45.82831" lon="4.32976">
        <ele>706.315</ele>
        <time>2019-02-18T13:33:54Z</time>
      </trkpt>
      <trkpt lat="45.8283" lon="4.32967">
        <ele>705.943</ele>
        <time>2019-02-18T13:34:00Z</time>
      </trkpt>
      <trkpt lat="45.82828" lon="4.32959">
        <ele>705.562</ele>
        <time>2019-02-18T13:34:05Z</time>
      </trkpt>
      <trkpt lat="45.82825" lon="4.32951">
        <ele>705.104</ele>
        <time>2019-02-18T13:34:10Z</time>
      </trkpt>
      <trkpt lat="45.8282" lon="4.32943">
        <ele>704.778</ele>
        <time>2019-02-18T13:34:16Z</time>
      </trkpt>
      <trkpt lat="45.82818" lon="4.32936">
        <ele>704.394</ele>
        <time>2019-02-18T13:34:21Z</time>
      </trkpt>
      <trkpt lat="45.82817" lon="4.32926">
        <ele>704.379</ele>
        <time>2019-02-18T13:34:27Z</time>
      </trkpt>
      <trkpt lat="45.82816" lon="4.32919">
        <ele>704.55</ele>
        <time>2019-02-18T13:34:33Z</time>
      </trkpt>
      <trkpt lat="45.82814" lon="4.32916">
        <ele>704.51</ele>
        <time>2019-02-18T13:34:39Z</time>
      </trkpt>
      <trkpt lat="45.82813" lon="4.32907">
        <ele>704.366</ele>
        <time>2019-02-18T13:34:44Z</time>
      </trkpt>
      <trkpt lat="45.8281" lon="4.32898">
        <ele>704.463</ele>
        <time>2019-02-18T13:34:50Z</time>
      </trkpt>
      <trkpt lat="45.8281" lon="4.32889">
        <ele>704.823</ele>
        <time>2019-02-18T13:34:56Z</time>
      </trkpt>
      <trkpt lat="45.82808" lon="4.3288">
        <ele>704.905</ele>
        <time>2019-02-18T13:35:01Z</time>
      </trkpt>
      <trkpt lat="45.82807" lon="4.3287">
        <ele>704.377</ele>
        <time>2019-02-18T13:35:07Z</time>
      </trkpt>
      <trkpt lat="45.82806" lon="4.32861">
        <ele>704.277</ele>
        <time>2019-02-18T13:35:13Z</time>
      </trkpt>
      <trkpt lat="45.82807" lon="4.32851">
        <ele>703.881</ele>
        <time>2019-02-18T13:35:19Z</time>
      </trkpt>
      <trkpt lat="45.82806" lon="4.32843">
        <ele>703.662</ele>
        <time>2019-02-18T13:35:24Z</time>
      </trkpt>
      <trkpt lat="45.82806" lon="4.32832">
        <ele>703.643</ele>
        <time>2019-02-18T13:35:30Z</time>
      </trkpt>
      <trkpt lat="45.82807" lon="4.32821">
        <ele>703.618</ele>
        <time>2019-02-18T13:35:36Z</time>
      </trkpt>
      <trkpt lat="45.82808" lon="4.32814">
        <ele>703.355</ele>
        <time>2019-02-18T13:35:42Z</time>
      </trkpt>
      <trkpt lat="45.8281" lon="4.32803">
        <ele>703.526</ele>
        <time>2019-02-18T13:35:48Z</time>
      </trkpt>
      <trkpt lat="45.82811" lon="4.32793">
        <ele>703.152</ele>
        <time>2019-02-18T13:35:54Z</time>
      </trkpt>
      <trkpt lat="45.82811" lon="4.32783">
        <ele>703.146</ele>
        <time>2019-02-18T13:36:00Z</time>
      </trkpt>
      <trkpt lat="45.82812" lon="4.32778">
        <ele>703.107</ele>
        <time>2019-02-18T13:36:05Z</time>
      </trkpt>
      <trkpt lat="45.82812" lon="4.32765">
        <ele>702.811</ele>
        <time>2019-02-18T13:36:11Z</time>
      </trkpt>
      <trkpt lat="45.82811" lon="4.32757">
        <ele>702.842</ele>
        <time>2019-02-18T13:36:16Z</time>
      </trkpt>
      <trkpt lat="45.82812" lon="4.32746">
        <ele>702.801</ele>
        <time>2019-02-18T13:36:22Z</time>
      </trkpt>
      <trkpt lat="45.82813" lon="4.32737">
        <ele>703.02</ele>
        <time>2019-02-18T13:36:28Z</time>
      </trkpt>
      <trkpt lat="45.82814" lon="4.32727">
        <ele>703.197</ele>
        <time>2019-02-18T13:36:33Z</time>
      </trkpt>
      <trkpt lat="45.82814" lon="4.32715">
        <ele>702.901</ele>
        <time>2019-02-18T13:36:39Z</time>
      </trkpt>
      <trkpt lat="45.82814" lon="4.32705">
        <ele>702.553</ele>
        <time>2019-02-18T13:36:45Z</time>
      </trkpt>
      <trkpt lat="45.82812" lon="4.32704">
        <ele>702.16</ele>
        <time>2019-02-18T13:36:51Z</time>
      </trkpt>
      <trkpt lat="45.82812" lon="4.32702">
        <ele>701.979</ele>
        <time>2019-02-18T13:36:56Z</time>
      </trkpt>
      <trkpt lat="45.82811" lon="4.32701">
        <ele>702.008</ele>
        <time>2019-02-18T13:37:01Z</time>
      </trkpt>
      <trkpt lat="45.8281" lon="4.32703">
        <ele>702.629</ele>
        <time>2019-02-18T13:37:07Z</time>
      </trkpt>
      <trkpt lat="45.82811" lon="4.32697">
        <ele>703.644</ele>
        <time>2019-02-18T13:37:13Z</time>
      </trkpt>
      <trkpt lat="45.82811" lon="4.32689">
        <ele>704.201</ele>
        <time>2019-02-18T13:37:19Z</time>
      </trkpt>
      <trkpt lat="45.8281" lon="4.3268">
        <ele>704.468</ele>
        <time>2019-02-18T13:37:25Z</time>
      </trkpt>
      <trkpt lat="45.8281" lon="4.32668">
        <ele>703.857</ele>
        <time>2019-02-18T13:37:31Z</time>
      </trkpt>
      <trkpt lat="45.82809" lon="4.32663">
        <ele>703.402</ele>
        <time>2019-02-18T13:37:37Z</time>
      </trkpt>
      <trkpt lat="45.82809" lon="4.32651">
        <ele>703.348</ele>
        <time>2019-02-18T13:37:43Z</time>
      </trkpt>
      <trkpt lat="45.82807" lon="4.32641">
        <ele>704.31</ele>
        <time>2019-02-18T13:37:49Z</time>
      </trkpt>
      <trkpt lat="45.82805" lon="4.32636">
        <ele>704.771</ele>
        <time>2019-02-18T13:37:54Z</time>
      </trkpt>
      <trkpt lat="45.82803" lon="4.32629">
        <ele>705.178</ele>
        <time>2019-02-18T13:38:00Z</time>
      </trkpt>
      <trkpt lat="45.82799" lon="4.32619">
        <ele>705.462</ele>
        <time>2019-02-18T13:38:06Z</time>
      </trkpt>
      <trkpt lat="45.82796" lon="4.32612">
        <ele>705.941</ele>
        <time>2019-02-18T13:38:11Z</time>
      </trkpt>
      <trkpt lat="45.82789" lon="4.32606">
        <ele>706.732</ele>
        <time>2019-02-18T13:38:17Z</time>
      </trkpt>
      <trkpt lat="45.82783" lon="4.32602">
        <ele>707.464</ele>
        <time>2019-02-18T13:38:22Z</time>
      </trkpt>
      <trkpt lat="45.82779" lon="4.32599">
        <ele>707.581</ele>
        <time>2019-02-18T13:38:28Z</time>
      </trkpt>
      <trkpt lat="45.82769" lon="4.32595">
        <ele>707.883</ele>
        <time>2019-02-18T13:38:34Z</time>
      </trkpt>
      <trkpt lat="45.82762" lon="4.32591">
        <ele>708.102</ele>
        <time>2019-02-18T13:38:40Z</time>
      </trkpt>
      <trkpt lat="45.82754" lon="4.32588">
        <ele>708.432</ele>
        <time>2019-02-18T13:38:46Z</time>
      </trkpt>
      <trkpt lat="45.82748" lon="4.32587">
        <ele>708.448</ele>
        <time>2019-02-18T13:38:52Z</time>
      </trkpt>
      <trkpt lat="45.8274" lon="4.32585">
        <ele>708.51</ele>
        <time>2019-02-18T13:38:58Z</time>
      </trkpt>
      <trkpt lat="45.82734" lon="4.32585">
        <ele>708.626</ele>
        <time>2019-02-18T13:39:04Z</time>
      </trkpt>
      <trkpt lat="45.8273" lon="4.32587">
        <ele>709.031</ele>
        <time>2019-02-18T13:39:10Z</time>
      </trkpt>
      <trkpt lat="45.8272" lon="4.32591">
        <ele>709.557</ele>
        <time>2019-02-18T13:39:16Z</time>
      </trkpt>
      <trkpt lat="45.82714" lon="4.32588">
        <ele>710.233</ele>
        <time>2019-02-18T13:39:22Z</time>
      </trkpt>
      <trkpt lat="45.82703" lon="4.32587">
        <ele>710.972</ele>
        <time>2019-02-18T13:39:28Z</time>
      </trkpt>
      <trkpt lat="45.82697" lon="4.32585">
        <ele>711.35</ele>
        <time>2019-02-18T13:39:34Z</time>
      </trkpt>
      <trkpt lat="45.8269" lon="4.32582">
        <ele>711.491</ele>
        <time>2019-02-18T13:39:40Z</time>
      </trkpt>
      <trkpt lat="45.82684" lon="4.32582">
        <ele>711.42</ele>
        <time>2019-02-18T13:39:45Z</time>
      </trkpt>
      <trkpt lat="45.82679" lon="4.3258">
        <ele>711.672</ele>
        <time>2019-02-18T13:39:50Z</time>
      </trkpt>
      <trkpt lat="45.82672" lon="4.32575">
        <ele>712.434</ele>
        <time>2019-02-18T13:39:56Z</time>
      </trkpt>
      <trkpt lat="45.82668" lon="4.32573">
        <ele>712.787</ele>
        <time>2019-02-18T13:40:02Z</time>
      </trkpt>
      <trkpt lat="45.82663" lon="4.32571">
        <ele>713.048</ele>
        <time>2019-02-18T13:40:07Z</time>
      </trkpt>
      <trkpt lat="45.82655" lon="4.32569">
        <ele>713.641</ele>
        <time>2019-02-18T13:40:13Z</time>
      </trkpt>
      <trkpt lat="45.82645" lon="4.32565">
        <ele>714.587</ele>
        <time>2019-02-18T13:40:19Z</time>
      </trkpt>
      <trkpt lat="45.82642" lon="4.3256">
        <ele>715.384</ele>
        <time>2019-02-18T13:40:24Z</time>
      </trkpt>
      <trkpt lat="45.82636" lon="4.32554">
        <ele>716.068</ele>
        <time>2019-02-18T13:40:29Z</time>
      </trkpt>
      <trkpt lat="45.82632" lon="4.32549">
        <ele>716.842</ele>
        <time>2019-02-18T13:40:35Z</time>
      </trkpt>
      <trkpt lat="45.82629" lon="4.32547">
        <ele>717.027</ele>
        <time>2019-02-18T13:40:40Z</time>
      </trkpt>
      <trkpt lat="45.82627" lon="4.32547">
        <ele>717.328</ele>
        <time>2019-02-18T13:40:46Z</time>
      </trkpt>
      <trkpt lat="45.82627" lon="4.32547">
        <ele>717.296</ele>
        <time>2019-02-18T13:40:52Z</time>
      </trkpt>
      <trkpt lat="45.82628" lon="4.32547">
        <ele>716.853</ele>
        <time>2019-02-18T13:40:57Z</time>
      </trkpt>
      <trkpt lat="45.82624" lon="4.32543">
        <ele>716.648</ele>
        <time>2019-02-18T13:41:03Z</time>
      </trkpt>
      <trkpt lat="45.82618" lon="4.32539">
        <ele>716.435</ele>
        <time>2019-02-18T13:41:09Z</time>
      </trkpt>
      <trkpt lat="45.82612" lon="4.32534">
        <ele>716.723</ele>
        <time>2019-02-18T13:41:15Z</time>
      </trkpt>
      <trkpt lat="45.82607" lon="4.32532">
        <ele>717.197</ele>
        <time>2019-02-18T13:41:21Z</time>
      </trkpt>
      <trkpt lat="45.82607" lon="4.32533">
        <ele>717.5</ele>
        <time>2019-02-18T13:41:26Z</time>
      </trkpt>
      <trkpt lat="45.826" lon="4.32535">
        <ele>717.674</ele>
        <time>2019-02-18T13:41:31Z</time>
      </trkpt>
      <trkpt lat="45.82597" lon="4.32534">
        <ele>718.455</ele>
        <time>2019-02-18T13:41:37Z</time>
      </trkpt>
      <trkpt lat="45.82601" lon="4.32534">
        <ele>719.246</ele>
        <time>2019-02-18T13:41:42Z</time>
      </trkpt>
      <trkpt lat="45.82601" lon="4.32536">
        <ele>720.129</ele>
        <time>2019-02-18T13:41:48Z</time>
      </trkpt>
      <trkpt lat="45.82597" lon="4.32539">
        <ele>720.163</ele>
        <time>2019-02-18T13:41:53Z</time>
      </trkpt>
      <trkpt lat="45.82588" lon="4.32541">
        <ele>720.484</ele>
        <time>2019-02-18T13:41:59Z</time>
      </trkpt>
      <trkpt lat="45.82577" lon="4.3254">
        <ele>721.277</ele>
        <time>2019-02-18T13:42:05Z</time>
      </trkpt>
      <trkpt lat="45.82569" lon="4.32539">
        <ele>721.749</ele>
        <time>2019-02-18T13:42:11Z</time>
      </trkpt>
      <trkpt lat="45.82563" lon="4.32539">
        <ele>721.889</ele>
        <time>2019-02-18T13:42:16Z</time>
      </trkpt>
      <trkpt lat="45.82558" lon="4.3254">
        <ele>722.156</ele>
        <time>2019-02-18T13:42:21Z</time>
      </trkpt>
      <trkpt lat="45.82549" lon="4.32538">
        <ele>722.516</ele>
        <time>2019-02-18T13:42:26Z</time>
      </trkpt>
      <trkpt lat="45.82542" lon="4.3254">
        <ele>723.055</ele>
        <time>2019-02-18T13:42:32Z</time>
      </trkpt>
      <trkpt lat="45.82536" lon="4.32541">
        <ele>723.998</ele>
        <time>2019-02-18T13:42:38Z</time>
      </trkpt>
      <trkpt lat="45.82531" lon="4.3254">
        <ele>724.232</ele>
        <time>2019-02-18T13:42:44Z</time>
      </trkpt>
      <trkpt lat="45.82523" lon="4.32538">
        <ele>724.674</ele>
        <time>2019-02-18T13:42:50Z</time>
      </trkpt>
      <trkpt lat="45.82511" lon="4.32537">
        <ele>725.087</ele>
        <time>2019-02-18T13:42:56Z</time>
      </trkpt>
      <trkpt lat="45.82503" lon="4.32536">
        <ele>725.874</ele>
        <time>2019-02-18T13:43:01Z</time>
      </trkpt>
      <trkpt lat="45.82495" lon="4.32537">
        <ele>727.037</ele>
        <time>2019-02-18T13:43:07Z</time>
      </trkpt>
      <trkpt lat="45.82483" lon="4.32541">
        <ele>727.627</ele>
        <time>2019-02-18T13:43:13Z</time>
      </trkpt>
      <trkpt lat="45.82479" lon="4.32543">
        <ele>727.319</ele>
        <time>2019-02-18T13:43:19Z</time>
      </trkpt>
      <trkpt lat="45.82476" lon="4.32543">
        <ele>727.082</ele>
        <time>2019-02-18T13:43:25Z</time>
      </trkpt>
      <trkpt lat="45.82467" lon="4.32546">
        <ele>727.123</ele>
        <time>2019-02-18T13:43:31Z</time>
      </trkpt>
      <trkpt lat="45.8246" lon="4.32545">
        <ele>727.205</ele>
        <time>2019-02-18T13:43:37Z</time>
      </trkpt>
      <trkpt lat="45.82456" lon="4.32546">
        <ele>725.95</ele>
        <time>2019-02-18T13:43:43Z</time>
      </trkpt>
      <trkpt lat="45.8245" lon="4.32548">
        <ele>724.339</ele>
        <time>2019-02-18T13:43:49Z</time>
      </trkpt>
      <trkpt lat="45.82445" lon="4.32549">
        <ele>723.031</ele>
        <time>2019-02-18T13:43:55Z</time>
      </trkpt>
      <trkpt lat="45.82441" lon="4.32552">
        <ele>720.869</ele>
        <time>2019-02-18T13:44:01Z</time>
      </trkpt>
      <trkpt lat="45.82437" lon="4.32555">
        <ele>719.487</ele>
        <time>2019-02-18T13:44:07Z</time>
      </trkpt>
      <trkpt lat="45.82434" lon="4.32557">
        <ele>719.302</ele>
        <time>2019-02-18T13:44:13Z</time>
      </trkpt>
      <trkpt lat="45.82433" lon="4.32559">
        <ele>719.548</ele>
        <time>2019-02-18T13:44:18Z</time>
      </trkpt>
      <trkpt lat="45.82436" lon="4.32556">
        <ele>720.008</ele>
        <time>2019-02-18T13:44:24Z</time>
      </trkpt>
      <trkpt lat="45.82436" lon="4.32555">
        <ele>720.325</ele>
        <time>2019-02-18T13:44:29Z</time>
      </trkpt>
      <trkpt lat="45.82436" lon="4.32556">
        <ele>720.76</ele>
        <time>2019-02-18T13:44:35Z</time>
      </trkpt>
      <trkpt lat="45.82437" lon="4.32557">
        <ele>720.746</ele>
        <time>2019-02-18T13:44:41Z</time>
      </trkpt>
      <trkpt lat="45.82438" lon="4.32556">
        <ele>720.8</ele>
        <time>2019-02-18T13:44:46Z</time>
      </trkpt>
      <trkpt lat="45.82439" lon="4.32557">
        <ele>720.758</ele>
        <time>2019-02-18T13:44:52Z</time>
      </trkpt>
      <trkpt lat="45.8244" lon="4.32558">
        <ele>720.647</ele>
        <time>2019-02-18T13:44:58Z</time>
      </trkpt>
      <trkpt lat="45.82434" lon="4.32557">
        <ele>720.706</ele>
        <time>2019-02-18T13:45:04Z</time>
      </trkpt>
      <trkpt lat="45.82435" lon="4.32557">
        <ele>720.825</ele>
        <time>2019-02-18T13:45:09Z</time>
      </trkpt>
      <trkpt lat="45.82434" lon="4.32559">
        <ele>720.967</ele>
        <time>2019-02-18T13:45:15Z</time>
      </trkpt>
      <trkpt lat="45.82434" lon="4.32562">
        <ele>721.159</ele>
        <time>2019-02-18T13:45:21Z</time>
      </trkpt>
      <trkpt lat="45.82434" lon="4.32563">
        <ele>721.311</ele>
        <time>2019-02-18T13:45:27Z</time>
      </trkpt>
      <trkpt lat="45.82435" lon="4.32561">
        <ele>721.414</ele>
        <time>2019-02-18T13:45:33Z</time>
      </trkpt>
      <trkpt lat="45.82442" lon="4.3256">
        <ele>721.44</ele>
        <time>2019-02-18T13:45:39Z</time>
      </trkpt>
      <trkpt lat="45.82446" lon="4.32558">
        <ele>721.353</ele>
        <time>2019-02-18T13:45:45Z</time>
      </trkpt>
      <trkpt lat="45.82444" lon="4.32558">
        <ele>721.225</ele>
        <time>2019-02-18T13:45:50Z</time>
      </trkpt>
      <trkpt lat="45.8244" lon="4.32556">
        <ele>721.079</ele>
        <time>2019-02-18T13:45:56Z</time>
      </trkpt>
      <trkpt lat="45.82437" lon="4.32552">
        <ele>721.007</ele>
        <time>2019-02-18T13:46:01Z</time>
      </trkpt>
      <trkpt lat="45.82437" lon="4.3255">
        <ele>721.015</ele>
        <time>2019-02-18T13:46:07Z</time>
      </trkpt>
      <trkpt lat="45.82436" lon="4.32548">
        <ele>721.071</ele>
        <time>2019-02-18T13:46:13Z</time>
      </trkpt>
      <trkpt lat="45.82438" lon="4.32548">
        <ele>721.864</ele>
        <time>2019-02-18T13:46:19Z</time>
      </trkpt>
      <trkpt lat="45.82438" lon="4.32548">
        <ele>721.98</ele>
        <time>2019-02-18T13:46:24Z</time>
      </trkpt>
      <trkpt lat="45.82435" lon="4.3255">
        <ele>721.748</ele>
        <time>2019-02-18T13:46:30Z</time>
      </trkpt>
      <trkpt lat="45.82429" lon="4.32549">
        <ele>721.71</ele>
        <time>2019-02-18T13:46:36Z</time>
      </trkpt>
      <trkpt lat="45.82425" lon="4.32548">
        <ele>721.377</ele>
        <time>2019-02-18T13:46:41Z</time>
      </trkpt>
      <trkpt lat="45.82421" lon="4.32546">
        <ele>720.867</ele>
        <time>2019-02-18T13:46:47Z</time>
      </trkpt>
      <trkpt lat="45.82413" lon="4.32545">
        <ele>721.243</ele>
        <time>2019-02-18T13:46:53Z</time>
      </trkpt>
      <trkpt lat="45.82408" lon="4.32546">
        <ele>722.145</ele>
        <time>2019-02-18T13:46:58Z</time>
      </trkpt>
      <trkpt lat="45.82406" lon="4.32544">
        <ele>723.703</ele>
        <time>2019-02-18T13:47:03Z</time>
      </trkpt>
      <trkpt lat="45.82398" lon="4.32541">
        <ele>725.048</ele>
        <time>2019-02-18T13:47:09Z</time>
      </trkpt>
      <trkpt lat="45.82391" lon="4.32537">
        <ele>725.447</ele>
        <time>2019-02-18T13:47:14Z</time>
      </trkpt>
      <trkpt lat="45.82387" lon="4.32531">
        <ele>725.856</ele>
        <time>2019-02-18T13:47:19Z</time>
      </trkpt>
      <trkpt lat="45.82383" lon="4.32521">
        <ele>726.657</ele>
        <time>2019-02-18T13:47:25Z</time>
      </trkpt>
      <trkpt lat="45.82381" lon="4.32512">
        <ele>727.554</ele>
        <time>2019-02-18T13:47:30Z</time>
      </trkpt>
      <trkpt lat="45.82379" lon="4.32502">
        <ele>728.21</ele>
        <time>2019-02-18T13:47:36Z</time>
      </trkpt>
      <trkpt lat="45.82377" lon="4.3249">
        <ele>727.959</ele>
        <time>2019-02-18T13:47:42Z</time>
      </trkpt>
      <trkpt lat="45.82375" lon="4.3248">
        <ele>727.441</ele>
        <time>2019-02-18T13:47:48Z</time>
      </trkpt>
      <trkpt lat="45.8237" lon="4.32471">
        <ele>727.344</ele>
        <time>2019-02-18T13:47:54Z</time>
      </trkpt>
      <trkpt lat="45.82369" lon="4.32465">
        <ele>727.458</ele>
        <time>2019-02-18T13:48:00Z</time>
      </trkpt>
      <trkpt lat="45.82367" lon="4.32452">
        <ele>727.1</ele>
        <time>2019-02-18T13:48:06Z</time>
      </trkpt>
      <trkpt lat="45.82366" lon="4.32444">
        <ele>726.743</ele>
        <time>2019-02-18T13:48:11Z</time>
      </trkpt>
      <trkpt lat="45.82362" lon="4.32438">
        <ele>726.241</ele>
        <time>2019-02-18T13:48:16Z</time>
      </trkpt>
      <trkpt lat="45.82354" lon="4.32438">
        <ele>725.828</ele>
        <time>2019-02-18T13:48:22Z</time>
      </trkpt>
      <trkpt lat="45.82345" lon="4.32438">
        <ele>725.704</ele>
        <time>2019-02-18T13:48:28Z</time>
      </trkpt>
      <trkpt lat="45.82337" lon="4.32441">
        <ele>725.601</ele>
        <time>2019-02-18T13:48:34Z</time>
      </trkpt>
      <trkpt lat="45.82331" lon="4.3244">
        <ele>725.762</ele>
        <time>2019-02-18T13:48:39Z</time>
      </trkpt>
      <trkpt lat="45.82324" lon="4.32437">
        <ele>725.537</ele>
        <time>2019-02-18T13:48:44Z</time>
      </trkpt>
      <trkpt lat="45.82316" lon="4.32432">
        <ele>725.194</ele>
        <time>2019-02-18T13:48:50Z</time>
      </trkpt>
      <trkpt lat="45.82311" lon="4.3243">
        <ele>725.362</ele>
        <time>2019-02-18T13:48:56Z</time>
      </trkpt>
      <trkpt lat="45.82304" lon="4.32431">
        <ele>725.183</ele>
        <time>2019-02-18T13:49:01Z</time>
      </trkpt>
      <trkpt lat="45.82297" lon="4.32433">
        <ele>725.156</ele>
        <time>2019-02-18T13:49:07Z</time>
      </trkpt>
      <trkpt lat="45.8229" lon="4.32433">
        <ele>724.994</ele>
        <time>2019-02-18T13:49:13Z</time>
      </trkpt>
      <trkpt lat="45.82285" lon="4.32428">
        <ele>725.094</ele>
        <time>2019-02-18T13:49:18Z</time>
      </trkpt>
      <trkpt lat="45.82281" lon="4.32423">
        <ele>724.818</ele>
        <time>2019-02-18T13:49:24Z</time>
      </trkpt>
      <trkpt lat="45.82274" lon="4.32418">
        <ele>724.353</ele>
        <time>2019-02-18T13:49:29Z</time>
      </trkpt>
      <trkpt lat="45.82267" lon="4.32416">
        <ele>724.437</ele>
        <time>2019-02-18T13:49:35Z</time>
      </trkpt>
      <trkpt lat="45.82263" lon="4.32416">
        <ele>724.704</ele>
        <time>2019-02-18T13:49:40Z</time>
      </trkpt>
      <trkpt lat="45.82254" lon="4.32416">
        <ele>724.743</ele>
        <time>2019-02-18T13:49:45Z</time>
      </trkpt>
      <trkpt lat="45.82249" lon="4.32413">
        <ele>724.983</ele>
        <time>2019-02-18T13:49:50Z</time>
      </trkpt>
      <trkpt lat="45.82247" lon="4.32397">
        <ele>724.857</ele>
        <time>2019-02-18T13:49:56Z</time>
      </trkpt>
      <trkpt lat="45.82248" lon="4.32381">
        <ele>724.184</ele>
        <time>2019-02-18T13:50:02Z</time>
      </trkpt>
      <trkpt lat="45.82248" lon="4.3237">
        <ele>723.009</ele>
        <time>2019-02-18T13:50:08Z</time>
      </trkpt>
      <trkpt lat="45.82248" lon="4.32372">
        <ele>722.914</ele>
        <time>2019-02-18T13:50:14Z</time>
      </trkpt>
      <trkpt lat="45.8225" lon="4.32371">
        <ele>722.234</ele>
        <time>2019-02-18T13:50:20Z</time>
      </trkpt>
      <trkpt lat="45.8225" lon="4.32368">
        <ele>721.48</ele>
        <time>2019-02-18T13:50:25Z</time>
      </trkpt>
      <trkpt lat="45.82248" lon="4.32364">
        <ele>720.934</ele>
        <time>2019-02-18T13:50:30Z</time>
      </trkpt>
      <trkpt lat="45.82245" lon="4.32356">
        <ele>720.708</ele>
        <time>2019-02-18T13:50:36Z</time>
      </trkpt>
      <trkpt lat="45.82243" lon="4.3235">
        <ele>720.082</ele>
        <time>2019-02-18T13:50:41Z</time>
      </trkpt>
      <trkpt lat="45.82241" lon="4.32346">
        <ele>719.243</ele>
        <time>2019-02-18T13:50:46Z</time>
      </trkpt>
      <trkpt lat="45.82241" lon="4.32339">
        <ele>718.328</ele>
        <time>2019-02-18T13:50:52Z</time>
      </trkpt>
      <trkpt lat="45.82244" lon="4.32334">
        <ele>717.386</ele>
        <time>2019-02-18T13:50:58Z</time>
      </trkpt>
      <trkpt lat="45.82244" lon="4.32333">
        <ele>717.16</ele>
        <time>2019-02-18T13:51:03Z</time>
      </trkpt>
      <trkpt lat="45.82244" lon="4.32334">
        <ele>716.914</ele>
        <time>2019-02-18T13:51:09Z</time>
      </trkpt>
      <trkpt lat="45.82246" lon="4.32334">
        <ele>716.16</ele>
        <time>2019-02-18T13:51:14Z</time>
      </trkpt>
      <trkpt lat="45.82246" lon="4.32329">
        <ele>715.1</ele>
        <time>2019-02-18T13:51:20Z</time>
      </trkpt>
      <trkpt lat="45.82244" lon="4.32323">
        <ele>714.668</ele>
        <time>2019-02-18T13:51:25Z</time>
      </trkpt>
      <trkpt lat="45.82242" lon="4.32317">
        <ele>714.253</ele>
        <time>2019-02-18T13:51:30Z</time>
      </trkpt>
      <trkpt lat="45.8224" lon="4.32308">
        <ele>713.616</ele>
        <time>2019-02-18T13:51:36Z</time>
      </trkpt>
      <trkpt lat="45.82239" lon="4.32303">
        <ele>713.295</ele>
        <time>2019-02-18T13:51:41Z</time>
      </trkpt>
      <trkpt lat="45.82236" lon="4.32296">
        <ele>712.661</ele>
        <time>2019-02-18T13:51:47Z</time>
      </trkpt>
      <trkpt lat="45.82233" lon="4.32298">
        <ele>711.754</ele>
        <time>2019-02-18T13:51:53Z</time>
      </trkpt>
      <trkpt lat="45.82232" lon="4.32297">
        <ele>711.536</ele>
        <time>2019-02-18T13:51:59Z</time>
      </trkpt>
      <trkpt lat="45.82231" lon="4.32297">
        <ele>711.73</ele>
        <time>2019-02-18T13:52:04Z</time>
      </trkpt>
      <trkpt lat="45.82231" lon="4.32298">
        <ele>711.713</ele>
        <time>2019-02-18T13:52:10Z</time>
      </trkpt>
      <trkpt lat="45.8223" lon="4.32294">
        <ele>711.782</ele>
        <time>2019-02-18T13:52:15Z</time>
      </trkpt>
      <trkpt lat="45.8223" lon="4.32292">
        <ele>711.552</ele>
        <time>2019-02-18T13:52:21Z</time>
      </trkpt>
      <trkpt lat="45.82231" lon="4.3229">
        <ele>711.789</ele>
        <time>2019-02-18T13:52:27Z</time>
      </trkpt>
      <trkpt lat="45.82232" lon="4.32289">
        <ele>711.817</ele>
        <time>2019-02-18T13:52:32Z</time>
      </trkpt>
      <trkpt lat="45.82228" lon="4.3229">
        <ele>711.188</ele>
        <time>2019-02-18T13:52:38Z</time>
      </trkpt>
      <trkpt lat="45.82223" lon="4.32295">
        <ele>710.298</ele>
        <time>2019-02-18T13:52:43Z</time>
      </trkpt>
      <trkpt lat="45.82215" lon="4.32301">
        <ele>709.317</ele>
        <time>2019-02-18T13:52:49Z</time>
      </trkpt>
      <trkpt lat="45.82208" lon="4.32306">
        <ele>708.519</ele>
        <time>2019-02-18T13:52:54Z</time>
      </trkpt>
      <trkpt lat="45.82201" lon="4.32311">
        <ele>708.05</ele>
        <time>2019-02-18T13:53:00Z</time>
      </trkpt>
      <trkpt lat="45.82195" lon="4.32317">
        <ele>708.023</ele>
        <time>2019-02-18T13:53:05Z</time>
      </trkpt>
      <trkpt lat="45.82193" lon="4.3232">
        <ele>708</ele>
        <time>2019-02-18T13:53:10Z</time>
      </trkpt>
      <trkpt lat="45.82189" lon="4.32325">
        <ele>708.048</ele>
        <time>2019-02-18T13:53:16Z</time>
      </trkpt>
      <trkpt lat="45.82181" lon="4.32328">
        <ele>707.975</ele>
        <time>2019-02-18T13:53:21Z</time>
      </trkpt>
      <trkpt lat="45.82175" lon="4.32331">
        <ele>708.001</ele>
        <time>2019-02-18T13:53:27Z</time>
      </trkpt>
      <trkpt lat="45.82169" lon="4.32335">
        <ele>707.943</ele>
        <time>2019-02-18T13:53:33Z</time>
      </trkpt>
      <trkpt lat="45.82162" lon="4.32341">
        <ele>707.429</ele>
        <time>2019-02-18T13:53:39Z</time>
      </trkpt>
      <trkpt lat="45.82157" lon="4.32343">
        <ele>706.808</ele>
        <time>2019-02-18T13:53:45Z</time>
      </trkpt>
      <trkpt lat="45.82151" lon="4.32347">
        <ele>706.289</ele>
        <time>2019-02-18T13:53:51Z</time>
      </trkpt>
      <trkpt lat="45.82145" lon="4.32351">
        <ele>705.391</ele>
        <time>2019-02-18T13:53:57Z</time>
      </trkpt>
      <trkpt lat="45.8214" lon="4.32351">
        <ele>704.615</ele>
        <time>2019-02-18T13:54:02Z</time>
      </trkpt>
      <trkpt lat="45.82136" lon="4.32351">
        <ele>704.415</ele>
        <time>2019-02-18T13:54:07Z</time>
      </trkpt>
      <trkpt lat="45.82132" lon="4.32351">
        <ele>704.228</ele>
        <time>2019-02-18T13:54:13Z</time>
      </trkpt>
      <trkpt lat="45.82126" lon="4.32353">
        <ele>703.867</ele>
        <time>2019-02-18T13:54:18Z</time>
      </trkpt>
      <trkpt lat="45.82122" lon="4.32355">
        <ele>703.094</ele>
        <time>2019-02-18T13:54:24Z</time>
      </trkpt>
      <trkpt lat="45.82119" lon="4.32359">
        <ele>701.944</ele>
        <time>2019-02-18T13:54:30Z</time>
      </trkpt>
      <trkpt lat="45.82109" lon="4.32363">
        <ele>701.398</ele>
        <time>2019-02-18T13:54:36Z</time>
      </trkpt>
      <trkpt lat="45.82102" lon="4.32364">
        <ele>700.737</ele>
        <time>2019-02-18T13:54:42Z</time>
      </trkpt>
      <trkpt lat="45.82098" lon="4.32367">
        <ele>700.218</ele>
        <time>2019-02-18T13:54:48Z</time>
      </trkpt>
      <trkpt lat="45.82094" lon="4.3237">
        <ele>699.645</ele>
        <time>2019-02-18T13:54:54Z</time>
      </trkpt>
      <trkpt lat="45.8209" lon="4.32374">
        <ele>699.287</ele>
        <time>2019-02-18T13:55:00Z</time>
      </trkpt>
      <trkpt lat="45.82081" lon="4.32378">
        <ele>698.645</ele>
        <time>2019-02-18T13:55:05Z</time>
      </trkpt>
      <trkpt lat="45.82074" lon="4.32376">
        <ele>697.793</ele>
        <time>2019-02-18T13:55:11Z</time>
      </trkpt>
      <trkpt lat="45.8207" lon="4.32375">
        <ele>696.939</ele>
        <time>2019-02-18T13:55:17Z</time>
      </trkpt>
      <trkpt lat="45.82063" lon="4.32377">
        <ele>697.005</ele>
        <time>2019-02-18T13:55:22Z</time>
      </trkpt>
      <trkpt lat="45.82057" lon="4.32378">
        <ele>697.022</ele>
        <time>2019-02-18T13:55:27Z</time>
      </trkpt>
      <trkpt lat="45.8205" lon="4.32379">
        <ele>696.494</ele>
        <time>2019-02-18T13:55:33Z</time>
      </trkpt>
      <trkpt lat="45.82046" lon="4.32378">
        <ele>696.102</ele>
        <time>2019-02-18T13:55:38Z</time>
      </trkpt>
      <trkpt lat="45.82041" lon="4.32376">
        <ele>695.664</ele>
        <time>2019-02-18T13:55:44Z</time>
      </trkpt>
      <trkpt lat="45.82033" lon="4.32376">
        <ele>695.362</ele>
        <time>2019-02-18T13:55:49Z</time>
      </trkpt>
      <trkpt lat="45.82027" lon="4.32375">
        <ele>695.227</ele>
        <time>2019-02-18T13:55:55Z</time>
      </trkpt>
      <trkpt lat="45.8202" lon="4.32375">
        <ele>695.183</ele>
        <time>2019-02-18T13:56:00Z</time>
      </trkpt>
      <trkpt lat="45.82016" lon="4.32374">
        <ele>695.176</ele>
        <time>2019-02-18T13:56:06Z</time>
      </trkpt>
      <trkpt lat="45.82011" lon="4.3237">
        <ele>694.948</ele>
        <time>2019-02-18T13:56:11Z</time>
      </trkpt>
      <trkpt lat="45.82004" lon="4.32367">
        <ele>694.475</ele>
        <time>2019-02-18T13:56:17Z</time>
      </trkpt>
      <trkpt lat="45.82002" lon="4.32364">
        <ele>693.452</ele>
        <time>2019-02-18T13:56:22Z</time>
      </trkpt>
      <trkpt lat="45.81998" lon="4.32362">
        <ele>692.689</ele>
        <time>2019-02-18T13:56:27Z</time>
      </trkpt>
      <trkpt lat="45.81992" lon="4.32359">
        <ele>692.082</ele>
        <time>2019-02-18T13:56:33Z</time>
      </trkpt>
      <trkpt lat="45.81988" lon="4.32357">
        <ele>691.641</ele>
        <time>2019-02-18T13:56:38Z</time>
      </trkpt>
      <trkpt lat="45.8198" lon="4.32352">
        <ele>691.027</ele>
        <time>2019-02-18T13:56:44Z</time>
      </trkpt>
      <trkpt lat="45.81976" lon="4.32349">
        <ele>690.314</ele>
        <time>2019-02-18T13:56:50Z</time>
      </trkpt>
      <trkpt lat="45.81969" lon="4.32343">
        <ele>689.201</ele>
        <time>2019-02-18T13:56:56Z</time>
      </trkpt>
      <trkpt lat="45.81964" lon="4.3234">
        <ele>688.388</ele>
        <time>2019-02-18T13:57:01Z</time>
      </trkpt>
      <trkpt lat="45.81957" lon="4.32337">
        <ele>687.054</ele>
        <time>2019-02-18T13:57:07Z</time>
      </trkpt>
      <trkpt lat="45.81949" lon="4.32338">
        <ele>685.633</ele>
        <time>2019-02-18T13:57:13Z</time>
      </trkpt>
      <trkpt lat="45.81941" lon="4.32336">
        <ele>684.337</ele>
        <time>2019-02-18T13:57:19Z</time>
      </trkpt>
      <trkpt lat="45.81938" lon="4.32333">
        <ele>683.072</ele>
        <time>2019-02-18T13:57:24Z</time>
      </trkpt>
      <trkpt lat="45.81932" lon="4.32327">
        <ele>681.366</ele>
        <time>2019-02-18T13:57:30Z</time>
      </trkpt>
      <trkpt lat="45.81927" lon="4.32325">
        <ele>680.144</ele>
        <time>2019-02-18T13:57:35Z</time>
      </trkpt>
      <trkpt lat="45.81919" lon="4.3232">
        <ele>678.592</ele>
        <time>2019-02-18T13:57:41Z</time>
      </trkpt>
      <trkpt lat="45.81914" lon="4.32317">
        <ele>677.258</ele>
        <time>2019-02-18T13:57:46Z</time>
      </trkpt>
      <trkpt lat="45.81909" lon="4.32312">
        <ele>675.037</ele>
        <time>2019-02-18T13:57:52Z</time>
      </trkpt>
      <trkpt lat="45.81903" lon="4.32305">
        <ele>673.096</ele>
        <time>2019-02-18T13:57:57Z</time>
      </trkpt>
      <trkpt lat="45.81898" lon="4.32303">
        <ele>670.884</ele>
        <time>2019-02-18T13:58:03Z</time>
      </trkpt>
      <trkpt lat="45.81893" lon="4.323">
        <ele>669.673</ele>
        <time>2019-02-18T13:58:08Z</time>
      </trkpt>
      <trkpt lat="45.81887" lon="4.32295">
        <ele>668.346</ele>
        <time>2019-02-18T13:58:14Z</time>
      </trkpt>
      <trkpt lat="45.81881" lon="4.32292">
        <ele>667.018</ele>
        <time>2019-02-18T13:58:19Z</time>
      </trkpt>
      <trkpt lat="45.81875" lon="4.32286">
        <ele>665.798</ele>
        <time>2019-02-18T13:58:25Z</time>
      </trkpt>
      <trkpt lat="45.8187" lon="4.32284">
        <ele>664.457</ele>
        <time>2019-02-18T13:58:31Z</time>
      </trkpt>
      <trkpt lat="45.81863" lon="4.3228">
        <ele>663.222</ele>
        <time>2019-02-18T13:58:37Z</time>
      </trkpt>
      <trkpt lat="45.81857" lon="4.32276">
        <ele>661.838</ele>
        <time>2019-02-18T13:58:43Z</time>
      </trkpt>
      <trkpt lat="45.81853" lon="4.32267">
        <ele>660.466</ele>
        <time>2019-02-18T13:58:49Z</time>
      </trkpt>
      <trkpt lat="45.81848" lon="4.32262">
        <ele>659.362</ele>
        <time>2019-02-18T13:58:55Z</time>
      </trkpt>
      <trkpt lat="45.8184" lon="4.32261">
        <ele>658.391</ele>
        <time>2019-02-18T13:59:01Z</time>
      </trkpt>
      <trkpt lat="45.81834" lon="4.32261">
        <ele>657.4</ele>
        <time>2019-02-18T13:59:06Z</time>
      </trkpt>
      <trkpt lat="45.81827" lon="4.3226">
        <ele>656.825</ele>
        <time>2019-02-18T13:59:11Z</time>
      </trkpt>
      <trkpt lat="45.81819" lon="4.32261">
        <ele>655.978</ele>
        <time>2019-02-18T13:59:17Z</time>
      </trkpt>
      <trkpt lat="45.81813" lon="4.32261">
        <ele>655.17</ele>
        <time>2019-02-18T13:59:23Z</time>
      </trkpt>
      <trkpt lat="45.81806" lon="4.32258">
        <ele>654.186</ele>
        <time>2019-02-18T13:59:28Z</time>
      </trkpt>
      <trkpt lat="45.81801" lon="4.32255">
        <ele>653.344</ele>
        <time>2019-02-18T13:59:33Z</time>
      </trkpt>
      <trkpt lat="45.81798" lon="4.3225">
        <ele>652.699</ele>
        <time>2019-02-18T13:59:38Z</time>
      </trkpt>
      <trkpt lat="45.81803" lon="4.3224">
        <ele>651.775</ele>
        <time>2019-02-18T13:59:44Z</time>
      </trkpt>
      <trkpt lat="45.81808" lon="4.32231">
        <ele>650.417</ele>
        <time>2019-02-18T13:59:50Z</time>
      </trkpt>
      <trkpt lat="45.8181" lon="4.32228">
        <ele>649.817</ele>
        <time>2019-02-18T13:59:55Z</time>
      </trkpt>
      <trkpt lat="45.81815" lon="4.32221">
        <ele>649.366</ele>
        <time>2019-02-18T14:00:00Z</time>
      </trkpt>
      <trkpt lat="45.81821" lon="4.32215">
        <ele>648.481</ele>
        <time>2019-02-18T14:00:06Z</time>
      </trkpt>
      <trkpt lat="45.81828" lon="4.3221">
        <ele>647.431</ele>
        <time>2019-02-18T14:00:12Z</time>
      </trkpt>
      <trkpt lat="45.81833" lon="4.32205">
        <ele>646.685</ele>
        <time>2019-02-18T14:00:17Z</time>
      </trkpt>
      <trkpt lat="45.81839" lon="4.32201">
        <ele>645.845</ele>
        <time>2019-02-18T14:00:23Z</time>
      </trkpt>
      <trkpt lat="45.81844" lon="4.32195">
        <ele>645.431</ele>
        <time>2019-02-18T14:00:28Z</time>
      </trkpt>
      <trkpt lat="45.81849" lon="4.32189">
        <ele>644.89</ele>
        <time>2019-02-18T14:00:34Z</time>
      </trkpt>
      <trkpt lat="45.81854" lon="4.32186">
        <ele>644.438</ele>
        <time>2019-02-18T14:00:39Z</time>
      </trkpt>
      <trkpt lat="45.81862" lon="4.3218">
        <ele>644.215</ele>
        <time>2019-02-18T14:00:45Z</time>
      </trkpt>
      <trkpt lat="45.81867" lon="4.32176">
        <ele>644.015</ele>
        <time>2019-02-18T14:00:50Z</time>
      </trkpt>
      <trkpt lat="45.81872" lon="4.32171">
        <ele>643.748</ele>
        <time>2019-02-18T14:00:56Z</time>
      </trkpt>
      <trkpt lat="45.81878" lon="4.32168">
        <ele>643.619</ele>
        <time>2019-02-18T14:01:01Z</time>
      </trkpt>
      <trkpt lat="45.81883" lon="4.32161">
        <ele>643.612</ele>
        <time>2019-02-18T14:01:06Z</time>
      </trkpt>
      <trkpt lat="45.81884" lon="4.32154">
        <ele>643.76</ele>
        <time>2019-02-18T14:01:12Z</time>
      </trkpt>
      <trkpt lat="45.81883" lon="4.32144">
        <ele>643.838</ele>
        <time>2019-02-18T14:01:18Z</time>
      </trkpt>
      <trkpt lat="45.81882" lon="4.32139">
        <ele>643.802</ele>
        <time>2019-02-18T14:01:23Z</time>
      </trkpt>
      <trkpt lat="45.81879" lon="4.32131">
        <ele>643.387</ele>
        <time>2019-02-18T14:01:29Z</time>
      </trkpt>
      <trkpt lat="45.81875" lon="4.32125">
        <ele>643.285</ele>
        <time>2019-02-18T14:01:34Z</time>
      </trkpt>
      <trkpt lat="45.8187" lon="4.32119">
        <ele>643.201</ele>
        <time>2019-02-18T14:01:40Z</time>
      </trkpt>
      <trkpt lat="45.8187" lon="4.32112">
        <ele>642.923</ele>
        <time>2019-02-18T14:01:45Z</time>
      </trkpt>
      <trkpt lat="45.81872" lon="4.32102">
        <ele>642.524</ele>
        <time>2019-02-18T14:01:50Z</time>
      </trkpt>
      <trkpt lat="45.81871" lon="4.32092">
        <ele>641.994</ele>
        <time>2019-02-18T14:01:56Z</time>
      </trkpt>
      <trkpt lat="45.81873" lon="4.32081">
        <ele>641.996</ele>
        <time>2019-02-18T14:02:01Z</time>
      </trkpt>
      <trkpt lat="45.81875" lon="4.32074">
        <ele>641.878</ele>
        <time>2019-02-18T14:02:07Z</time>
      </trkpt>
      <trkpt lat="45.81878" lon="4.32064">
        <ele>641.654</ele>
        <time>2019-02-18T14:02:13Z</time>
      </trkpt>
      <trkpt lat="45.81879" lon="4.32057">
        <ele>641.452</ele>
        <time>2019-02-18T14:02:18Z</time>
      </trkpt>
      <trkpt lat="45.81879" lon="4.32047">
        <ele>641.003</ele>
        <time>2019-02-18T14:02:24Z</time>
      </trkpt>
      <trkpt lat="45.81881" lon="4.32035">
        <ele>640.766</ele>
        <time>2019-02-18T14:02:29Z</time>
      </trkpt>
      <trkpt lat="45.81883" lon="4.32024">
        <ele>639.904</ele>
        <time>2019-02-18T14:02:35Z</time>
      </trkpt>
      <trkpt lat="45.81882" lon="4.32014">
        <ele>639.107</ele>
        <time>2019-02-18T14:02:41Z</time>
      </trkpt>
      <trkpt lat="45.8188" lon="4.32007">
        <ele>638.793</ele>
        <time>2019-02-18T14:02:46Z</time>
      </trkpt>
      <trkpt lat="45.81879" lon="4.31997">
        <ele>638.82</ele>
        <time>2019-02-18T14:02:51Z</time>
      </trkpt>
      <trkpt lat="45.81878" lon="4.31988">
        <ele>638.851</ele>
        <time>2019-02-18T14:02:57Z</time>
      </trkpt>
      <trkpt lat="45.81875" lon="4.31982">
        <ele>638.823</ele>
        <time>2019-02-18T14:03:02Z</time>
      </trkpt>
      <trkpt lat="45.81874" lon="4.31976">
        <ele>638.64</ele>
        <time>2019-02-18T14:03:07Z</time>
      </trkpt>
      <trkpt lat="45.81873" lon="4.31964">
        <ele>638.431</ele>
        <time>2019-02-18T14:03:13Z</time>
      </trkpt>
      <trkpt lat="45.81871" lon="4.31954">
        <ele>638.727</ele>
        <time>2019-02-18T14:03:19Z</time>
      </trkpt>
      <trkpt lat="45.8187" lon="4.31947">
        <ele>639</ele>
        <time>2019-02-18T14:03:24Z</time>
      </trkpt>
      <trkpt lat="45.81869" lon="4.31941">
        <ele>639.317</ele>
        <time>2019-02-18T14:03:29Z</time>
      </trkpt>
      <trkpt lat="45.81869" lon="4.31933">
        <ele>639.807</ele>
        <time>2019-02-18T14:03:34Z</time>
      </trkpt>
      <trkpt lat="45.81869" lon="4.31924">
        <ele>640.422</ele>
        <time>2019-02-18T14:03:40Z</time>
      </trkpt>
      <trkpt lat="45.81869" lon="4.31917">
        <ele>640.56</ele>
        <time>2019-02-18T14:03:45Z</time>
      </trkpt>
      <trkpt lat="45.81867" lon="4.3191">
        <ele>641.145</ele>
        <time>2019-02-18T14:03:50Z</time>
      </trkpt>
      <trkpt lat="45.81865" lon="4.31903">
        <ele>642.279</ele>
        <time>2019-02-18T14:03:56Z</time>
      </trkpt>
      <trkpt lat="45.81864" lon="4.31899">
        <ele>643.076</ele>
        <time>2019-02-18T14:04:02Z</time>
      </trkpt>
      <trkpt lat="45.81865" lon="4.31898">
        <ele>643.691</ele>
        <time>2019-02-18T14:04:08Z</time>
      </trkpt>
      <trkpt lat="45.81864" lon="4.31895">
        <ele>644.294</ele>
        <time>2019-02-18T14:04:13Z</time>
      </trkpt>
      <trkpt lat="45.81864" lon="4.31894">
        <ele>644.344</ele>
        <time>2019-02-18T14:04:18Z</time>
      </trkpt>
      <trkpt lat="45.81865" lon="4.31895">
        <ele>644.639</ele>
        <time>2019-02-18T14:04:24Z</time>
      </trkpt>
      <trkpt lat="45.81864" lon="4.31897">
        <ele>644.646</ele>
        <time>2019-02-18T14:04:30Z</time>
      </trkpt>
      <trkpt lat="45.81862" lon="4.31897">
        <ele>644.727</ele>
        <time>2019-02-18T14:04:36Z</time>
      </trkpt>
      <trkpt lat="45.81862" lon="4.31897">
        <ele>645.076</ele>
        <time>2019-02-18T14:04:42Z</time>
      </trkpt>
      <trkpt lat="45.81861" lon="4.31897">
        <ele>645.478</ele>
        <time>2019-02-18T14:04:47Z</time>
      </trkpt>
      <trkpt lat="45.81864" lon="4.31898">
        <ele>645.667</ele>
        <time>2019-02-18T14:04:52Z</time>
      </trkpt>
      <trkpt lat="45.81866" lon="4.31897">
        <ele>645.877</ele>
        <time>2019-02-18T14:04:58Z</time>
      </trkpt>
      <trkpt lat="45.81869" lon="4.31896">
        <ele>646.404</ele>
        <time>2019-02-18T14:05:03Z</time>
      </trkpt>
      <trkpt lat="45.81872" lon="4.31896">
        <ele>646.909</ele>
        <time>2019-02-18T14:05:08Z</time>
      </trkpt>
      <trkpt lat="45.81872" lon="4.31894">
        <ele>647.102</ele>
        <time>2019-02-18T14:05:14Z</time>
      </trkpt>
      <trkpt lat="45.81873" lon="4.31895">
        <ele>647.178</ele>
        <time>2019-02-18T14:05:20Z</time>
      </trkpt>
      <trkpt lat="45.81874" lon="4.31897">
        <ele>647.451</ele>
        <time>2019-02-18T14:05:25Z</time>
      </trkpt>
      <trkpt lat="45.81873" lon="4.31898">
        <ele>647.869</ele>
        <time>2019-02-18T14:05:30Z</time>
      </trkpt>
      <trkpt lat="45.81872" lon="4.319">
        <ele>648.054</ele>
        <time>2019-02-18T14:05:35Z</time>
      </trkpt>
      <trkpt lat="45.81868" lon="4.31897">
        <ele>648.589</ele>
        <time>2019-02-18T14:05:41Z</time>
      </trkpt>
      <trkpt lat="45.81863" lon="4.31893">
        <ele>648.856</ele>
        <time>2019-02-18T14:05:46Z</time>
      </trkpt>
      <trkpt lat="45.81859" lon="4.31891">
        <ele>649.075</ele>
        <time>2019-02-18T14:05:51Z</time>
      </trkpt>
      <trkpt lat="45.81851" lon="4.31888">
        <ele>649.111</ele>
        <time>2019-02-18T14:05:57Z</time>
      </trkpt>
      <trkpt lat="45.81841" lon="4.31888">
        <ele>648.837</ele>
        <time>2019-02-18T14:06:03Z</time>
      </trkpt>
      <trkpt lat="45.81833" lon="4.31887">
        <ele>648.536</ele>
        <time>2019-02-18T14:06:08Z</time>
      </trkpt>
      <trkpt lat="45.81825" lon="4.31884">
        <ele>648.426</ele>
        <time>2019-02-18T14:06:14Z</time>
      </trkpt>
      <trkpt lat="45.81819" lon="4.31882">
        <ele>647.699</ele>
        <time>2019-02-18T14:06:19Z</time>
      </trkpt>
      <trkpt lat="45.81811" lon="4.31879">
        <ele>646.769</ele>
        <time>2019-02-18T14:06:25Z</time>
      </trkpt>
      <trkpt lat="45.81806" lon="4.31876">
        <ele>646.66</ele>
        <time>2019-02-18T14:06:30Z</time>
      </trkpt>
      <trkpt lat="45.81798" lon="4.31872">
        <ele>646.183</ele>
        <time>2019-02-18T14:06:36Z</time>
      </trkpt>
      <trkpt lat="45.81791" lon="4.31869">
        <ele>645.515</ele>
        <time>2019-02-18T14:06:42Z</time>
      </trkpt>
      <trkpt lat="45.81786" lon="4.31865">
        <ele>644.731</ele>
        <time>2019-02-18T14:06:47Z</time>
      </trkpt>
      <trkpt lat="45.81778" lon="4.31862">
        <ele>644.08</ele>
        <time>2019-02-18T14:06:52Z</time>
      </trkpt>
      <trkpt lat="45.81771" lon="4.31859">
        <ele>643.86</ele>
        <time>2019-02-18T14:06:58Z</time>
      </trkpt>
      <trkpt lat="45.81764" lon="4.31857">
        <ele>643.603</ele>
        <time>2019-02-18T14:07:03Z</time>
      </trkpt>
      <trkpt lat="45.81756" lon="4.31854">
        <ele>643.231</ele>
        <time>2019-02-18T14:07:09Z</time>
      </trkpt>
      <trkpt lat="45.8175" lon="4.31847">
        <ele>642.801</ele>
        <time>2019-02-18T14:07:14Z</time>
      </trkpt>
      <trkpt lat="45.81743" lon="4.3184">
        <ele>641.96</ele>
        <time>2019-02-18T14:07:20Z</time>
      </trkpt>
      <trkpt lat="45.81738" lon="4.31836">
        <ele>641.124</ele>
        <time>2019-02-18T14:07:25Z</time>
      </trkpt>
      <trkpt lat="45.8173" lon="4.31831">
        <ele>639.894</ele>
        <time>2019-02-18T14:07:31Z</time>
      </trkpt>
      <trkpt lat="45.81726" lon="4.31828">
        <ele>638.67</ele>
        <time>2019-02-18T14:07:36Z</time>
      </trkpt>
      <trkpt lat="45.81717" lon="4.31825">
        <ele>637.362</ele>
        <time>2019-02-18T14:07:42Z</time>
      </trkpt>
      <trkpt lat="45.81709" lon="4.31823">
        <ele>636.395</ele>
        <time>2019-02-18T14:07:47Z</time>
      </trkpt>
      <trkpt lat="45.81701" lon="4.31818">
        <ele>635.383</ele>
        <time>2019-02-18T14:07:53Z</time>
      </trkpt>
      <trkpt lat="45.81696" lon="4.31817">
        <ele>634.751</ele>
        <time>2019-02-18T14:07:58Z</time>
      </trkpt>
      <trkpt lat="45.81689" lon="4.31814">
        <ele>634.22</ele>
        <time>2019-02-18T14:08:04Z</time>
      </trkpt>
      <trkpt lat="45.81682" lon="4.3181">
        <ele>633.803</ele>
        <time>2019-02-18T14:08:09Z</time>
      </trkpt>
      <trkpt lat="45.81676" lon="4.31807">
        <ele>633.191</ele>
        <time>2019-02-18T14:08:14Z</time>
      </trkpt>
      <trkpt lat="45.81669" lon="4.31801">
        <ele>632.922</ele>
        <time>2019-02-18T14:08:20Z</time>
      </trkpt>
      <trkpt lat="45.81664" lon="4.31797">
        <ele>632.382</ele>
        <time>2019-02-18T14:08:25Z</time>
      </trkpt>
      <trkpt lat="45.81658" lon="4.31793">
        <ele>631.478</ele>
        <time>2019-02-18T14:08:31Z</time>
      </trkpt>
      <trkpt lat="45.81655" lon="4.31782">
        <ele>630.567</ele>
        <time>2019-02-18T14:08:37Z</time>
      </trkpt>
      <trkpt lat="45.81658" lon="4.31773">
        <ele>630.065</ele>
        <time>2019-02-18T14:08:43Z</time>
      </trkpt>
      <trkpt lat="45.81662" lon="4.3176">
        <ele>629.782</ele>
        <time>2019-02-18T14:08:49Z</time>
      </trkpt>
      <trkpt lat="45.81664" lon="4.3175">
        <ele>629.642</ele>
        <time>2019-02-18T14:08:54Z</time>
      </trkpt>
      <trkpt lat="45.81667" lon="4.31742">
        <ele>629.406</ele>
        <time>2019-02-18T14:09:00Z</time>
      </trkpt>
      <trkpt lat="45.81667" lon="4.31734">
        <ele>628.989</ele>
        <time>2019-02-18T14:09:05Z</time>
      </trkpt>
      <trkpt lat="45.8167" lon="4.31724">
        <ele>628.298</ele>
        <time>2019-02-18T14:09:11Z</time>
      </trkpt>
      <trkpt lat="45.81673" lon="4.31713">
        <ele>627.606</ele>
        <time>2019-02-18T14:09:16Z</time>
      </trkpt>
      <trkpt lat="45.81673" lon="4.31703">
        <ele>627.113</ele>
        <time>2019-02-18T14:09:21Z</time>
      </trkpt>
      <trkpt lat="45.81677" lon="4.31693">
        <ele>626.807</ele>
        <time>2019-02-18T14:09:27Z</time>
      </trkpt>
      <trkpt lat="45.81681" lon="4.31683">
        <ele>626.671</ele>
        <time>2019-02-18T14:09:33Z</time>
      </trkpt>
      <trkpt lat="45.8168" lon="4.31677">
        <ele>626.055</ele>
        <time>2019-02-18T14:09:39Z</time>
      </trkpt>
      <trkpt lat="45.81682" lon="4.31671">
        <ele>625.732</ele>
        <time>2019-02-18T14:09:44Z</time>
      </trkpt>
      <trkpt lat="45.81683" lon="4.31661">
        <ele>625.441</ele>
        <time>2019-02-18T14:09:50Z</time>
      </trkpt>
      <trkpt lat="45.81685" lon="4.31647">
        <ele>625.548</ele>
        <time>2019-02-18T14:09:56Z</time>
      </trkpt>
      <trkpt lat="45.81686" lon="4.31637">
        <ele>625.01</ele>
        <time>2019-02-18T14:10:02Z</time>
      </trkpt>
      <trkpt lat="45.81688" lon="4.31629">
        <ele>623.857</ele>
        <time>2019-02-18T14:10:07Z</time>
      </trkpt>
      <trkpt lat="45.81688" lon="4.31621">
        <ele>622.695</ele>
        <time>2019-02-18T14:10:13Z</time>
      </trkpt>
      <trkpt lat="45.81688" lon="4.31613">
        <ele>622.035</ele>
        <time>2019-02-18T14:10:18Z</time>
      </trkpt>
      <trkpt lat="45.81689" lon="4.31609">
        <ele>621.312</ele>
        <time>2019-02-18T14:10:24Z</time>
      </trkpt>
      <trkpt lat="45.8169" lon="4.316">
        <ele>620.639</ele>
        <time>2019-02-18T14:10:30Z</time>
      </trkpt>
      <trkpt lat="45.81691" lon="4.31589">
        <ele>619.78</ele>
        <time>2019-02-18T14:10:36Z</time>
      </trkpt>
      <trkpt lat="45.81693" lon="4.31582">
        <ele>618.955</ele>
        <time>2019-02-18T14:10:41Z</time>
      </trkpt>
      <trkpt lat="45.81694" lon="4.31574">
        <ele>618.451</ele>
        <time>2019-02-18T14:10:46Z</time>
      </trkpt>
      <trkpt lat="45.81698" lon="4.31563">
        <ele>617.245</ele>
        <time>2019-02-18T14:10:52Z</time>
      </trkpt>
      <trkpt lat="45.81701" lon="4.31556">
        <ele>616.028</ele>
        <time>2019-02-18T14:10:57Z</time>
      </trkpt>
      <trkpt lat="45.81704" lon="4.31545">
        <ele>614.701</ele>
        <time>2019-02-18T14:11:03Z</time>
      </trkpt>
      <trkpt lat="45.81705" lon="4.31535">
        <ele>614.134</ele>
        <time>2019-02-18T14:11:08Z</time>
      </trkpt>
      <trkpt lat="45.81706" lon="4.31525">
        <ele>613.507</ele>
        <time>2019-02-18T14:11:14Z</time>
      </trkpt>
      <trkpt lat="45.81706" lon="4.31514">
        <ele>613.071</ele>
        <time>2019-02-18T14:11:20Z</time>
      </trkpt>
      <trkpt lat="45.81706" lon="4.31502">
        <ele>612.798</ele>
        <time>2019-02-18T14:11:25Z</time>
      </trkpt>
      <trkpt lat="45.81707" lon="4.31492">
        <ele>612.012</ele>
        <time>2019-02-18T14:11:31Z</time>
      </trkpt>
      <trkpt lat="45.8171" lon="4.31484">
        <ele>610.854</ele>
        <time>2019-02-18T14:11:36Z</time>
      </trkpt>
      <trkpt lat="45.81713" lon="4.31472">
        <ele>609.963</ele>
        <time>2019-02-18T14:11:42Z</time>
      </trkpt>
      <trkpt lat="45.81716" lon="4.31464">
        <ele>608.582</ele>
        <time>2019-02-18T14:11:48Z</time>
      </trkpt>
      <trkpt lat="45.8172" lon="4.31453">
        <ele>607.275</ele>
        <time>2019-02-18T14:11:54Z</time>
      </trkpt>
      <trkpt lat="45.81721" lon="4.31444">
        <ele>605.996</ele>
        <time>2019-02-18T14:12:00Z</time>
      </trkpt>
      <trkpt lat="45.81723" lon="4.31434">
        <ele>604.865</ele>
        <time>2019-02-18T14:12:05Z</time>
      </trkpt>
      <trkpt lat="45.81725" lon="4.31425">
        <ele>603.442</ele>
        <time>2019-02-18T14:12:11Z</time>
      </trkpt>
      <trkpt lat="45.81726" lon="4.31417">
        <ele>602.256</ele>
        <time>2019-02-18T14:12:17Z</time>
      </trkpt>
      <trkpt lat="45.81727" lon="4.31408">
        <ele>600.999</ele>
        <time>2019-02-18T14:12:23Z</time>
      </trkpt>
      <trkpt lat="45.81726" lon="4.31398">
        <ele>600.273</ele>
        <time>2019-02-18T14:12:29Z</time>
      </trkpt>
      <trkpt lat="45.81723" lon="4.3139">
        <ele>599.228</ele>
        <time>2019-02-18T14:12:35Z</time>
      </trkpt>
      <trkpt lat="45.81719" lon="4.31384">
        <ele>597.881</ele>
        <time>2019-02-18T14:12:41Z</time>
      </trkpt>
      <trkpt lat="45.81713" lon="4.31379">
        <ele>596.619</ele>
        <time>2019-02-18T14:12:47Z</time>
      </trkpt>
      <trkpt lat="45.81713" lon="4.31376">
        <ele>596.356</ele>
        <time>2019-02-18T14:12:53Z</time>
      </trkpt>
      <trkpt lat="45.81714" lon="4.31377">
        <ele>596.091</ele>
        <time>2019-02-18T14:12:59Z</time>
      </trkpt>
      <trkpt lat="45.81713" lon="4.31377">
        <ele>596.015</ele>
        <time>2019-02-18T14:13:05Z</time>
      </trkpt>
      <trkpt lat="45.81711" lon="4.31374">
        <ele>595.981</ele>
        <time>2019-02-18T14:13:11Z</time>
      </trkpt>
      <trkpt lat="45.81711" lon="4.31372">
        <ele>596.091</ele>
        <time>2019-02-18T14:13:16Z</time>
      </trkpt>
      <trkpt lat="45.81711" lon="4.31371">
        <ele>596.247</ele>
        <time>2019-02-18T14:13:22Z</time>
      </trkpt>
      <trkpt lat="45.81712" lon="4.31372">
        <ele>595.847</ele>
        <time>2019-02-18T14:13:27Z</time>
      </trkpt>
      <trkpt lat="45.81712" lon="4.31373">
        <ele>596.268</ele>
        <time>2019-02-18T14:13:33Z</time>
      </trkpt>
      <trkpt lat="45.81708" lon="4.3138">
        <ele>596.327</ele>
        <time>2019-02-18T14:13:39Z</time>
      </trkpt>
      <trkpt lat="45.8171" lon="4.31384">
        <ele>596.351</ele>
        <time>2019-02-18T14:13:44Z</time>
      </trkpt>
      <trkpt lat="45.81712" lon="4.31383">
        <ele>596.163</ele>
        <time>2019-02-18T14:13:49Z</time>
      </trkpt>
      <trkpt lat="45.81712" lon="4.31382">
        <ele>596.1</ele>
        <time>2019-02-18T14:13:54Z</time>
      </trkpt>
      <trkpt lat="45.81711" lon="4.3138">
        <ele>596.09</ele>
        <time>2019-02-18T14:14:00Z</time>
      </trkpt>
      <trkpt lat="45.81713" lon="4.31379">
        <ele>596.077</ele>
        <time>2019-02-18T14:14:05Z</time>
      </trkpt>
      <trkpt lat="45.81714" lon="4.3138">
        <ele>596.444</ele>
        <time>2019-02-18T14:14:11Z</time>
      </trkpt>
      <trkpt lat="45.81705" lon="4.31375">
        <ele>596.741</ele>
        <time>2019-02-18T14:14:17Z</time>
      </trkpt>
      <trkpt lat="45.81699" lon="4.31372">
        <ele>596.635</ele>
        <time>2019-02-18T14:14:22Z</time>
      </trkpt>
      <trkpt lat="45.81694" lon="4.3137">
        <ele>596.104</ele>
        <time>2019-02-18T14:14:28Z</time>
      </trkpt>
      <trkpt lat="45.81694" lon="4.31361">
        <ele>595.886</ele>
        <time>2019-02-18T14:14:34Z</time>
      </trkpt>
      <trkpt lat="45.81699" lon="4.31346">
        <ele>595.717</ele>
        <time>2019-02-18T14:14:40Z</time>
      </trkpt>
      <trkpt lat="45.81703" lon="4.31338">
        <ele>595.6</ele>
        <time>2019-02-18T14:14:45Z</time>
      </trkpt>
      <trkpt lat="45.81707" lon="4.31331">
        <ele>595.519</ele>
        <time>2019-02-18T14:14:51Z</time>
      </trkpt>
      <trkpt lat="45.81709" lon="4.31321">
        <ele>595.732</ele>
        <time>2019-02-18T14:14:56Z</time>
      </trkpt>
      <trkpt lat="45.81712" lon="4.31309">
        <ele>595.62</ele>
        <time>2019-02-18T14:15:02Z</time>
      </trkpt>
      <trkpt lat="45.81714" lon="4.31297">
        <ele>595.3</ele>
        <time>2019-02-18T14:15:08Z</time>
      </trkpt>
      <trkpt lat="45.81715" lon="4.31286">
        <ele>595.337</ele>
        <time>2019-02-18T14:15:14Z</time>
      </trkpt>
      <trkpt lat="45.81716" lon="4.31277">
        <ele>595.428</ele>
        <time>2019-02-18T14:15:20Z</time>
      </trkpt>
      <trkpt lat="45.8172" lon="4.31269">
        <ele>595.748</ele>
        <time>2019-02-18T14:15:25Z</time>
      </trkpt>
      <trkpt lat="45.81726" lon="4.31262">
        <ele>596.354</ele>
        <time>2019-02-18T14:15:31Z</time>
      </trkpt>
      <trkpt lat="45.8173" lon="4.31257">
        <ele>597.03</ele>
        <time>2019-02-18T14:15:36Z</time>
      </trkpt>
      <trkpt lat="45.81735" lon="4.31254">
        <ele>597.872</ele>
        <time>2019-02-18T14:15:42Z</time>
      </trkpt>
      <trkpt lat="45.81741" lon="4.31249">
        <ele>598.813</ele>
        <time>2019-02-18T14:15:48Z</time>
      </trkpt>
      <trkpt lat="45.81747" lon="4.31243">
        <ele>599.647</ele>
        <time>2019-02-18T14:15:54Z</time>
      </trkpt>
      <trkpt lat="45.81755" lon="4.31234">
        <ele>600.095</ele>
        <time>2019-02-18T14:16:00Z</time>
      </trkpt>
      <trkpt lat="45.81761" lon="4.31224">
        <ele>600.464</ele>
        <time>2019-02-18T14:16:06Z</time>
      </trkpt>
      <trkpt lat="45.81764" lon="4.31216">
        <ele>600.939</ele>
        <time>2019-02-18T14:16:11Z</time>
      </trkpt>
      <trkpt lat="45.81765" lon="4.31209">
        <ele>600.862</ele>
        <time>2019-02-18T14:16:16Z</time>
      </trkpt>
      <trkpt lat="45.81766" lon="4.31202">
        <ele>600.606</ele>
        <time>2019-02-18T14:16:21Z</time>
      </trkpt>
      <trkpt lat="45.81767" lon="4.3119">
        <ele>600.871</ele>
        <time>2019-02-18T14:16:27Z</time>
      </trkpt>
      <trkpt lat="45.81768" lon="4.31181">
        <ele>601.079</ele>
        <time>2019-02-18T14:16:32Z</time>
      </trkpt>
      <trkpt lat="45.8177" lon="4.3117">
        <ele>601.111</ele>
        <time>2019-02-18T14:16:37Z</time>
      </trkpt>
      <trkpt lat="45.81772" lon="4.31161">
        <ele>601.9</ele>
        <time>2019-02-18T14:16:43Z</time>
      </trkpt>
      <trkpt lat="45.81772" lon="4.31153">
        <ele>602.556</ele>
        <time>2019-02-18T14:16:49Z</time>
      </trkpt>
      <trkpt lat="45.81773" lon="4.31144">
        <ele>603.012</ele>
        <time>2019-02-18T14:16:54Z</time>
      </trkpt>
      <trkpt lat="45.81775" lon="4.31139">
        <ele>603.27</ele>
        <time>2019-02-18T14:16:59Z</time>
      </trkpt>
      <trkpt lat="45.81775" lon="4.31132">
        <ele>603.689</ele>
        <time>2019-02-18T14:17:05Z</time>
      </trkpt>
      <trkpt lat="45.81778" lon="4.31128">
        <ele>603.759</ele>
        <time>2019-02-18T14:17:11Z</time>
      </trkpt>
      <trkpt lat="45.81781" lon="4.31129">
        <ele>603.919</ele>
        <time>2019-02-18T14:17:16Z</time>
      </trkpt>
      <trkpt lat="45.81783" lon="4.31127">
        <ele>604.138</ele>
        <time>2019-02-18T14:17:21Z</time>
      </trkpt>
      <trkpt lat="45.81782" lon="4.31125">
        <ele>604.308</ele>
        <time>2019-02-18T14:17:27Z</time>
      </trkpt>
      <trkpt lat="45.81781" lon="4.31125">
        <ele>604.451</ele>
        <time>2019-02-18T14:17:33Z</time>
      </trkpt>
      <trkpt lat="45.81782" lon="4.31124">
        <ele>604.561</ele>
        <time>2019-02-18T14:17:38Z</time>
      </trkpt>
      <trkpt lat="45.81783" lon="4.31124">
        <ele>604.87</ele>
        <time>2019-02-18T14:17:44Z</time>
      </trkpt>
      <trkpt lat="45.81784" lon="4.31126">
        <ele>605.175</ele>
        <time>2019-02-18T14:17:49Z</time>
      </trkpt>
      <trkpt lat="45.81787" lon="4.31125">
        <ele>605.623</ele>
        <time>2019-02-18T14:17:55Z</time>
      </trkpt>
      <trkpt lat="45.81789" lon="4.31124">
        <ele>605.789</ele>
        <time>2019-02-18T14:18:00Z</time>
      </trkpt>
      <trkpt lat="45.81789" lon="4.31121">
        <ele>606.116</ele>
        <time>2019-02-18T14:18:05Z</time>
      </trkpt>
      <trkpt lat="45.81789" lon="4.31117">
        <ele>606.465</ele>
        <time>2019-02-18T14:18:11Z</time>
      </trkpt>
      <trkpt lat="45.81789" lon="4.31116">
        <ele>606.571</ele>
        <time>2019-02-18T14:18:16Z</time>
      </trkpt>
      <trkpt lat="45.81792" lon="4.31115">
        <ele>606.781</ele>
        <time>2019-02-18T14:18:21Z</time>
      </trkpt>
      <trkpt lat="45.81797" lon="4.31113">
        <ele>607.499</ele>
        <time>2019-02-18T14:18:27Z</time>
      </trkpt>
      <trkpt lat="45.818" lon="4.31113">
        <ele>607.843</ele>
        <time>2019-02-18T14:18:32Z</time>
      </trkpt>
      <trkpt lat="45.81804" lon="4.31111">
        <ele>608.011</ele>
        <time>2019-02-18T14:18:37Z</time>
      </trkpt>
      <trkpt lat="45.81809" lon="4.31113">
        <ele>608.111</ele>
        <time>2019-02-18T14:18:43Z</time>
      </trkpt>
      <trkpt lat="45.81813" lon="4.31115">
        <ele>608.147</ele>
        <time>2019-02-18T14:18:48Z</time>
      </trkpt>
      <trkpt lat="45.81817" lon="4.31113">
        <ele>608.565</ele>
        <time>2019-02-18T14:18:53Z</time>
      </trkpt>
      <trkpt lat="45.81823" lon="4.31115">
        <ele>609.25</ele>
        <time>2019-02-18T14:18:59Z</time>
      </trkpt>
      <trkpt lat="45.81833" lon="4.31118">
        <ele>609.949</ele>
        <time>2019-02-18T14:19:05Z</time>
      </trkpt>
      <trkpt lat="45.81839" lon="4.3112">
        <ele>610.35</ele>
        <time>2019-02-18T14:19:11Z</time>
      </trkpt>
      <trkpt lat="45.81845" lon="4.31122">
        <ele>610.844</ele>
        <time>2019-02-18T14:19:16Z</time>
      </trkpt>
      <trkpt lat="45.81852" lon="4.31124">
        <ele>611.263</ele>
        <time>2019-02-18T14:19:22Z</time>
      </trkpt>
      <trkpt lat="45.81856" lon="4.31124">
        <ele>612.141</ele>
        <time>2019-02-18T14:19:27Z</time>
      </trkpt>
      <trkpt lat="45.81863" lon="4.31124">
        <ele>612.563</ele>
        <time>2019-02-18T14:19:33Z</time>
      </trkpt>
      <trkpt lat="45.81866" lon="4.31127">
        <ele>612.266</ele>
        <time>2019-02-18T14:19:38Z</time>
      </trkpt>
      <trkpt lat="45.8187" lon="4.31129">
        <ele>611.945</ele>
        <time>2019-02-18T14:19:43Z</time>
      </trkpt>
      <trkpt lat="45.81886" lon="4.31135">
        <ele>610.877</ele>
        <time>2019-02-18T14:19:49Z</time>
      </trkpt>
      <trkpt lat="45.81894" lon="4.31137">
        <ele>610.252</ele>
        <time>2019-02-18T14:19:54Z</time>
      </trkpt>
      <trkpt lat="45.81898" lon="4.31138">
        <ele>609.813</ele>
        <time>2019-02-18T14:19:59Z</time>
      </trkpt>
      <trkpt lat="45.81906" lon="4.3114">
        <ele>609.611</ele>
        <time>2019-02-18T14:20:05Z</time>
      </trkpt>
      <trkpt lat="45.81914" lon="4.31143">
        <ele>609.047</ele>
        <time>2019-02-18T14:20:11Z</time>
      </trkpt>
      <trkpt lat="45.81921" lon="4.31146">
        <ele>608.422</ele>
        <time>2019-02-18T14:20:17Z</time>
      </trkpt>
      <trkpt lat="45.8193" lon="4.31151">
        <ele>607.941</ele>
        <time>2019-02-18T14:20:23Z</time>
      </trkpt>
      <trkpt lat="45.81937" lon="4.31152">
        <ele>607.43</ele>
        <time>2019-02-18T14:20:29Z</time>
      </trkpt>
      <trkpt lat="45.81943" lon="4.31156">
        <ele>606.281</ele>
        <time>2019-02-18T14:20:35Z</time>
      </trkpt>
      <trkpt lat="45.81948" lon="4.3116">
        <ele>605.75</ele>
        <time>2019-02-18T14:20:40Z</time>
      </trkpt>
      <trkpt lat="45.81952" lon="4.31166">
        <ele>604.753</ele>
        <time>2019-02-18T14:20:46Z</time>
      </trkpt>
      <trkpt lat="45.81959" lon="4.31172">
        <ele>604.222</ele>
        <time>2019-02-18T14:20:52Z</time>
      </trkpt>
      <trkpt lat="45.81966" lon="4.31177">
        <ele>603.416</ele>
        <time>2019-02-18T14:20:58Z</time>
      </trkpt>
      <trkpt lat="45.81972" lon="4.31183">
        <ele>603.075</ele>
        <time>2019-02-18T14:21:04Z</time>
      </trkpt>
      <trkpt lat="45.81979" lon="4.31188">
        <ele>602.664</ele>
        <time>2019-02-18T14:21:09Z</time>
      </trkpt>
      <trkpt lat="45.81984" lon="4.31196">
        <ele>602.071</ele>
        <time>2019-02-18T14:21:15Z</time>
      </trkpt>
      <trkpt lat="45.81987" lon="4.31204">
        <ele>601.683</ele>
        <time>2019-02-18T14:21:21Z</time>
      </trkpt>
      <trkpt lat="45.8199" lon="4.3121">
        <ele>602.038</ele>
        <time>2019-02-18T14:21:26Z</time>
      </trkpt>
      <trkpt lat="45.81995" lon="4.31218">
        <ele>602.407</ele>
        <time>2019-02-18T14:21:32Z</time>
      </trkpt>
      <trkpt lat="45.81998" lon="4.31225">
        <ele>602.46</ele>
        <time>2019-02-18T14:21:37Z</time>
      </trkpt>
      <trkpt lat="45.82003" lon="4.31231">
        <ele>602.48</ele>
        <time>2019-02-18T14:21:42Z</time>
      </trkpt>
      <trkpt lat="45.82005" lon="4.31239">
        <ele>602.387</ele>
        <time>2019-02-18T14:21:47Z</time>
      </trkpt>
      <trkpt lat="45.82009" lon="4.31251">
        <ele>602.476</ele>
        <time>2019-02-18T14:21:53Z</time>
      </trkpt>
      <trkpt lat="45.8201" lon="4.31258">
        <ele>602.546</ele>
        <time>2019-02-18T14:21:58Z</time>
      </trkpt>
      <trkpt lat="45.82013" lon="4.31266">
        <ele>602.791</ele>
        <time>2019-02-18T14:22:04Z</time>
      </trkpt>
      <trkpt lat="45.82018" lon="4.31273">
        <ele>603.139</ele>
        <time>2019-02-18T14:22:10Z</time>
      </trkpt>
      <trkpt lat="45.82022" lon="4.31276">
        <ele>603.593</ele>
        <time>2019-02-18T14:22:15Z</time>
      </trkpt>
      <trkpt lat="45.82027" lon="4.3128">
        <ele>604.504</ele>
        <time>2019-02-18T14:22:21Z</time>
      </trkpt>
      <trkpt lat="45.82031" lon="4.31283">
        <ele>605.074</ele>
        <time>2019-02-18T14:22:26Z</time>
      </trkpt>
      <trkpt lat="45.82036" lon="4.31286">
        <ele>605.822</ele>
        <time>2019-02-18T14:22:32Z</time>
      </trkpt>
      <trkpt lat="45.8204" lon="4.31293">
        <ele>606.191</ele>
        <time>2019-02-18T14:22:37Z</time>
      </trkpt>
      <trkpt lat="45.82043" lon="4.31298">
        <ele>606.727</ele>
        <time>2019-02-18T14:22:43Z</time>
      </trkpt>
      <trkpt lat="45.82047" lon="4.31301">
        <ele>607.12</ele>
        <time>2019-02-18T14:22:49Z</time>
      </trkpt>
      <trkpt lat="45.82053" lon="4.31303">
        <ele>607.548</ele>
        <time>2019-02-18T14:22:55Z</time>
      </trkpt>
      <trkpt lat="45.82059" lon="4.31303">
        <ele>608.337</ele>
        <time>2019-02-18T14:23:00Z</time>
      </trkpt>
      <trkpt lat="45.82064" lon="4.31306">
        <ele>608.774</ele>
        <time>2019-02-18T14:23:06Z</time>
      </trkpt>
      <trkpt lat="45.8207" lon="4.31308">
        <ele>609.578</ele>
        <time>2019-02-18T14:23:12Z</time>
      </trkpt>
      <trkpt lat="45.82077" lon="4.31308">
        <ele>610.56</ele>
        <time>2019-02-18T14:23:17Z</time>
      </trkpt>
      <trkpt lat="45.82086" lon="4.31306">
        <ele>611.972</ele>
        <time>2019-02-18T14:23:23Z</time>
      </trkpt>
      <trkpt lat="45.82091" lon="4.31307">
        <ele>612.731</ele>
        <time>2019-02-18T14:23:28Z</time>
      </trkpt>
      <trkpt lat="45.821" lon="4.31305">
        <ele>613.773</ele>
        <time>2019-02-18T14:23:34Z</time>
      </trkpt>
      <trkpt lat="45.82105" lon="4.31304">
        <ele>614.538</ele>
        <time>2019-02-18T14:23:39Z</time>
      </trkpt>
      <trkpt lat="45.82113" lon="4.31303">
        <ele>615.804</ele>
        <time>2019-02-18T14:23:45Z</time>
      </trkpt>
      <trkpt lat="45.82118" lon="4.31303">
        <ele>616.6</ele>
        <time>2019-02-18T14:23:50Z</time>
      </trkpt>
      <trkpt lat="45.82122" lon="4.31301">
        <ele>617.351</ele>
        <time>2019-02-18T14:23:55Z</time>
      </trkpt>
      <trkpt lat="45.82127" lon="4.31301">
        <ele>617.986</ele>
        <time>2019-02-18T14:24:01Z</time>
      </trkpt>
      <trkpt lat="45.82131" lon="4.31301">
        <ele>619.293</ele>
        <time>2019-02-18T14:24:07Z</time>
      </trkpt>
      <trkpt lat="45.82135" lon="4.313">
        <ele>620.468</ele>
        <time>2019-02-18T14:24:12Z</time>
      </trkpt>
      <trkpt lat="45.82139" lon="4.31299">
        <ele>621.633</ele>
        <time>2019-02-18T14:24:18Z</time>
      </trkpt>
      <trkpt lat="45.82144" lon="4.31299">
        <ele>622.514</ele>
        <time>2019-02-18T14:24:23Z</time>
      </trkpt>
      <trkpt lat="45.8215" lon="4.31299">
        <ele>623.608</ele>
        <time>2019-02-18T14:24:28Z</time>
      </trkpt>
      <trkpt lat="45.82156" lon="4.31299">
        <ele>624.696</ele>
        <time>2019-02-18T14:24:34Z</time>
      </trkpt>
      <trkpt lat="45.82159" lon="4.31298">
        <ele>625.411</ele>
        <time>2019-02-18T14:24:40Z</time>
      </trkpt>
      <trkpt lat="45.82162" lon="4.31297">
        <ele>625.798</ele>
        <time>2019-02-18T14:24:45Z</time>
      </trkpt>
      <trkpt lat="45.82165" lon="4.31296">
        <ele>626.929</ele>
        <time>2019-02-18T14:24:51Z</time>
      </trkpt>
      <trkpt lat="45.82169" lon="4.31295">
        <ele>627.896</ele>
        <time>2019-02-18T14:24:57Z</time>
      </trkpt>
      <trkpt lat="45.82173" lon="4.31294">
        <ele>628.657</ele>
        <time>2019-02-18T14:25:02Z</time>
      </trkpt>
      <trkpt lat="45.82177" lon="4.31291">
        <ele>629.46</ele>
        <time>2019-02-18T14:25:07Z</time>
      </trkpt>
      <trkpt lat="45.82179" lon="4.31288">
        <ele>630.075</ele>
        <time>2019-02-18T14:25:13Z</time>
      </trkpt>
      <trkpt lat="45.82182" lon="4.31285">
        <ele>630.633</ele>
        <time>2019-02-18T14:25:19Z</time>
      </trkpt>
      <trkpt lat="45.82186" lon="4.3128">
        <ele>631.355</ele>
        <time>2019-02-18T14:25:25Z</time>
      </trkpt>
      <trkpt lat="45.82191" lon="4.31275">
        <ele>632.116</ele>
        <time>2019-02-18T14:25:31Z</time>
      </trkpt>
      <trkpt lat="45.82196" lon="4.3127">
        <ele>632.786</ele>
        <time>2019-02-18T14:25:37Z</time>
      </trkpt>
      <trkpt lat="45.82201" lon="4.31266">
        <ele>633.605</ele>
        <time>2019-02-18T14:25:43Z</time>
      </trkpt>
      <trkpt lat="45.82206" lon="4.31264">
        <ele>634.266</ele>
        <time>2019-02-18T14:25:48Z</time>
      </trkpt>
      <trkpt lat="45.8221" lon="4.31261">
        <ele>634.968</ele>
        <time>2019-02-18T14:25:54Z</time>
      </trkpt>
      <trkpt lat="45.82214" lon="4.31257">
        <ele>635.338</ele>
        <time>2019-02-18T14:25:59Z</time>
      </trkpt>
      <trkpt lat="45.82218" lon="4.31255">
        <ele>635.975</ele>
        <time>2019-02-18T14:26:05Z</time>
      </trkpt>
      <trkpt lat="45.8222" lon="4.31253">
        <ele>636.513</ele>
        <time>2019-02-18T14:26:10Z</time>
      </trkpt>
      <trkpt lat="45.82224" lon="4.3125">
        <ele>636.833</ele>
        <time>2019-02-18T14:26:15Z</time>
      </trkpt>
      <trkpt lat="45.82228" lon="4.31246">
        <ele>636.941</ele>
        <time>2019-02-18T14:26:21Z</time>
      </trkpt>
      <trkpt lat="45.82232" lon="4.31241">
        <ele>637.364</ele>
        <time>2019-02-18T14:26:26Z</time>
      </trkpt>
      <trkpt lat="45.82237" lon="4.31238">
        <ele>638.219</ele>
        <time>2019-02-18T14:26:32Z</time>
      </trkpt>
      <trkpt lat="45.82243" lon="4.31235">
        <ele>639.017</ele>
        <time>2019-02-18T14:26:37Z</time>
      </trkpt>
      <trkpt lat="45.82247" lon="4.31232">
        <ele>639.402</ele>
        <time>2019-02-18T14:26:43Z</time>
      </trkpt>
      <trkpt lat="45.82251" lon="4.31231">
        <ele>639.903</ele>
        <time>2019-02-18T14:26:48Z</time>
      </trkpt>
      <trkpt lat="45.82256" lon="4.31226">
        <ele>641.01</ele>
        <time>2019-02-18T14:26:54Z</time>
      </trkpt>
      <trkpt lat="45.8226" lon="4.31224">
        <ele>642.459</ele>
        <time>2019-02-18T14:27:00Z</time>
      </trkpt>
      <trkpt lat="45.82265" lon="4.3122">
        <ele>643.309</ele>
        <time>2019-02-18T14:27:05Z</time>
      </trkpt>
      <trkpt lat="45.8227" lon="4.31218">
        <ele>644.325</ele>
        <time>2019-02-18T14:27:11Z</time>
      </trkpt>
      <trkpt lat="45.82274" lon="4.31218">
        <ele>645.63</ele>
        <time>2019-02-18T14:27:17Z</time>
      </trkpt>
      <trkpt lat="45.82279" lon="4.31221">
        <ele>646.328</ele>
        <time>2019-02-18T14:27:22Z</time>
      </trkpt>
      <trkpt lat="45.82283" lon="4.31227">
        <ele>647.172</ele>
        <time>2019-02-18T14:27:28Z</time>
      </trkpt>
      <trkpt lat="45.82288" lon="4.31227">
        <ele>647.835</ele>
        <time>2019-02-18T14:27:34Z</time>
      </trkpt>
      <trkpt lat="45.82287" lon="4.31226">
        <ele>648.4</ele>
        <time>2019-02-18T14:27:40Z</time>
      </trkpt>
      <trkpt lat="45.82285" lon="4.31221">
        <ele>649.166</ele>
        <time>2019-02-18T14:27:46Z</time>
      </trkpt>
      <trkpt lat="45.82285" lon="4.3122">
        <ele>649.711</ele>
        <time>2019-02-18T14:27:52Z</time>
      </trkpt>
      <trkpt lat="45.82285" lon="4.31221">
        <ele>649.792</ele>
        <time>2019-02-18T14:27:58Z</time>
      </trkpt>
      <trkpt lat="45.82285" lon="4.31221">
        <ele>649.773</ele>
        <time>2019-02-18T14:28:04Z</time>
      </trkpt>
      <trkpt lat="45.82286" lon="4.3122">
        <ele>649.928</ele>
        <time>2019-02-18T14:28:10Z</time>
      </trkpt>
      <trkpt lat="45.82287" lon="4.3122">
        <ele>650.032</ele>
        <time>2019-02-18T14:28:15Z</time>
      </trkpt>
      <trkpt lat="45.82287" lon="4.31219">
        <ele>650.303</ele>
        <time>2019-02-18T14:28:21Z</time>
      </trkpt>
      <trkpt lat="45.82287" lon="4.31219">
        <ele>650.347</ele>
        <time>2019-02-18T14:28:26Z</time>
      </trkpt>
      <trkpt lat="45.82288" lon="4.31219">
        <ele>650.604</ele>
        <time>2019-02-18T14:28:32Z</time>
      </trkpt>
      <trkpt lat="45.82289" lon="4.3122">
        <ele>650.638</ele>
        <time>2019-02-18T14:28:37Z</time>
      </trkpt>
      <trkpt lat="45.82289" lon="4.3122">
        <ele>650.722</ele>
        <time>2019-02-18T14:28:43Z</time>
      </trkpt>
      <trkpt lat="45.8229" lon="4.31219">
        <ele>650.638</ele>
        <time>2019-02-18T14:28:49Z</time>
      </trkpt>
      <trkpt lat="45.82288" lon="4.31218">
        <ele>650.355</ele>
        <time>2019-02-18T14:28:55Z</time>
      </trkpt>
      <trkpt lat="45.82288" lon="4.31218">
        <ele>650.245</ele>
        <time>2019-02-18T14:29:01Z</time>
      </trkpt>
      <trkpt lat="45.82288" lon="4.31217">
        <ele>650.214</ele>
        <time>2019-02-18T14:29:06Z</time>
      </trkpt>
      <trkpt lat="45.82288" lon="4.31216">
        <ele>650.214</ele>
        <time>2019-02-18T14:29:11Z</time>
      </trkpt>
      <trkpt lat="45.82287" lon="4.31215">
        <ele>650.331</ele>
        <time>2019-02-18T14:29:16Z</time>
      </trkpt>
      <trkpt lat="45.82288" lon="4.31216">
        <ele>650.342</ele>
        <time>2019-02-18T14:29:22Z</time>
      </trkpt>
      <trkpt lat="45.82289" lon="4.31216">
        <ele>650.158</ele>
        <time>2019-02-18T14:29:28Z</time>
      </trkpt>
      <trkpt lat="45.8229" lon="4.31215">
        <ele>650.09</ele>
        <time>2019-02-18T14:29:34Z</time>
      </trkpt>
      <trkpt lat="45.82289" lon="4.31215">
        <ele>650.161</ele>
        <time>2019-02-18T14:29:40Z</time>
      </trkpt>
      <trkpt lat="45.82288" lon="4.31215">
        <ele>650.468</ele>
        <time>2019-02-18T14:29:46Z</time>
      </trkpt>
      <trkpt lat="45.82287" lon="4.31217">
        <ele>650.494</ele>
        <time>2019-02-18T14:29:51Z</time>
      </trkpt>
      <trkpt lat="45.82286" lon="4.31218">
        <ele>650.53</ele>
        <time>2019-02-18T14:29:57Z</time>
      </trkpt>
      <trkpt lat="45.82286" lon="4.31218">
        <ele>650.572</ele>
        <time>2019-02-18T14:30:02Z</time>
      </trkpt>
      <trkpt lat="45.82285" lon="4.3122">
        <ele>650.915</ele>
        <time>2019-02-18T14:30:08Z</time>
      </trkpt>
      <trkpt lat="45.82285" lon="4.3122">
        <ele>651.108</ele>
        <time>2019-02-18T14:30:13Z</time>
      </trkpt>
      <trkpt lat="45.82286" lon="4.3122">
        <ele>651.45</ele>
        <time>2019-02-18T14:30:19Z</time>
      </trkpt>
      <trkpt lat="45.82284" lon="4.31219">
        <ele>651.577</ele>
        <time>2019-02-18T14:30:24Z</time>
      </trkpt>
      <trkpt lat="45.82283" lon="4.31219">
        <ele>651.511</ele>
        <time>2019-02-18T14:30:30Z</time>
      </trkpt>
      <trkpt lat="45.82283" lon="4.31219">
        <ele>651.539</ele>
        <time>2019-02-18T14:30:35Z</time>
      </trkpt>
      <trkpt lat="45.82285" lon="4.31218">
        <ele>651.551</ele>
        <time>2019-02-18T14:30:40Z</time>
      </trkpt>
      <trkpt lat="45.82285" lon="4.31219">
        <ele>651.886</ele>
        <time>2019-02-18T14:30:46Z</time>
      </trkpt>
      <trkpt lat="45.82286" lon="4.31221">
        <ele>651.965</ele>
        <time>2019-02-18T14:30:52Z</time>
      </trkpt>
      <trkpt lat="45.82286" lon="4.31221">
        <ele>652.003</ele>
        <time>2019-02-18T14:30:57Z</time>
      </trkpt>
      <trkpt lat="45.82285" lon="4.31221">
        <ele>652.074</ele>
        <time>2019-02-18T14:31:02Z</time>
      </trkpt>
      <trkpt lat="45.82286" lon="4.31222">
        <ele>652.545</ele>
        <time>2019-02-18T14:31:07Z</time>
      </trkpt>
      <trkpt lat="45.82286" lon="4.31223">
        <ele>652.774</ele>
        <time>2019-02-18T14:31:13Z</time>
      </trkpt>
      <trkpt lat="45.82287" lon="4.31223">
        <ele>652.786</ele>
        <time>2019-02-18T14:31:19Z</time>
      </trkpt>
      <trkpt lat="45.82287" lon="4.31223">
        <ele>652.759</ele>
        <time>2019-02-18T14:31:24Z</time>
      </trkpt>
      <trkpt lat="45.82286" lon="4.31222">
        <ele>652.567</ele>
        <time>2019-02-18T14:31:29Z</time>
      </trkpt>
      <trkpt lat="45.82285" lon="4.31218">
        <ele>653</ele>
        <time>2019-02-18T14:31:35Z</time>
      </trkpt>
      <trkpt lat="45.82284" lon="4.31211">
        <ele>653.011</ele>
        <time>2019-02-18T14:31:41Z</time>
      </trkpt>
      <trkpt lat="45.82284" lon="4.31201">
        <ele>653.213</ele>
        <time>2019-02-18T14:31:47Z</time>
      </trkpt>
      <trkpt lat="45.82285" lon="4.31193">
        <ele>653.393</ele>
        <time>2019-02-18T14:31:53Z</time>
      </trkpt>
      <trkpt lat="45.82287" lon="4.31184">
        <ele>653.438</ele>
        <time>2019-02-18T14:31:58Z</time>
      </trkpt>
      <trkpt lat="45.82289" lon="4.31173">
        <ele>653.278</ele>
        <time>2019-02-18T14:32:04Z</time>
      </trkpt>
      <trkpt lat="45.82289" lon="4.31165">
        <ele>653.367</ele>
        <time>2019-02-18T14:32:10Z</time>
      </trkpt>
      <trkpt lat="45.82293" lon="4.31155">
        <ele>653.044</ele>
        <time>2019-02-18T14:32:16Z</time>
      </trkpt>
      <trkpt lat="45.82295" lon="4.3115">
        <ele>652.79</ele>
        <time>2019-02-18T14:32:21Z</time>
      </trkpt>
      <trkpt lat="45.82296" lon="4.31143">
        <ele>652.478</ele>
        <time>2019-02-18T14:32:27Z</time>
      </trkpt>
      <trkpt lat="45.82298" lon="4.31135">
        <ele>652.385</ele>
        <time>2019-02-18T14:32:32Z</time>
      </trkpt>
      <trkpt lat="45.82302" lon="4.31129">
        <ele>652.38</ele>
        <time>2019-02-18T14:32:37Z</time>
      </trkpt>
      <trkpt lat="45.82306" lon="4.31119">
        <ele>652.059</ele>
        <time>2019-02-18T14:32:43Z</time>
      </trkpt>
      <trkpt lat="45.8231" lon="4.31111">
        <ele>651.757</ele>
        <time>2019-02-18T14:32:49Z</time>
      </trkpt>
      <trkpt lat="45.82316" lon="4.31105">
        <ele>651.701</ele>
        <time>2019-02-18T14:32:54Z</time>
      </trkpt>
      <trkpt lat="45.82319" lon="4.31096">
        <ele>651.358</ele>
        <time>2019-02-18T14:33:00Z</time>
      </trkpt>
      <trkpt lat="45.82322" lon="4.3109">
        <ele>650.993</ele>
        <time>2019-02-18T14:33:06Z</time>
      </trkpt>
      <trkpt lat="45.82325" lon="4.31083">
        <ele>650.699</ele>
        <time>2019-02-18T14:33:11Z</time>
      </trkpt>
      <trkpt lat="45.82329" lon="4.31072">
        <ele>650.319</ele>
        <time>2019-02-18T14:33:17Z</time>
      </trkpt>
      <trkpt lat="45.82333" lon="4.31067">
        <ele>649.808</ele>
        <time>2019-02-18T14:33:22Z</time>
      </trkpt>
      <trkpt lat="45.82337" lon="4.31062">
        <ele>649.156</ele>
        <time>2019-02-18T14:33:27Z</time>
      </trkpt>
      <trkpt lat="45.82341" lon="4.31055">
        <ele>648.895</ele>
        <time>2019-02-18T14:33:33Z</time>
      </trkpt>
      <trkpt lat="45.82344" lon="4.31049">
        <ele>648.539</ele>
        <time>2019-02-18T14:33:38Z</time>
      </trkpt>
      <trkpt lat="45.82348" lon="4.31043">
        <ele>648.105</ele>
        <time>2019-02-18T14:33:44Z</time>
      </trkpt>
      <trkpt lat="45.82353" lon="4.31035">
        <ele>647.754</ele>
        <time>2019-02-18T14:33:50Z</time>
      </trkpt>
      <trkpt lat="45.82358" lon="4.31026">
        <ele>647.327</ele>
        <time>2019-02-18T14:33:56Z</time>
      </trkpt>
      <trkpt lat="45.82363" lon="4.31019">
        <ele>647.233</ele>
        <time>2019-02-18T14:34:02Z</time>
      </trkpt>
      <trkpt lat="45.82368" lon="4.31009">
        <ele>646.781</ele>
        <time>2019-02-18T14:34:08Z</time>
      </trkpt>
      <trkpt lat="45.82372" lon="4.31002">
        <ele>646.383</ele>
        <time>2019-02-18T14:34:14Z</time>
      </trkpt>
      <trkpt lat="45.82375" lon="4.30997">
        <ele>646.132</ele>
        <time>2019-02-18T14:34:19Z</time>
      </trkpt>
      <trkpt lat="45.82381" lon="4.30987">
        <ele>645.581</ele>
        <time>2019-02-18T14:34:25Z</time>
      </trkpt>
      <trkpt lat="45.82384" lon="4.30982">
        <ele>645.308</ele>
        <time>2019-02-18T14:34:30Z</time>
      </trkpt>
      <trkpt lat="45.82388" lon="4.30974">
        <ele>644.53</ele>
        <time>2019-02-18T14:34:36Z</time>
      </trkpt>
      <trkpt lat="45.82391" lon="4.30968">
        <ele>643.896</ele>
        <time>2019-02-18T14:34:42Z</time>
      </trkpt>
      <trkpt lat="45.82399" lon="4.3096">
        <ele>643.174</ele>
        <time>2019-02-18T14:34:48Z</time>
      </trkpt>
      <trkpt lat="45.82401" lon="4.30955">
        <ele>642.188</ele>
        <time>2019-02-18T14:34:54Z</time>
      </trkpt>
      <trkpt lat="45.82406" lon="4.30948">
        <ele>641.485</ele>
        <time>2019-02-18T14:34:59Z</time>
      </trkpt>
      <trkpt lat="45.82411" lon="4.30941">
        <ele>640.808</ele>
        <time>2019-02-18T14:35:05Z</time>
      </trkpt>
      <trkpt lat="45.82415" lon="4.30934">
        <ele>639.859</ele>
        <time>2019-02-18T14:35:10Z</time>
      </trkpt>
      <trkpt lat="45.8242" lon="4.30926">
        <ele>639.105</ele>
        <time>2019-02-18T14:35:16Z</time>
      </trkpt>
      <trkpt lat="45.82422" lon="4.30921">
        <ele>638.314</ele>
        <time>2019-02-18T14:35:21Z</time>
      </trkpt>
      <trkpt lat="45.82426" lon="4.30916">
        <ele>637.971</ele>
        <time>2019-02-18T14:35:27Z</time>
      </trkpt>
      <trkpt lat="45.82431" lon="4.30909">
        <ele>637.895</ele>
        <time>2019-02-18T14:35:32Z</time>
      </trkpt>
      <trkpt lat="45.82436" lon="4.309">
        <ele>637.763</ele>
        <time>2019-02-18T14:35:37Z</time>
      </trkpt>
      <trkpt lat="45.8244" lon="4.30895">
        <ele>637.373</ele>
        <time>2019-02-18T14:35:43Z</time>
      </trkpt>
      <trkpt lat="45.82445" lon="4.30888">
        <ele>637.192</ele>
        <time>2019-02-18T14:35:48Z</time>
      </trkpt>
      <trkpt lat="45.82452" lon="4.30879">
        <ele>636.554</ele>
        <time>2019-02-18T14:35:54Z</time>
      </trkpt>
      <trkpt lat="45.82458" lon="4.30874">
        <ele>636.379</ele>
        <time>2019-02-18T14:35:59Z</time>
      </trkpt>
      <trkpt lat="45.82463" lon="4.30869">
        <ele>636.028</ele>
        <time>2019-02-18T14:36:05Z</time>
      </trkpt>
      <trkpt lat="45.82467" lon="4.30865">
        <ele>636.172</ele>
        <time>2019-02-18T14:36:10Z</time>
      </trkpt>
      <trkpt lat="45.82472" lon="4.30862">
        <ele>636.526</ele>
        <time>2019-02-18T14:36:16Z</time>
      </trkpt>
      <trkpt lat="45.82478" lon="4.30859">
        <ele>636.442</ele>
        <time>2019-02-18T14:36:22Z</time>
      </trkpt>
      <trkpt lat="45.82483" lon="4.30857">
        <ele>636.21</ele>
        <time>2019-02-18T14:36:27Z</time>
      </trkpt>
      <trkpt lat="45.82491" lon="4.30855">
        <ele>635.48</ele>
        <time>2019-02-18T14:36:33Z</time>
      </trkpt>
      <trkpt lat="45.825" lon="4.30854">
        <ele>634.478</ele>
        <time>2019-02-18T14:36:39Z</time>
      </trkpt>
      <trkpt lat="45.82506" lon="4.30855">
        <ele>633.562</ele>
        <time>2019-02-18T14:36:44Z</time>
      </trkpt>
      <trkpt lat="45.82513" lon="4.30856">
        <ele>632.841</ele>
        <time>2019-02-18T14:36:50Z</time>
      </trkpt>
      <trkpt lat="45.82519" lon="4.30857">
        <ele>631.732</ele>
        <time>2019-02-18T14:36:56Z</time>
      </trkpt>
      <trkpt lat="45.82526" lon="4.30865">
        <ele>630.447</ele>
        <time>2019-02-18T14:37:02Z</time>
      </trkpt>
      <trkpt lat="45.82533" lon="4.30863">
        <ele>629.848</ele>
        <time>2019-02-18T14:37:08Z</time>
      </trkpt>
      <trkpt lat="45.8254" lon="4.30858">
        <ele>629.109</ele>
        <time>2019-02-18T14:37:14Z</time>
      </trkpt>
      <trkpt lat="45.82545" lon="4.30853">
        <ele>628.384</ele>
        <time>2019-02-18T14:37:19Z</time>
      </trkpt>
      <trkpt lat="45.82547" lon="4.30847">
        <ele>627.158</ele>
        <time>2019-02-18T14:37:25Z</time>
      </trkpt>
      <trkpt lat="45.82549" lon="4.30841">
        <ele>626.681</ele>
        <time>2019-02-18T14:37:30Z</time>
      </trkpt>
      <trkpt lat="45.82549" lon="4.30836">
        <ele>625.206</ele>
        <time>2019-02-18T14:37:36Z</time>
      </trkpt>
      <trkpt lat="45.8255" lon="4.30823">
        <ele>624.756</ele>
        <time>2019-02-18T14:37:41Z</time>
      </trkpt>
      <trkpt lat="45.8255" lon="4.30815">
        <ele>624.302</ele>
        <time>2019-02-18T14:37:47Z</time>
      </trkpt>
      <trkpt lat="45.82549" lon="4.30807">
        <ele>623.929</ele>
        <time>2019-02-18T14:37:52Z</time>
      </trkpt>
      <trkpt lat="45.82549" lon="4.308">
        <ele>623.69</ele>
        <time>2019-02-18T14:37:57Z</time>
      </trkpt>
      <trkpt lat="45.82545" lon="4.3079">
        <ele>623.176</ele>
        <time>2019-02-18T14:38:03Z</time>
      </trkpt>
      <trkpt lat="45.82543" lon="4.30783">
        <ele>622.705</ele>
        <time>2019-02-18T14:38:08Z</time>
      </trkpt>
      <trkpt lat="45.82538" lon="4.30775">
        <ele>622.46</ele>
        <time>2019-02-18T14:38:14Z</time>
      </trkpt>
      <trkpt lat="45.82537" lon="4.30765">
        <ele>622.335</ele>
        <time>2019-02-18T14:38:20Z</time>
      </trkpt>
      <trkpt lat="45.82536" lon="4.30758">
        <ele>622.551</ele>
        <time>2019-02-18T14:38:25Z</time>
      </trkpt>
      <trkpt lat="45.82536" lon="4.30754">
        <ele>622.559</ele>
        <time>2019-02-18T14:38:30Z</time>
      </trkpt>
      <trkpt lat="45.82538" lon="4.30747">
        <ele>622.315</ele>
        <time>2019-02-18T14:38:36Z</time>
      </trkpt>
      <trkpt lat="45.82539" lon="4.30745">
        <ele>622.586</ele>
        <time>2019-02-18T14:38:41Z</time>
      </trkpt>
      <trkpt lat="45.82538" lon="4.30741">
        <ele>623.259</ele>
        <time>2019-02-18T14:38:47Z</time>
      </trkpt>
      <trkpt lat="45.8254" lon="4.30739">
        <ele>623.91</ele>
        <time>2019-02-18T14:38:53Z</time>
      </trkpt>
      <trkpt lat="45.82544" lon="4.30737">
        <ele>624.16</ele>
        <time>2019-02-18T14:38:58Z</time>
      </trkpt>
      <trkpt lat="45.82547" lon="4.30737">
        <ele>624.012</ele>
        <time>2019-02-18T14:39:04Z</time>
      </trkpt>
      <trkpt lat="45.82552" lon="4.30735">
        <ele>624.017</ele>
        <time>2019-02-18T14:39:09Z</time>
      </trkpt>
      <trkpt lat="45.82553" lon="4.30732">
        <ele>624.276</ele>
        <time>2019-02-18T14:39:15Z</time>
      </trkpt>
      <trkpt lat="45.82551" lon="4.30731">
        <ele>624.244</ele>
        <time>2019-02-18T14:39:20Z</time>
      </trkpt>
      <trkpt lat="45.82553" lon="4.30731">
        <ele>624.374</ele>
        <time>2019-02-18T14:39:26Z</time>
      </trkpt>
      <trkpt lat="45.82555" lon="4.30733">
        <ele>624.95</ele>
        <time>2019-02-18T14:39:32Z</time>
      </trkpt>
      <trkpt lat="45.82557" lon="4.30733">
        <ele>625.582</ele>
        <time>2019-02-18T14:39:37Z</time>
      </trkpt>
      <trkpt lat="45.82561" lon="4.30736">
        <ele>626.371</ele>
        <time>2019-02-18T14:39:43Z</time>
      </trkpt>
      <trkpt lat="45.82565" lon="4.30739">
        <ele>626.775</ele>
        <time>2019-02-18T14:39:49Z</time>
      </trkpt>
      <trkpt lat="45.82565" lon="4.30745">
        <ele>627.032</ele>
        <time>2019-02-18T14:39:54Z</time>
      </trkpt>
      <trkpt lat="45.82564" lon="4.30749">
        <ele>627.122</ele>
        <time>2019-02-18T14:39:59Z</time>
      </trkpt>
      <trkpt lat="45.82565" lon="4.30756">
        <ele>626.76</ele>
        <time>2019-02-18T14:40:05Z</time>
      </trkpt>
      <trkpt lat="45.82569" lon="4.30762">
        <ele>626.708</ele>
        <time>2019-02-18T14:40:11Z</time>
      </trkpt>
      <trkpt lat="45.82571" lon="4.30771">
        <ele>626.903</ele>
        <time>2019-02-18T14:40:16Z</time>
      </trkpt>
      <trkpt lat="45.82574" lon="4.30776">
        <ele>627.219</ele>
        <time>2019-02-18T14:40:22Z</time>
      </trkpt>
      <trkpt lat="45.82574" lon="4.30784">
        <ele>627.394</ele>
        <time>2019-02-18T14:40:28Z</time>
      </trkpt>
      <trkpt lat="45.82578" lon="4.30792">
        <ele>627.444</ele>
        <time>2019-02-18T14:40:33Z</time>
      </trkpt>
      <trkpt lat="45.8258" lon="4.30795">
        <ele>627.298</ele>
        <time>2019-02-18T14:40:39Z</time>
      </trkpt>
      <trkpt lat="45.82583" lon="4.30802">
        <ele>627.091</ele>
        <time>2019-02-18T14:40:44Z</time>
      </trkpt>
      <trkpt lat="45.82591" lon="4.30804">
        <ele>626.922</ele>
        <time>2019-02-18T14:40:50Z</time>
      </trkpt>
      <trkpt lat="45.82594" lon="4.30808">
        <ele>627.265</ele>
        <time>2019-02-18T14:40:55Z</time>
      </trkpt>
      <trkpt lat="45.82595" lon="4.30813">
        <ele>627.527</ele>
        <time>2019-02-18T14:41:00Z</time>
      </trkpt>
      <trkpt lat="45.82601" lon="4.30822">
        <ele>627.464</ele>
        <time>2019-02-18T14:41:06Z</time>
      </trkpt>
      <trkpt lat="45.82604" lon="4.30829">
        <ele>627.562</ele>
        <time>2019-02-18T14:41:11Z</time>
      </trkpt>
      <trkpt lat="45.82608" lon="4.30833">
        <ele>627.587</ele>
        <time>2019-02-18T14:41:17Z</time>
      </trkpt>
      <trkpt lat="45.82606" lon="4.30836">
        <ele>627.642</ele>
        <time>2019-02-18T14:41:23Z</time>
      </trkpt>
      <trkpt lat="45.82605" lon="4.30837">
        <ele>627.461</ele>
        <time>2019-02-18T14:41:28Z</time>
      </trkpt>
      <trkpt lat="45.82606" lon="4.30838">
        <ele>627.148</ele>
        <time>2019-02-18T14:41:34Z</time>
      </trkpt>
      <trkpt lat="45.82607" lon="4.30839">
        <ele>627.118</ele>
        <time>2019-02-18T14:41:39Z</time>
      </trkpt>
      <trkpt lat="45.82608" lon="4.30839">
        <ele>626.88</ele>
        <time>2019-02-18T14:41:44Z</time>
      </trkpt>
      <trkpt lat="45.82609" lon="4.30839">
        <ele>627.09</ele>
        <time>2019-02-18T14:41:50Z</time>
      </trkpt>
      <trkpt lat="45.82608" lon="4.30838">
        <ele>627.086</ele>
        <time>2019-02-18T14:41:56Z</time>
      </trkpt>
      <trkpt lat="45.82606" lon="4.30837">
        <ele>626.979</ele>
        <time>2019-02-18T14:42:02Z</time>
      </trkpt>
      <trkpt lat="45.82605" lon="4.30838">
        <ele>626.681</ele>
        <time>2019-02-18T14:42:07Z</time>
      </trkpt>
      <trkpt lat="45.82607" lon="4.30839">
        <ele>626.551</ele>
        <time>2019-02-18T14:42:13Z</time>
      </trkpt>
      <trkpt lat="45.82609" lon="4.3084">
        <ele>626.461</ele>
        <time>2019-02-18T14:42:18Z</time>
      </trkpt>
      <trkpt lat="45.82609" lon="4.30838">
        <ele>626.433</ele>
        <time>2019-02-18T14:42:23Z</time>
      </trkpt>
      <trkpt lat="45.8261" lon="4.30837">
        <ele>625.985</ele>
        <time>2019-02-18T14:42:29Z</time>
      </trkpt>
      <trkpt lat="45.82613" lon="4.30842">
        <ele>625.987</ele>
        <time>2019-02-18T14:42:35Z</time>
      </trkpt>
      <trkpt lat="45.82616" lon="4.30849">
        <ele>626.4</ele>
        <time>2019-02-18T14:42:41Z</time>
      </trkpt>
      <trkpt lat="45.82622" lon="4.30857">
        <ele>627.1</ele>
        <time>2019-02-18T14:42:47Z</time>
      </trkpt>
      <trkpt lat="45.82624" lon="4.30862">
        <ele>627.371</ele>
        <time>2019-02-18T14:42:52Z</time>
      </trkpt>
      <trkpt lat="45.8263" lon="4.30872">
        <ele>627.776</ele>
        <time>2019-02-18T14:42:57Z</time>
      </trkpt>
      <trkpt lat="45.82636" lon="4.30878">
        <ele>628.004</ele>
        <time>2019-02-18T14:43:03Z</time>
      </trkpt>
      <trkpt lat="45.82642" lon="4.30884">
        <ele>627.743</ele>
        <time>2019-02-18T14:43:09Z</time>
      </trkpt>
      <trkpt lat="45.82647" lon="4.30892">
        <ele>627.626</ele>
        <time>2019-02-18T14:43:15Z</time>
      </trkpt>
      <trkpt lat="45.82653" lon="4.30899">
        <ele>627.294</ele>
        <time>2019-02-18T14:43:21Z</time>
      </trkpt>
      <trkpt lat="45.82659" lon="4.30906">
        <ele>627.289</ele>
        <time>2019-02-18T14:43:27Z</time>
      </trkpt>
      <trkpt lat="45.82662" lon="4.30914">
        <ele>627.33</ele>
        <time>2019-02-18T14:43:33Z</time>
      </trkpt>
      <trkpt lat="45.82667" lon="4.30922">
        <ele>627.257</ele>
        <time>2019-02-18T14:43:39Z</time>
      </trkpt>
      <trkpt lat="45.8267" lon="4.3093">
        <ele>627.494</ele>
        <time>2019-02-18T14:43:44Z</time>
      </trkpt>
      <trkpt lat="45.82676" lon="4.30937">
        <ele>627.591</ele>
        <time>2019-02-18T14:43:50Z</time>
      </trkpt>
      <trkpt lat="45.82679" lon="4.30947">
        <ele>627.804</ele>
        <time>2019-02-18T14:43:56Z</time>
      </trkpt>
      <trkpt lat="45.82683" lon="4.30955">
        <ele>628.008</ele>
        <time>2019-02-18T14:44:01Z</time>
      </trkpt>
      <trkpt lat="45.82686" lon="4.30964">
        <ele>628.549</ele>
        <time>2019-02-18T14:44:07Z</time>
      </trkpt>
      <trkpt lat="45.82689" lon="4.30973">
        <ele>629.053</ele>
        <time>2019-02-18T14:44:13Z</time>
      </trkpt>
      <trkpt lat="45.82692" lon="4.30982">
        <ele>629.341</ele>
        <time>2019-02-18T14:44:19Z</time>
      </trkpt>
      <trkpt lat="45.82697" lon="4.30989">
        <ele>629.549</ele>
        <time>2019-02-18T14:44:25Z</time>
      </trkpt>
      <trkpt lat="45.82701" lon="4.30999">
        <ele>629.486</ele>
        <time>2019-02-18T14:44:31Z</time>
      </trkpt>
      <trkpt lat="45.82705" lon="4.31006">
        <ele>629.381</ele>
        <time>2019-02-18T14:44:37Z</time>
      </trkpt>
      <trkpt lat="45.82709" lon="4.31016">
        <ele>629.472</ele>
        <time>2019-02-18T14:44:43Z</time>
      </trkpt>
      <trkpt lat="45.82713" lon="4.31023">
        <ele>629.508</ele>
        <time>2019-02-18T14:44:48Z</time>
      </trkpt>
      <trkpt lat="45.82717" lon="4.3103">
        <ele>629.654</ele>
        <time>2019-02-18T14:44:54Z</time>
      </trkpt>
      <trkpt lat="45.82721" lon="4.31037">
        <ele>629.83</ele>
        <time>2019-02-18T14:44:59Z</time>
      </trkpt>
      <trkpt lat="45.82727" lon="4.31045">
        <ele>630.25</ele>
        <time>2019-02-18T14:45:05Z</time>
      </trkpt>
      <trkpt lat="45.8273" lon="4.3105">
        <ele>630.512</ele>
        <time>2019-02-18T14:45:10Z</time>
      </trkpt>
      <trkpt lat="45.82734" lon="4.31055">
        <ele>630.453</ele>
        <time>2019-02-18T14:45:15Z</time>
      </trkpt>
      <trkpt lat="45.82738" lon="4.31062">
        <ele>630.307</ele>
        <time>2019-02-18T14:45:20Z</time>
      </trkpt>
      <trkpt lat="45.82741" lon="4.3107">
        <ele>629.962</ele>
        <time>2019-02-18T14:45:25Z</time>
      </trkpt>
      <trkpt lat="45.82744" lon="4.3108">
        <ele>629.925</ele>
        <time>2019-02-18T14:45:31Z</time>
      </trkpt>
      <trkpt lat="45.82748" lon="4.31088">
        <ele>629.657</ele>
        <time>2019-02-18T14:45:36Z</time>
      </trkpt>
      <trkpt lat="45.82751" lon="4.31096">
        <ele>629.668</ele>
        <time>2019-02-18T14:45:41Z</time>
      </trkpt>
      <trkpt lat="45.82753" lon="4.31101">
        <ele>629.329</ele>
        <time>2019-02-18T14:45:47Z</time>
      </trkpt>
      <trkpt lat="45.82758" lon="4.31111">
        <ele>628.701</ele>
        <time>2019-02-18T14:45:53Z</time>
      </trkpt>
      <trkpt lat="45.82763" lon="4.31122">
        <ele>628.748</ele>
        <time>2019-02-18T14:45:59Z</time>
      </trkpt>
      <trkpt lat="45.82767" lon="4.31129">
        <ele>628.713</ele>
        <time>2019-02-18T14:46:05Z</time>
      </trkpt>
      <trkpt lat="45.82772" lon="4.31135">
        <ele>628.764</ele>
        <time>2019-02-18T14:46:11Z</time>
      </trkpt>
      <trkpt lat="45.82777" lon="4.3114">
        <ele>629.264</ele>
        <time>2019-02-18T14:46:16Z</time>
      </trkpt>
      <trkpt lat="45.82782" lon="4.31146">
        <ele>629.906</ele>
        <time>2019-02-18T14:46:21Z</time>
      </trkpt>
      <trkpt lat="45.82788" lon="4.31151">
        <ele>630.2</ele>
        <time>2019-02-18T14:46:27Z</time>
      </trkpt>
      <trkpt lat="45.82794" lon="4.31156">
        <ele>630.681</ele>
        <time>2019-02-18T14:46:32Z</time>
      </trkpt>
      <trkpt lat="45.828" lon="4.31159">
        <ele>631.434</ele>
        <time>2019-02-18T14:46:38Z</time>
      </trkpt>
      <trkpt lat="45.82807" lon="4.31159">
        <ele>632.564</ele>
        <time>2019-02-18T14:46:44Z</time>
      </trkpt>
      <trkpt lat="45.82813" lon="4.31162">
        <ele>633.103</ele>
        <time>2019-02-18T14:46:50Z</time>
      </trkpt>
      <trkpt lat="45.82821" lon="4.31163">
        <ele>633.298</ele>
        <time>2019-02-18T14:46:56Z</time>
      </trkpt>
      <trkpt lat="45.82827" lon="4.31161">
        <ele>633.769</ele>
        <time>2019-02-18T14:47:02Z</time>
      </trkpt>
      <trkpt lat="45.82832" lon="4.3116">
        <ele>634.167</ele>
        <time>2019-02-18T14:47:07Z</time>
      </trkpt>
      <trkpt lat="45.82837" lon="4.31158">
        <ele>634.308</ele>
        <time>2019-02-18T14:47:12Z</time>
      </trkpt>
      <trkpt lat="45.82844" lon="4.31158">
        <ele>634.276</ele>
        <time>2019-02-18T14:47:18Z</time>
      </trkpt>
      <trkpt lat="45.82851" lon="4.31159">
        <ele>634.114</ele>
        <time>2019-02-18T14:47:23Z</time>
      </trkpt>
      <trkpt lat="45.82858" lon="4.31159">
        <ele>633.955</ele>
        <time>2019-02-18T14:47:29Z</time>
      </trkpt>
      <trkpt lat="45.82864" lon="4.31159">
        <ele>634.049</ele>
        <time>2019-02-18T14:47:34Z</time>
      </trkpt>
      <trkpt lat="45.82869" lon="4.31158">
        <ele>633.953</ele>
        <time>2019-02-18T14:47:39Z</time>
      </trkpt>
      <trkpt lat="45.82877" lon="4.31157">
        <ele>633.947</ele>
        <time>2019-02-18T14:47:45Z</time>
      </trkpt>
      <trkpt lat="45.82884" lon="4.31158">
        <ele>634.053</ele>
        <time>2019-02-18T14:47:50Z</time>
      </trkpt>
      <trkpt lat="45.8289" lon="4.31159">
        <ele>634.501</ele>
        <time>2019-02-18T14:47:56Z</time>
      </trkpt>
      <trkpt lat="45.82898" lon="4.31162">
        <ele>634.586</ele>
        <time>2019-02-18T14:48:01Z</time>
      </trkpt>
      <trkpt lat="45.82904" lon="4.31168">
        <ele>634.303</ele>
        <time>2019-02-18T14:48:07Z</time>
      </trkpt>
      <trkpt lat="45.8291" lon="4.31175">
        <ele>634.244</ele>
        <time>2019-02-18T14:48:12Z</time>
      </trkpt>
      <trkpt lat="45.82915" lon="4.3118">
        <ele>634.464</ele>
        <time>2019-02-18T14:48:18Z</time>
      </trkpt>
      <trkpt lat="45.82921" lon="4.31189">
        <ele>634.729</ele>
        <time>2019-02-18T14:48:24Z</time>
      </trkpt>
      <trkpt lat="45.82922" lon="4.31196">
        <ele>634.731</ele>
        <time>2019-02-18T14:48:29Z</time>
      </trkpt>
      <trkpt lat="45.82922" lon="4.31204">
        <ele>634.852</ele>
        <time>2019-02-18T14:48:35Z</time>
      </trkpt>
      <trkpt lat="45.82922" lon="4.31211">
        <ele>634.769</ele>
        <time>2019-02-18T14:48:40Z</time>
      </trkpt>
      <trkpt lat="45.82919" lon="4.31218">
        <ele>634.877</ele>
        <time>2019-02-18T14:48:46Z</time>
      </trkpt>
      <trkpt lat="45.82918" lon="4.31227">
        <ele>635.305</ele>
        <time>2019-02-18T14:48:52Z</time>
      </trkpt>
      <trkpt lat="45.82912" lon="4.31239">
        <ele>635.347</ele>
        <time>2019-02-18T14:48:58Z</time>
      </trkpt>
      <trkpt lat="45.82906" lon="4.31244">
        <ele>635.242</ele>
        <time>2019-02-18T14:49:04Z</time>
      </trkpt>
      <trkpt lat="45.82904" lon="4.31246">
        <ele>635.106</ele>
        <time>2019-02-18T14:49:09Z</time>
      </trkpt>
      <trkpt lat="45.82899" lon="4.31249">
        <ele>634.632</ele>
        <time>2019-02-18T14:49:15Z</time>
      </trkpt>
      <trkpt lat="45.82896" lon="4.3125">
        <ele>634.285</ele>
        <time>2019-02-18T14:49:21Z</time>
      </trkpt>
      <trkpt lat="45.82891" lon="4.31251">
        <ele>633.897</ele>
        <time>2019-02-18T14:49:27Z</time>
      </trkpt>
      <trkpt lat="45.82887" lon="4.31254">
        <ele>633.716</ele>
        <time>2019-02-18T14:49:33Z</time>
      </trkpt>
      <trkpt lat="45.82888" lon="4.31254">
        <ele>633.158</ele>
        <time>2019-02-18T14:49:39Z</time>
      </trkpt>
      <trkpt lat="45.8289" lon="4.31255">
        <ele>633.084</ele>
        <time>2019-02-18T14:49:44Z</time>
      </trkpt>
      <trkpt lat="45.8289" lon="4.31257">
        <ele>633.443</ele>
        <time>2019-02-18T14:49:49Z</time>
      </trkpt>
      <trkpt lat="45.8289" lon="4.31257">
        <ele>633.131</ele>
        <time>2019-02-18T14:49:55Z</time>
      </trkpt>
      <trkpt lat="45.82889" lon="4.31257">
        <ele>633.199</ele>
        <time>2019-02-18T14:50:00Z</time>
      </trkpt>
      <trkpt lat="45.82887" lon="4.31258">
        <ele>633.682</ele>
        <time>2019-02-18T14:50:06Z</time>
      </trkpt>
      <trkpt lat="45.82887" lon="4.31258">
        <ele>634.19</ele>
        <time>2019-02-18T14:50:11Z</time>
      </trkpt>
      <trkpt lat="45.82887" lon="4.31258">
        <ele>634.571</ele>
        <time>2019-02-18T14:50:17Z</time>
      </trkpt>
      <trkpt lat="45.82888" lon="4.31256">
        <ele>634.837</ele>
        <time>2019-02-18T14:50:22Z</time>
      </trkpt>
      <trkpt lat="45.82888" lon="4.31255">
        <ele>635.171</ele>
        <time>2019-02-18T14:50:27Z</time>
      </trkpt>
      <trkpt lat="45.82889" lon="4.31252">
        <ele>635.589</ele>
        <time>2019-02-18T14:50:33Z</time>
      </trkpt>
      <trkpt lat="45.82889" lon="4.31252">
        <ele>636.103</ele>
        <time>2019-02-18T14:50:39Z</time>
      </trkpt>
      <trkpt lat="45.82888" lon="4.31253">
        <ele>636.748</ele>
        <time>2019-02-18T14:50:44Z</time>
      </trkpt>
      <trkpt lat="45.82888" lon="4.31255">
        <ele>637.036</ele>
        <time>2019-02-18T14:50:49Z</time>
      </trkpt>
      <trkpt lat="45.82888" lon="4.31255">
        <ele>637.103</ele>
        <time>2019-02-18T14:50:55Z</time>
      </trkpt>
      <trkpt lat="45.82888" lon="4.31258">
        <ele>637.554</ele>
        <time>2019-02-18T14:51:01Z</time>
      </trkpt>
      <trkpt lat="45.82888" lon="4.31261">
        <ele>637.741</ele>
        <time>2019-02-18T14:51:07Z</time>
      </trkpt>
      <trkpt lat="45.82885" lon="4.31266">
        <ele>637.049</ele>
        <time>2019-02-18T14:51:13Z</time>
      </trkpt>
      <trkpt lat="45.82885" lon="4.31271">
        <ele>636.916</ele>
        <time>2019-02-18T14:51:18Z</time>
      </trkpt>
      <trkpt lat="45.82885" lon="4.31275">
        <ele>637.232</ele>
        <time>2019-02-18T14:51:24Z</time>
      </trkpt>
      <trkpt lat="45.82883" lon="4.31279">
        <ele>637.543</ele>
        <time>2019-02-18T14:51:29Z</time>
      </trkpt>
      <trkpt lat="45.8288" lon="4.31285">
        <ele>637.867</ele>
        <time>2019-02-18T14:51:35Z</time>
      </trkpt>
      <trkpt lat="45.82875" lon="4.31296">
        <ele>638.243</ele>
        <time>2019-02-18T14:51:40Z</time>
      </trkpt>
      <trkpt lat="45.82874" lon="4.313">
        <ele>638.718</ele>
        <time>2019-02-18T14:51:45Z</time>
      </trkpt>
      <trkpt lat="45.82873" lon="4.31303">
        <ele>639.052</ele>
        <time>2019-02-18T14:51:51Z</time>
      </trkpt>
      <trkpt lat="45.82873" lon="4.31307">
        <ele>639.63</ele>
        <time>2019-02-18T14:51:56Z</time>
      </trkpt>
      <trkpt lat="45.82871" lon="4.31312">
        <ele>640.04</ele>
        <time>2019-02-18T14:52:02Z</time>
      </trkpt>
      <trkpt lat="45.8287" lon="4.31318">
        <ele>640.209</ele>
        <time>2019-02-18T14:52:08Z</time>
      </trkpt>
      <trkpt lat="45.82868" lon="4.31323">
        <ele>640.936</ele>
        <time>2019-02-18T14:52:14Z</time>
      </trkpt>
      <trkpt lat="45.82867" lon="4.31328">
        <ele>641.579</ele>
        <time>2019-02-18T14:52:19Z</time>
      </trkpt>
      <trkpt lat="45.82864" lon="4.31332">
        <ele>642.154</ele>
        <time>2019-02-18T14:52:25Z</time>
      </trkpt>
      <trkpt lat="45.82863" lon="4.31337">
        <ele>642.72</ele>
        <time>2019-02-18T14:52:31Z</time>
      </trkpt>
      <trkpt lat="45.82861" lon="4.31346">
        <ele>643.437</ele>
        <time>2019-02-18T14:52:36Z</time>
      </trkpt>
      <trkpt lat="45.8286" lon="4.31351">
        <ele>644.542</ele>
        <time>2019-02-18T14:52:42Z</time>
      </trkpt>
      <trkpt lat="45.8286" lon="4.31353">
        <ele>646.185</ele>
        <time>2019-02-18T14:52:48Z</time>
      </trkpt>
      <trkpt lat="45.82858" lon="4.31352">
        <ele>647.588</ele>
        <time>2019-02-18T14:52:53Z</time>
      </trkpt>
      <trkpt lat="45.82852" lon="4.31351">
        <ele>649.175</ele>
        <time>2019-02-18T14:52:59Z</time>
      </trkpt>
      <trkpt lat="45.82849" lon="4.31353">
        <ele>650.898</ele>
        <time>2019-02-18T14:53:05Z</time>
      </trkpt>
      <trkpt lat="45.82845" lon="4.31355">
        <ele>652.325</ele>
        <time>2019-02-18T14:53:11Z</time>
      </trkpt>
      <trkpt lat="45.82839" lon="4.31358">
        <ele>653.213</ele>
        <time>2019-02-18T14:53:17Z</time>
      </trkpt>
      <trkpt lat="45.82834" lon="4.31358">
        <ele>654.467</ele>
        <time>2019-02-18T14:53:23Z</time>
      </trkpt>
      <trkpt lat="45.82829" lon="4.3136">
        <ele>655.223</ele>
        <time>2019-02-18T14:53:29Z</time>
      </trkpt>
      <trkpt lat="45.82823" lon="4.31359">
        <ele>655.829</ele>
        <time>2019-02-18T14:53:34Z</time>
      </trkpt>
      <trkpt lat="45.82819" lon="4.3136">
        <ele>656.628</ele>
        <time>2019-02-18T14:53:40Z</time>
      </trkpt>
      <trkpt lat="45.82815" lon="4.31361">
        <ele>657.236</ele>
        <time>2019-02-18T14:53:45Z</time>
      </trkpt>
      <trkpt lat="45.82812" lon="4.31363">
        <ele>658.106</ele>
        <time>2019-02-18T14:53:51Z</time>
      </trkpt>
      <trkpt lat="45.82807" lon="4.31366">
        <ele>659.052</ele>
        <time>2019-02-18T14:53:57Z</time>
      </trkpt>
      <trkpt lat="45.82803" lon="4.31367">
        <ele>659.987</ele>
        <time>2019-02-18T14:54:03Z</time>
      </trkpt>
      <trkpt lat="45.82798" lon="4.31368">
        <ele>660.916</ele>
        <time>2019-02-18T14:54:09Z</time>
      </trkpt>
      <trkpt lat="45.82794" lon="4.31367">
        <ele>661.769</ele>
        <time>2019-02-18T14:54:14Z</time>
      </trkpt>
      <trkpt lat="45.8279" lon="4.31369">
        <ele>662.598</ele>
        <time>2019-02-18T14:54:20Z</time>
      </trkpt>
      <trkpt lat="45.82787" lon="4.31372">
        <ele>663.579</ele>
        <time>2019-02-18T14:54:25Z</time>
      </trkpt>
      <trkpt lat="45.82782" lon="4.31373">
        <ele>664.534</ele>
        <time>2019-02-18T14:54:31Z</time>
      </trkpt>
      <trkpt lat="45.82777" lon="4.31375">
        <ele>665.032</ele>
        <time>2019-02-18T14:54:37Z</time>
      </trkpt>
      <trkpt lat="45.82772" lon="4.31379">
        <ele>665.929</ele>
        <time>2019-02-18T14:54:43Z</time>
      </trkpt>
      <trkpt lat="45.8277" lon="4.31382">
        <ele>666.544</ele>
        <time>2019-02-18T14:54:48Z</time>
      </trkpt>
      <trkpt lat="45.82768" lon="4.31385">
        <ele>667.743</ele>
        <time>2019-02-18T14:54:54Z</time>
      </trkpt>
      <trkpt lat="45.82767" lon="4.31385">
        <ele>668.566</ele>
        <time>2019-02-18T14:55:00Z</time>
      </trkpt>
      <trkpt lat="45.82766" lon="4.31386">
        <ele>669.165</ele>
        <time>2019-02-18T14:55:05Z</time>
      </trkpt>
      <trkpt lat="45.82761" lon="4.3139">
        <ele>669.904</ele>
        <time>2019-02-18T14:55:11Z</time>
      </trkpt>
      <trkpt lat="45.82755" lon="4.31396">
        <ele>670.498</ele>
        <time>2019-02-18T14:55:17Z</time>
      </trkpt>
      <trkpt lat="45.8275" lon="4.31399">
        <ele>671.17</ele>
        <time>2019-02-18T14:55:23Z</time>
      </trkpt>
      <trkpt lat="45.82747" lon="4.31402">
        <ele>671.794</ele>
        <time>2019-02-18T14:55:29Z</time>
      </trkpt>
      <trkpt lat="45.82741" lon="4.31405">
        <ele>672.399</ele>
        <time>2019-02-18T14:55:35Z</time>
      </trkpt>
      <trkpt lat="45.82737" lon="4.31407">
        <ele>672.821</ele>
        <time>2019-02-18T14:55:40Z</time>
      </trkpt>
      <trkpt lat="45.82733" lon="4.31411">
        <ele>673.268</ele>
        <time>2019-02-18T14:55:46Z</time>
      </trkpt>
      <trkpt lat="45.8273" lon="4.31414">
        <ele>673.918</ele>
        <time>2019-02-18T14:55:51Z</time>
      </trkpt>
      <trkpt lat="45.82724" lon="4.31418">
        <ele>674.726</ele>
        <time>2019-02-18T14:55:57Z</time>
      </trkpt>
      <trkpt lat="45.82722" lon="4.31421">
        <ele>675.27</ele>
        <time>2019-02-18T14:56:02Z</time>
      </trkpt>
      <trkpt lat="45.82717" lon="4.31423">
        <ele>675.831</ele>
        <time>2019-02-18T14:56:07Z</time>
      </trkpt>
      <trkpt lat="45.82713" lon="4.31426">
        <ele>676.387</ele>
        <time>2019-02-18T14:56:12Z</time>
      </trkpt>
      <trkpt lat="45.82707" lon="4.3143">
        <ele>677.207</ele>
        <time>2019-02-18T14:56:18Z</time>
      </trkpt>
      <trkpt lat="45.82702" lon="4.31434">
        <ele>678.037</ele>
        <time>2019-02-18T14:56:24Z</time>
      </trkpt>
      <trkpt lat="45.82697" lon="4.31436">
        <ele>678.671</ele>
        <time>2019-02-18T14:56:29Z</time>
      </trkpt>
      <trkpt lat="45.82692" lon="4.31439">
        <ele>679.497</ele>
        <time>2019-02-18T14:56:35Z</time>
      </trkpt>
      <trkpt lat="45.82687" lon="4.31442">
        <ele>680.341</ele>
        <time>2019-02-18T14:56:40Z</time>
      </trkpt>
      <trkpt lat="45.82683" lon="4.31446">
        <ele>681.031</ele>
        <time>2019-02-18T14:56:46Z</time>
      </trkpt>
      <trkpt lat="45.8268" lon="4.31453">
        <ele>681.894</ele>
        <time>2019-02-18T14:56:51Z</time>
      </trkpt>
      <trkpt lat="45.82677" lon="4.31458">
        <ele>683.024</ele>
        <time>2019-02-18T14:56:57Z</time>
      </trkpt>
      <trkpt lat="45.82673" lon="4.31465">
        <ele>683.664</ele>
        <time>2019-02-18T14:57:02Z</time>
      </trkpt>
      <trkpt lat="45.8267" lon="4.31471">
        <ele>684.584</ele>
        <time>2019-02-18T14:57:08Z</time>
      </trkpt>
      <trkpt lat="45.82665" lon="4.31474">
        <ele>685.204</ele>
        <time>2019-02-18T14:57:13Z</time>
      </trkpt>
      <trkpt lat="45.8266" lon="4.31472">
        <ele>685.301</ele>
        <time>2019-02-18T14:57:19Z</time>
      </trkpt>
      <trkpt lat="45.82655" lon="4.31469">
        <ele>685.336</ele>
        <time>2019-02-18T14:57:24Z</time>
      </trkpt>
      <trkpt lat="45.82649" lon="4.31465">
        <ele>685.221</ele>
        <time>2019-02-18T14:57:30Z</time>
      </trkpt>
      <trkpt lat="45.82643" lon="4.31463">
        <ele>685.601</ele>
        <time>2019-02-18T14:57:36Z</time>
      </trkpt>
      <trkpt lat="45.82636" lon="4.31459">
        <ele>685.812</ele>
        <time>2019-02-18T14:57:42Z</time>
      </trkpt>
      <trkpt lat="45.82632" lon="4.31457">
        <ele>685.867</ele>
        <time>2019-02-18T14:57:47Z</time>
      </trkpt>
      <trkpt lat="45.82627" lon="4.31457">
        <ele>685.746</ele>
        <time>2019-02-18T14:57:53Z</time>
      </trkpt>
      <trkpt lat="45.82621" lon="4.31454">
        <ele>685.503</ele>
        <time>2019-02-18T14:57:58Z</time>
      </trkpt>
      <trkpt lat="45.82614" lon="4.31455">
        <ele>685.47</ele>
        <time>2019-02-18T14:58:03Z</time>
      </trkpt>
      <trkpt lat="45.82608" lon="4.31454">
        <ele>685.342</ele>
        <time>2019-02-18T14:58:08Z</time>
      </trkpt>
      <trkpt lat="45.82601" lon="4.31454">
        <ele>685.422</ele>
        <time>2019-02-18T14:58:13Z</time>
      </trkpt>
      <trkpt lat="45.82597" lon="4.31452">
        <ele>685.518</ele>
        <time>2019-02-18T14:58:18Z</time>
      </trkpt>
      <trkpt lat="45.82592" lon="4.31452">
        <ele>685.923</ele>
        <time>2019-02-18T14:58:24Z</time>
      </trkpt>
      <trkpt lat="45.82587" lon="4.31449">
        <ele>685.535</ele>
        <time>2019-02-18T14:58:29Z</time>
      </trkpt>
      <trkpt lat="45.82581" lon="4.31445">
        <ele>685.039</ele>
        <time>2019-02-18T14:58:35Z</time>
      </trkpt>
      <trkpt lat="45.82579" lon="4.31441">
        <ele>684.745</ele>
        <time>2019-02-18T14:58:41Z</time>
      </trkpt>
      <trkpt lat="45.82574" lon="4.31444">
        <ele>684.14</ele>
        <time>2019-02-18T14:58:47Z</time>
      </trkpt>
      <trkpt lat="45.82573" lon="4.31449">
        <ele>683.854</ele>
        <time>2019-02-18T14:58:53Z</time>
      </trkpt>
      <trkpt lat="45.82573" lon="4.31452">
        <ele>683.461</ele>
        <time>2019-02-18T14:58:58Z</time>
      </trkpt>
      <trkpt lat="45.82572" lon="4.31453">
        <ele>682.968</ele>
        <time>2019-02-18T14:59:03Z</time>
      </trkpt>
      <trkpt lat="45.82572" lon="4.31451">
        <ele>682.499</ele>
        <time>2019-02-18T14:59:08Z</time>
      </trkpt>
      <trkpt lat="45.82571" lon="4.31447">
        <ele>681.825</ele>
        <time>2019-02-18T14:59:14Z</time>
      </trkpt>
      <trkpt lat="45.8257" lon="4.31445">
        <ele>680.921</ele>
        <time>2019-02-18T14:59:20Z</time>
      </trkpt>
      <trkpt lat="45.8257" lon="4.31445">
        <ele>681.095</ele>
        <time>2019-02-18T14:59:25Z</time>
      </trkpt>
      <trkpt lat="45.8257" lon="4.31446">
        <ele>681.298</ele>
        <time>2019-02-18T14:59:31Z</time>
      </trkpt>
      <trkpt lat="45.8257" lon="4.31447">
        <ele>681.24</ele>
        <time>2019-02-18T14:59:36Z</time>
      </trkpt>
      <trkpt lat="45.82569" lon="4.31447">
        <ele>679.953</ele>
        <time>2019-02-18T14:59:42Z</time>
      </trkpt>
      <trkpt lat="45.82569" lon="4.31448">
        <ele>678.583</ele>
        <time>2019-02-18T14:59:48Z</time>
      </trkpt>
      <trkpt lat="45.82568" lon="4.31449">
        <ele>676.641</ele>
        <time>2019-02-18T14:59:53Z</time>
      </trkpt>
      <trkpt lat="45.82567" lon="4.3145">
        <ele>675.062</ele>
        <time>2019-02-18T14:59:59Z</time>
      </trkpt>
      <trkpt lat="45.82567" lon="4.3145">
        <ele>674.939</ele>
        <time>2019-02-18T15:00:04Z</time>
      </trkpt>
      <trkpt lat="45.82567" lon="4.3145">
        <ele>674.798</ele>
        <time>2019-02-18T15:00:09Z</time>
      </trkpt>
      <trkpt lat="45.82567" lon="4.3145">
        <ele>674.723</ele>
        <time>2019-02-18T15:00:15Z</time>
      </trkpt>
      <trkpt lat="45.82567" lon="4.3145">
        <ele>674.73</ele>
        <time>2019-02-18T15:00:20Z</time>
      </trkpt>
      <trkpt lat="45.82567" lon="4.3145">
        <ele>674.775</ele>
        <time>2019-02-18T15:00:26Z</time>
      </trkpt>
      <trkpt lat="45.82567" lon="4.3145">
        <ele>674.844</ele>
        <time>2019-02-18T15:00:32Z</time>
      </trkpt>
      <trkpt lat="45.82568" lon="4.31449">
        <ele>675</ele>
        <time>2019-02-18T15:00:38Z</time>
      </trkpt>
      <trkpt lat="45.82568" lon="4.31448">
        <ele>675.155</ele>
        <time>2019-02-18T15:00:44Z</time>
      </trkpt>
      <trkpt lat="45.82568" lon="4.31448">
        <ele>675.143</ele>
        <time>2019-02-18T15:00:50Z</time>
      </trkpt>
      <trkpt lat="45.82568" lon="4.31448">
        <ele>675.16</ele>
        <time>2019-02-18T15:00:56Z</time>
      </trkpt>
      <trkpt lat="45.82568" lon="4.31448">
        <ele>675.095</ele>
        <time>2019-02-18T15:01:03Z</time>
      </trkpt>
      <trkpt lat="45.82568" lon="4.31448">
        <ele>675.027</ele>
        <time>2019-02-18T15:01:08Z</time>
      </trkpt>
      <trkpt lat="45.82568" lon="4.31448">
        <ele>674.977</ele>
        <time>2019-02-18T15:01:14Z</time>
      </trkpt>
      <trkpt lat="45.8257" lon="4.31445">
        <ele>675.112</ele>
        <time>2019-02-18T15:01:20Z</time>
      </trkpt>
      <trkpt lat="45.82574" lon="4.31441">
        <ele>676.224</ele>
        <time>2019-02-18T15:01:26Z</time>
      </trkpt>
      <trkpt lat="45.82576" lon="4.3144">
        <ele>677.125</ele>
        <time>2019-02-18T15:01:32Z</time>
      </trkpt>
      <trkpt lat="45.82578" lon="4.31439">
        <ele>677.619</ele>
        <time>2019-02-18T15:01:37Z</time>
      </trkpt>
      <trkpt lat="45.82581" lon="4.31434">
        <ele>678.574</ele>
        <time>2019-02-18T15:01:43Z</time>
      </trkpt>
      <trkpt lat="45.82581" lon="4.31432">
        <ele>679.095</ele>
        <time>2019-02-18T15:01:48Z</time>
      </trkpt>
      <trkpt lat="45.82581" lon="4.31432">
        <ele>679.225</ele>
        <time>2019-02-18T15:01:54Z</time>
      </trkpt>
      <trkpt lat="45.82581" lon="4.31432">
        <ele>679.262</ele>
        <time>2019-02-18T15:02:00Z</time>
      </trkpt>
      <trkpt lat="45.82581" lon="4.31432">
        <ele>679.479</ele>
        <time>2019-02-18T15:02:05Z</time>
      </trkpt>
      <trkpt lat="45.82581" lon="4.31432">
        <ele>679.527</ele>
        <time>2019-02-18T15:02:11Z</time>
      </trkpt>
      <trkpt lat="45.82581" lon="4.31432">
        <ele>679.54</ele>
        <time>2019-02-18T15:02:16Z</time>
      </trkpt>
      <trkpt lat="45.82581" lon="4.31432">
        <ele>679.577</ele>
        <time>2019-02-18T15:02:21Z</time>
      </trkpt>
      <trkpt lat="45.82581" lon="4.31432">
        <ele>679.647</ele>
        <time>2019-02-18T15:02:27Z</time>
      </trkpt>
      <trkpt lat="45.82581" lon="4.31432">
        <ele>679.702</ele>
        <time>2019-02-18T15:02:32Z</time>
      </trkpt>
      <trkpt lat="45.82581" lon="4.31432">
        <ele>679.738</ele>
        <time>2019-02-18T15:02:37Z</time>
      </trkpt>
    </trkseg>
  </trk>
</gpx>